<?xml version='1.0' encoding='UTF-8'?><gpx version="1.1" creator="JPX - https://github.com/jenetics/jpx" xmlns="http://www.topografix.com/GPX/1/1"><trk><trkseg><trkpt lat="45.889714965639534" lon="12.294995421555168"><ele>134.0</ele><time>2026-04-26T08:36:19.019Z</time></trkpt><trkpt lat="45.889648954101666" lon="12.294900855495742"><ele>134.0</ele><time>2026-04-26T08:37:25Z</time></trkpt><trkpt lat="45.88958114170959" lon="12.294912473680393"><ele>134.0</ele><time>2026-04-26T08:45:41Z</time></trkpt><trkpt lat="45.8895097868094" lon="12.294952235416268"><ele>134.0</ele><time>2026-04-26T08:45:44Z</time></trkpt><trkpt lat="45.88946664588256" lon="12.295019392792943"><ele>134.0</ele><time>2026-04-26T08:45:46Z</time></trkpt><trkpt lat="45.889453311005475" lon="12.295120103278467"><ele>134.0</ele><time>2026-04-26T08:45:48Z</time></trkpt><trkpt lat="45.88946696720772" lon="12.29522249044375"><ele>134.0</ele><time>2026-04-26T08:45:50Z</time></trkpt><trkpt lat="45.88947941911037" lon="12.295356775578753"><ele>134.0</ele><time>2026-04-26T08:45:53Z</time></trkpt><trkpt lat="45.889454170481315" lon="12.2954528934048"><ele>134.0</ele><time>2026-04-26T08:45:56Z</time></trkpt><trkpt lat="45.88938503047939" lon="12.29548221346925"><ele>134.0</ele><time>2026-04-26T08:45:58Z</time></trkpt><trkpt lat="45.8893119351152" lon="12.29545764096093"><ele>134.0</ele><time>2026-04-26T08:46:00Z</time></trkpt><trkpt lat="45.889247262591006" lon="12.295369536626126"><ele>134.0</ele><time>2026-04-26T08:46:02Z</time></trkpt><trkpt lat="45.889209659707745" lon="12.295201475984607"><ele>134.0</ele><time>2026-04-26T08:46:04Z</time></trkpt><trkpt lat="45.88920959910431" lon="12.29503843066677"><ele>135.4</ele><time>2026-04-26T08:46:06Z</time></trkpt><trkpt lat="45.88921473591137" lon="12.294913864172258"><ele>136.8</ele><time>2026-04-26T08:46:08Z</time></trkpt><trkpt lat="45.88917631919219" lon="12.294762212724972"><ele>138.2</ele><time>2026-04-26T08:46:10Z</time></trkpt><trkpt lat="45.88916206756641" lon="12.294629237987817"><ele>139.6</ele><time>2026-04-26T08:46:11Z</time></trkpt><trkpt lat="45.88917955049523" lon="12.294499002433408"><ele>141.0</ele><time>2026-04-26T08:46:12Z</time></trkpt><trkpt lat="45.88916508989744" lon="12.294387176788556"><ele>140.83333333333334</ele><time>2026-04-26T08:46:13Z</time></trkpt><trkpt lat="45.88915221871752" lon="12.294287642287712"><ele>140.66666666666666</ele><time>2026-04-26T08:46:14Z</time></trkpt><trkpt lat="45.889142469730956" lon="12.294188471860183"><ele>140.5</ele><time>2026-04-26T08:46:15Z</time></trkpt><trkpt lat="45.889136056044535" lon="12.294097878356789"><ele>140.33333333333331</ele><time>2026-04-26T08:46:16Z</time></trkpt><trkpt lat="45.88920242633255" lon="12.293967835686924"><ele>140.16666666666666</ele><time>2026-04-26T08:46:18Z</time></trkpt><trkpt lat="45.88926418679472" lon="12.293928818433896"><ele>140.0</ele><time>2026-04-26T08:46:19Z</time></trkpt><trkpt lat="45.88937775510121" lon="12.2939113011007"><ele>140.6</ele><time>2026-04-26T08:46:21Z</time></trkpt><trkpt lat="45.88948397928597" lon="12.293871742405653"><ele>141.2</ele><time>2026-04-26T08:46:23Z</time></trkpt><trkpt lat="45.88959473179997" lon="12.293815819363711"><ele>141.8</ele><time>2026-04-26T08:46:25Z</time></trkpt><trkpt lat="45.88964152392186" lon="12.293749676558983"><ele>142.4</ele><time>2026-04-26T08:46:26Z</time></trkpt><trkpt lat="45.88967029600443" lon="12.293661473290188"><ele>143.0</ele><time>2026-04-26T08:46:27Z</time></trkpt><trkpt lat="45.88965944296906" lon="12.293533343746594"><ele>143.0</ele><time>2026-04-26T08:46:28Z</time></trkpt><trkpt lat="45.889678707025325" lon="12.293429553818228"><ele>143.0</ele><time>2026-04-26T08:46:29Z</time></trkpt><trkpt lat="45.88969706267361" lon="12.293285651388159"><ele>143.0</ele><time>2026-04-26T08:46:31Z</time></trkpt><trkpt lat="45.88974482974444" lon="12.293177376725431"><ele>143.0</ele><time>2026-04-26T08:46:34Z</time></trkpt><trkpt lat="45.88977688271241" lon="12.293077325971204"><ele>143.0</ele><time>2026-04-26T08:46:36Z</time></trkpt><trkpt lat="45.88984295658652" lon="12.293013849819147"><ele>143.0</ele><time>2026-04-26T08:46:38Z</time></trkpt><trkpt lat="45.889924845880124" lon="12.29303104765298"><ele>143.0</ele><time>2026-04-26T08:46:39Z</time></trkpt><trkpt lat="45.88999601675342" lon="12.293044370499706"><ele>143.0</ele><time>2026-04-26T08:46:40Z</time></trkpt><trkpt lat="45.89006754344297" lon="12.293098033587741"><ele>143.0</ele><time>2026-04-26T08:46:41Z</time></trkpt><trkpt lat="45.89014765355229" lon="12.293098976617413"><ele>143.0</ele><time>2026-04-26T08:46:42Z</time></trkpt><trkpt lat="45.89024340157253" lon="12.293100103731806"><ele>143.0</ele><time>2026-04-26T08:46:43Z</time></trkpt><trkpt lat="45.8903477174092" lon="12.2931013316946"><ele>143.0</ele><time>2026-04-26T08:46:44Z</time></trkpt><trkpt lat="45.89043728583412" lon="12.293099227939676"><ele>142.16666666666666</ele><time>2026-04-26T08:46:45Z</time></trkpt><trkpt lat="45.8905239111666" lon="12.29309229341929"><ele>141.33333333333331</ele><time>2026-04-26T08:46:46Z</time></trkpt><trkpt lat="45.89061109898645" lon="12.293068742075956"><ele>140.5</ele><time>2026-04-26T08:46:47Z</time></trkpt><trkpt lat="45.890686647962035" lon="12.293017009843926"><ele>139.66666666666666</ele><time>2026-04-26T08:46:48Z</time></trkpt><trkpt lat="45.89074867605383" lon="12.292941347357047"><ele>138.83333333333334</ele><time>2026-04-26T08:46:49Z</time></trkpt><trkpt lat="45.890798218649834" lon="12.29284153467991"><ele>138.0</ele><time>2026-04-26T08:46:50Z</time></trkpt><trkpt lat="45.890827277163396" lon="12.292734817851631"><ele>138.0</ele><time>2026-04-26T08:46:51Z</time></trkpt><trkpt lat="45.89083883113269" lon="12.292628717449187"><ele>138.0</ele><time>2026-04-26T08:46:52Z</time></trkpt><trkpt lat="45.8908256787259" lon="12.292506237115045"><ele>138.0</ele><time>2026-04-26T08:46:53Z</time></trkpt><trkpt lat="45.89080915986832" lon="12.292373913325537"><ele>138.0</ele><time>2026-04-26T08:46:54Z</time></trkpt><trkpt lat="45.8907928246487" lon="12.292252624304446"><ele>138.0</ele><time>2026-04-26T08:46:55Z</time></trkpt><trkpt lat="45.8907783176442" lon="12.292138839063778"><ele>138.0</ele><time>2026-04-26T08:46:56Z</time></trkpt><trkpt lat="45.890767917660874" lon="12.292031829543815"><ele>137.0</ele><time>2026-04-26T08:46:57Z</time></trkpt><trkpt lat="45.89076537822691" lon="12.29192521988405"><ele>136.0</ele><time>2026-04-26T08:46:58Z</time></trkpt><trkpt lat="45.890777895045815" lon="12.291821478069023"><ele>135.0</ele><time>2026-04-26T08:46:59Z</time></trkpt><trkpt lat="45.890801231330414" lon="12.291723426804243"><ele>134.0</ele><time>2026-04-26T08:47:00Z</time></trkpt><trkpt lat="45.89083955992977" lon="12.291631852199624"><ele>133.0</ele><time>2026-04-26T08:47:01Z</time></trkpt><trkpt lat="45.89089393083989" lon="12.291559848184985"><ele>132.0</ele><time>2026-04-26T08:47:02Z</time></trkpt><trkpt lat="45.89095978611107" lon="12.291488478211162"><ele>131.0</ele><time>2026-04-26T08:47:03Z</time></trkpt><trkpt lat="45.89101246567938" lon="12.291422341789604"><ele>130.0</ele><time>2026-04-26T08:47:04Z</time></trkpt><trkpt lat="45.89109916776472" lon="12.291385308963507"><ele>129.0</ele><time>2026-04-26T08:47:05Z</time></trkpt><trkpt lat="45.89117741120323" lon="12.291369058805488"><ele>128.0</ele><time>2026-04-26T08:47:06Z</time></trkpt><trkpt lat="45.89125277514696" lon="12.291358999079131"><ele>127.0</ele><time>2026-04-26T08:47:07Z</time></trkpt><trkpt lat="45.89133309027898" lon="12.291348090211814"><ele>126.0</ele><time>2026-04-26T08:47:08Z</time></trkpt><trkpt lat="45.89140534350506" lon="12.291332590822465"><ele>126.0</ele><time>2026-04-26T08:47:09Z</time></trkpt><trkpt lat="45.89148130176235" lon="12.29131970928478"><ele>126.0</ele><time>2026-04-26T08:47:10Z</time></trkpt><trkpt lat="45.891552110386186" lon="12.291337534271548"><ele>126.0</ele><time>2026-04-26T08:47:11Z</time></trkpt><trkpt lat="45.891652289132544" lon="12.291319982899164"><ele>126.0</ele><time>2026-04-26T08:47:13Z</time></trkpt><trkpt lat="45.89177897943268" lon="12.291325538980582"><ele>126.0</ele><time>2026-04-26T08:47:15Z</time></trkpt><trkpt lat="45.89188221989628" lon="12.291260708837063"><ele>126.8</ele><time>2026-04-26T08:47:17Z</time></trkpt><trkpt lat="45.89195213782535" lon="12.291181977432688"><ele>127.6</ele><time>2026-04-26T08:47:19Z</time></trkpt><trkpt lat="45.89201079436232" lon="12.291115205491431"><ele>128.4</ele><time>2026-04-26T08:47:21Z</time></trkpt><trkpt lat="45.89192950935237" lon="12.290922450657243"><ele>129.2</ele><time>2026-04-26T08:47:22Z</time></trkpt><trkpt lat="45.89183969038943" lon="12.290896416615482"><ele>130.0</ele><time>2026-04-26T08:47:23Z</time></trkpt><trkpt lat="45.89175909082591" lon="12.290853267842701"><ele>129.2</ele><time>2026-04-26T08:47:24Z</time></trkpt><trkpt lat="45.89167160952609" lon="12.290802655791465"><ele>128.4</ele><time>2026-04-26T08:47:25Z</time></trkpt><trkpt lat="45.89158245977659" lon="12.290754227518255"><ele>127.6</ele><time>2026-04-26T08:47:26Z</time></trkpt><trkpt lat="45.891480868592396" lon="12.290726059603555"><ele>126.8</ele><time>2026-04-26T08:47:27Z</time></trkpt><trkpt lat="45.891378159527896" lon="12.290705784364377"><ele>126.0</ele><time>2026-04-26T08:47:28Z</time></trkpt><trkpt lat="45.891268214741494" lon="12.290696531449987"><ele>126.0</ele><time>2026-04-26T08:47:29Z</time></trkpt><trkpt lat="45.891164117694075" lon="12.290727212195897"><ele>126.0</ele><time>2026-04-26T08:47:30Z</time></trkpt><trkpt lat="45.89105300501305" lon="12.290759429276513"><ele>126.0</ele><time>2026-04-26T08:47:31Z</time></trkpt><trkpt lat="45.890941244685095" lon="12.290807074830594"><ele>126.0</ele><time>2026-04-26T08:47:32Z</time></trkpt><trkpt lat="45.89084334782918" lon="12.290886135170327"><ele>126.0</ele><time>2026-04-26T08:47:33Z</time></trkpt><trkpt lat="45.89075206267236" lon="12.290976922360366"><ele>124.66666666666667</ele><time>2026-04-26T08:47:34Z</time></trkpt><trkpt lat="45.89067451913291" lon="12.291060976154693"><ele>123.33333333333334</ele><time>2026-04-26T08:47:35Z</time></trkpt><trkpt lat="45.890602689662636" lon="12.291130002467002"><ele>122.0</ele><time>2026-04-26T08:47:36Z</time></trkpt><trkpt lat="45.890538046717346" lon="12.291172380940507"><ele>120.66666666666667</ele><time>2026-04-26T08:47:37Z</time></trkpt><trkpt lat="45.89046540566459" lon="12.29116621245686"><ele>119.33333333333334</ele><time>2026-04-26T08:47:38Z</time></trkpt><trkpt lat="45.890396091649116" lon="12.291125267142744"><ele>118.0</ele><time>2026-04-26T08:47:39Z</time></trkpt><trkpt lat="45.89034070564536" lon="12.291051150033763"><ele>118.00000000000001</ele><time>2026-04-26T08:47:40Z</time></trkpt><trkpt lat="45.89031564938751" lon="12.29094163122979"><ele>118.0</ele><time>2026-04-26T08:47:41Z</time></trkpt><trkpt lat="45.89033345988914" lon="12.290833532724704"><ele>118.0</ele><time>2026-04-26T08:47:42Z</time></trkpt><trkpt lat="45.8903634563528" lon="12.29073542206707"><ele>118.0</ele><time>2026-04-26T08:47:43Z</time></trkpt><trkpt lat="45.89041842827503" lon="12.29064693134316"><ele>118.00000000000001</ele><time>2026-04-26T08:47:44Z</time></trkpt><trkpt lat="45.89048256252083" lon="12.29053859834954"><ele>118.0</ele><time>2026-04-26T08:47:45Z</time></trkpt><trkpt lat="45.89054700763246" lon="12.29044098476052"><ele>116.0</ele><time>2026-04-26T08:47:46Z</time></trkpt><trkpt lat="45.8906076649034" lon="12.290342354810782"><ele>114.00000000000001</ele><time>2026-04-26T08:47:47Z</time></trkpt><trkpt lat="45.89065475713826" lon="12.290229222763053"><ele>112.00000000000001</ele><time>2026-04-26T08:47:48Z</time></trkpt><trkpt lat="45.89068399407255" lon="12.290104080908595"><ele>110.0</ele><time>2026-04-26T08:47:49Z</time></trkpt><trkpt lat="45.890704540259556" lon="12.28996900440694"><ele>108.0</ele><time>2026-04-26T08:47:50Z</time></trkpt><trkpt lat="45.890715237128" lon="12.289843872744429"><ele>107.0</ele><time>2026-04-26T08:47:51Z</time></trkpt><trkpt lat="45.890715943511424" lon="12.289712670858595"><ele>106.00000000000001</ele><time>2026-04-26T08:47:52Z</time></trkpt><trkpt lat="45.8907079061394" lon="12.289581840910252"><ele>105.0</ele><time>2026-04-26T08:47:53Z</time></trkpt><trkpt lat="45.89069784541723" lon="12.289447842924194"><ele>104.0</ele><time>2026-04-26T08:47:54Z</time></trkpt><trkpt lat="45.89069813910425" lon="12.289317228757527"><ele>103.0</ele><time>2026-04-26T08:47:55Z</time></trkpt><trkpt lat="45.89071401109263" lon="12.289188849511978"><ele>103.00000000000001</ele><time>2026-04-26T08:47:56Z</time></trkpt><trkpt lat="45.89074678766733" lon="12.289065558978304"><ele>103.0</ele><time>2026-04-26T08:47:57Z</time></trkpt><trkpt lat="45.89078985598581" lon="12.288946127136125"><ele>103.0</ele><time>2026-04-26T08:47:58Z</time></trkpt><trkpt lat="45.89083120287145" lon="12.28882567639662"><ele>103.0</ele><time>2026-04-26T08:47:59Z</time></trkpt><trkpt lat="45.8908682767335" lon="12.288716075238321"><ele>103.00000000000001</ele><time>2026-04-26T08:48:00Z</time></trkpt><trkpt lat="45.89090121742177" lon="12.288614023462662"><ele>103.0</ele><time>2026-04-26T08:48:01Z</time></trkpt><trkpt lat="45.8909166274308" lon="12.28851370639147"><ele>102.00000000000001</ele><time>2026-04-26T08:48:02Z</time></trkpt><trkpt lat="45.890903719183726" lon="12.288408700896762"><ele>101.0</ele><time>2026-04-26T08:48:03Z</time></trkpt><trkpt lat="45.89087288164503" lon="12.288313281359674"><ele>100.0</ele><time>2026-04-26T08:48:04Z</time></trkpt><trkpt lat="45.89082580655165" lon="12.28823225456515"><ele>99.0</ele><time>2026-04-26T08:48:05Z</time></trkpt><trkpt lat="45.890760247379696" lon="12.288172049880977"><ele>98.00000000000001</ele><time>2026-04-26T08:48:06Z</time></trkpt><trkpt lat="45.890678774571576" lon="12.288153623070844"><ele>97.0</ele><time>2026-04-26T08:48:07Z</time></trkpt><trkpt lat="45.89060199772791" lon="12.28817138448448"><ele>97.00000000000001</ele><time>2026-04-26T08:48:08Z</time></trkpt><trkpt lat="45.890528811867675" lon="12.288217186835592"><ele>97.0</ele><time>2026-04-26T08:48:09Z</time></trkpt><trkpt lat="45.89046192629533" lon="12.288283087843432"><ele>97.0</ele><time>2026-04-26T08:48:10Z</time></trkpt><trkpt lat="45.89041157721168" lon="12.288375337145377"><ele>97.0</ele><time>2026-04-26T08:48:11Z</time></trkpt><trkpt lat="45.89036703333355" lon="12.288469047246451"><ele>97.00000000000001</ele><time>2026-04-26T08:48:12Z</time></trkpt><trkpt lat="45.89031207202486" lon="12.288540319862205"><ele>97.0</ele><time>2026-04-26T08:48:13Z</time></trkpt><trkpt lat="45.89024346273887" lon="12.28858135725973"><ele>97.00000000000001</ele><time>2026-04-26T08:48:14Z</time></trkpt><trkpt lat="45.89017058055916" lon="12.288592226914766"><ele>97.0</ele><time>2026-04-26T08:48:15Z</time></trkpt><trkpt lat="45.89009370249119" lon="12.288581705467173"><ele>97.0</ele><time>2026-04-26T08:48:16Z</time></trkpt><trkpt lat="45.89002747752401" lon="12.288545822109333"><ele>97.0</ele><time>2026-04-26T08:48:17Z</time></trkpt><trkpt lat="45.889959395340185" lon="12.288490595949174"><ele>97.00000000000001</ele><time>2026-04-26T08:48:18Z</time></trkpt><trkpt lat="45.8898880881111" lon="12.288426486577022"><ele>97.0</ele><time>2026-04-26T08:48:19Z</time></trkpt><trkpt lat="45.88981397819276" lon="12.288357378276077"><ele>95.50000000000001</ele><time>2026-04-26T08:48:20Z</time></trkpt><trkpt lat="45.88973803100636" lon="12.288286082911922"><ele>94.0</ele><time>2026-04-26T08:48:21Z</time></trkpt><trkpt lat="45.88966062053182" lon="12.288220283734079"><ele>92.5</ele><time>2026-04-26T08:48:22Z</time></trkpt><trkpt lat="45.88959422074284" lon="12.288147345146502"><ele>91.0</ele><time>2026-04-26T08:48:23Z</time></trkpt><trkpt lat="45.88954783984525" lon="12.288059638856533"><ele>89.5</ele><time>2026-04-26T08:48:24Z</time></trkpt><trkpt lat="45.88950966808035" lon="12.287960271575145"><ele>88.0</ele><time>2026-04-26T08:48:25Z</time></trkpt><trkpt lat="45.88949196036845" lon="12.287843818801306"><ele>87.0</ele><time>2026-04-26T08:48:26Z</time></trkpt><trkpt lat="45.88950159290461" lon="12.287723464809163"><ele>86.0</ele><time>2026-04-26T08:48:27Z</time></trkpt><trkpt lat="45.88952929380603" lon="12.28760387780461"><ele>85.0</ele><time>2026-04-26T08:48:28Z</time></trkpt><trkpt lat="45.88957259443051" lon="12.287492159697495"><ele>84.0</ele><time>2026-04-26T08:48:29Z</time></trkpt><trkpt lat="45.889625860127126" lon="12.287385951310233"><ele>83.0</ele><time>2026-04-26T08:48:30Z</time></trkpt><trkpt lat="45.88968925464768" lon="12.287281802174801"><ele>82.0</ele><time>2026-04-26T08:48:31Z</time></trkpt><trkpt lat="45.889756413670206" lon="12.28717806558864"><ele>82.16666666666666</ele><time>2026-04-26T08:48:32Z</time></trkpt><trkpt lat="45.889837965349784" lon="12.287113351618272"><ele>82.33333333333333</ele><time>2026-04-26T08:48:33Z</time></trkpt><trkpt lat="45.889912112923476" lon="12.28702346136402"><ele>82.5</ele><time>2026-04-26T08:48:34Z</time></trkpt><trkpt lat="45.88999626956894" lon="12.286970822806422"><ele>82.66666666666667</ele><time>2026-04-26T08:48:35Z</time></trkpt><trkpt lat="45.89005795062037" lon="12.286923409375984"><ele>82.83333333333334</ele><time>2026-04-26T08:48:36Z</time></trkpt><trkpt lat="45.890114014353166" lon="12.286871250493437"><ele>83.0</ele><time>2026-04-26T08:48:37Z</time></trkpt><trkpt lat="45.890154598016935" lon="12.28679897710024"><ele>83.0</ele><time>2026-04-26T08:48:38Z</time></trkpt><trkpt lat="45.890175595470104" lon="12.286709398374974"><ele>83.0</ele><time>2026-04-26T08:48:39Z</time></trkpt><trkpt lat="45.89017861774175" lon="12.2866086151979"><ele>83.0</ele><time>2026-04-26T08:48:40Z</time></trkpt><trkpt lat="45.89016161856212" lon="12.286504887944606"><ele>83.0</ele><time>2026-04-26T08:48:41Z</time></trkpt><trkpt lat="45.890125211672625" lon="12.286416112696976"><ele>83.0</ele><time>2026-04-26T08:48:42Z</time></trkpt><trkpt lat="45.8900729544426" lon="12.286338039360484"><ele>83.0</ele><time>2026-04-26T08:48:43Z</time></trkpt><trkpt lat="45.89000414976554" lon="12.286290414259039"><ele>83.0</ele><time>2026-04-26T08:48:44Z</time></trkpt><trkpt lat="45.88992935428136" lon="12.286272962250639"><ele>81.33333333333334</ele><time>2026-04-26T08:48:45Z</time></trkpt><trkpt lat="45.88984792605721" lon="12.286286110415464"><ele>79.66666666666667</ele><time>2026-04-26T08:48:46Z</time></trkpt><trkpt lat="45.88977596916328" lon="12.28632163629383"><ele>78.0</ele><time>2026-04-26T08:48:47Z</time></trkpt><trkpt lat="45.88969863231837" lon="12.286355844535906"><ele>76.33333333333333</ele><time>2026-04-26T08:48:48Z</time></trkpt><trkpt lat="45.88962007716134" lon="12.28639687558299"><ele>74.66666666666666</ele><time>2026-04-26T08:48:49Z</time></trkpt><trkpt lat="45.889536980523914" lon="12.286431075734004"><ele>73.0</ele><time>2026-04-26T08:48:50Z</time></trkpt><trkpt lat="45.88945345065355" lon="12.28646065579718"><ele>73.0</ele><time>2026-04-26T08:48:51Z</time></trkpt><trkpt lat="45.88936534689862" lon="12.286486459188323"><ele>73.0</ele><time>2026-04-26T08:48:52Z</time></trkpt><trkpt lat="45.88927894147385" lon="12.2865132588186"><ele>73.0</ele><time>2026-04-26T08:48:53Z</time></trkpt><trkpt lat="45.8892055721903" lon="12.286551390562542"><ele>73.0</ele><time>2026-04-26T08:48:54Z</time></trkpt><trkpt lat="45.88913581747135" lon="12.286600559612058"><ele>73.0</ele><time>2026-04-26T08:48:55Z</time></trkpt><trkpt lat="45.889068695602596" lon="12.28665847529753"><ele>73.0</ele><time>2026-04-26T08:48:56Z</time></trkpt><trkpt lat="45.88900481681543" lon="12.286761732130156"><ele>73.0</ele><time>2026-04-26T08:48:57Z</time></trkpt><trkpt lat="45.88895279618022" lon="12.28689915143981"><ele>73.0</ele><time>2026-04-26T08:48:58Z</time></trkpt><trkpt lat="45.88891520753175" lon="12.287031435294878"><ele>73.0</ele><time>2026-04-26T08:48:59Z</time></trkpt><trkpt lat="45.888876745601074" lon="12.28714592869602"><ele>73.0</ele><time>2026-04-26T08:49:00Z</time></trkpt><trkpt lat="45.88884839638314" lon="12.287236824659406"><ele>73.0</ele><time>2026-04-26T08:49:01Z</time></trkpt><trkpt lat="45.888802441716905" lon="12.287370969947064"><ele>73.0</ele><time>2026-04-26T08:49:03Z</time></trkpt><trkpt lat="45.88876105724459" lon="12.287472918181958"><ele>73.0</ele><time>2026-04-26T08:49:05Z</time></trkpt><trkpt lat="45.888717739975114" lon="12.287607207452943"><ele>73.0</ele><time>2026-04-26T08:49:07Z</time></trkpt><trkpt lat="45.88868821140824" lon="12.287704611000045"><ele>73.0</ele><time>2026-04-26T08:49:08Z</time></trkpt><trkpt lat="45.88865429585829" lon="12.287820135806845"><ele>73.0</ele><time>2026-04-26T08:49:09Z</time></trkpt><trkpt lat="45.88861708426322" lon="12.287935148244502"><ele>73.0</ele><time>2026-04-26T08:49:10Z</time></trkpt><trkpt lat="45.88857686128863" lon="12.288064539970515"><ele>73.2</ele><time>2026-04-26T08:49:11Z</time></trkpt><trkpt lat="45.88853099885591" lon="12.28820888770785"><ele>73.4</ele><time>2026-04-26T08:49:12Z</time></trkpt><trkpt lat="45.88848311483765" lon="12.288344446663348"><ele>73.60000000000001</ele><time>2026-04-26T08:49:13Z</time></trkpt><trkpt lat="45.88842916680085" lon="12.28847829377845"><ele>73.8</ele><time>2026-04-26T08:49:14Z</time></trkpt><trkpt lat="45.88838156039275" lon="12.288608348367138"><ele>74.0</ele><time>2026-04-26T08:49:15Z</time></trkpt><trkpt lat="45.88832573337723" lon="12.288722891784415"><ele>73.60000000000001</ele><time>2026-04-26T08:49:16Z</time></trkpt><trkpt lat="45.888268286887204" lon="12.288824040951106"><ele>73.2</ele><time>2026-04-26T08:49:17Z</time></trkpt><trkpt lat="45.88821194608561" lon="12.288930243038898"><ele>72.80000000000001</ele><time>2026-04-26T08:49:18Z</time></trkpt><trkpt lat="45.88815683986972" lon="12.28903384830685"><ele>72.4</ele><time>2026-04-26T08:49:19Z</time></trkpt><trkpt lat="45.88809661084585" lon="12.289133189703268"><ele>72.0</ele><time>2026-04-26T08:49:20Z</time></trkpt><trkpt lat="45.888033516049354" lon="12.289224916159352"><ele>72.0</ele><time>2026-04-26T08:49:21Z</time></trkpt><trkpt lat="45.88796730571978" lon="12.289313507608831"><ele>72.0</ele><time>2026-04-26T08:49:22Z</time></trkpt><trkpt lat="45.88790088642694" lon="12.289408676046214"><ele>72.0</ele><time>2026-04-26T08:49:23Z</time></trkpt><trkpt lat="45.88783187075585" lon="12.289501232533695"><ele>72.0</ele><time>2026-04-26T08:49:24Z</time></trkpt><trkpt lat="45.887770783769305" lon="12.28959438606937"><ele>72.0</ele><time>2026-04-26T08:49:25Z</time></trkpt><trkpt lat="45.8877068046629" lon="12.289677367389729"><ele>72.66666666666667</ele><time>2026-04-26T08:49:26Z</time></trkpt><trkpt lat="45.88764157175591" lon="12.289764174803391"><ele>73.33333333333333</ele><time>2026-04-26T08:49:27Z</time></trkpt><trkpt lat="45.887585363958536" lon="12.289845715343478"><ele>74.0</ele><time>2026-04-26T08:49:28Z</time></trkpt><trkpt lat="45.887524936122766" lon="12.289932829886897"><ele>74.66666666666666</ele><time>2026-04-26T08:49:29Z</time></trkpt><trkpt lat="45.88746182423185" lon="12.290021357202821"><ele>75.33333333333333</ele><time>2026-04-26T08:49:30Z</time></trkpt><trkpt lat="45.887403700308695" lon="12.290117281790025"><ele>76.0</ele><time>2026-04-26T08:49:31Z</time></trkpt><trkpt lat="45.88734418287412" lon="12.290196427266153"><ele>75.0</ele><time>2026-04-26T08:49:32Z</time></trkpt><trkpt lat="45.88728887074425" lon="12.290273598760034"><ele>74.0</ele><time>2026-04-26T08:49:33Z</time></trkpt><trkpt lat="45.8872363175808" lon="12.290348294704463"><ele>73.0</ele><time>2026-04-26T08:49:34Z</time></trkpt><trkpt lat="45.88719000219534" lon="12.290412937207766"><ele>72.0</ele><time>2026-04-26T08:49:35Z</time></trkpt><trkpt lat="45.8871234914835" lon="12.290515740578206"><ele>71.0</ele><time>2026-04-26T08:49:37Z</time></trkpt><trkpt lat="45.88707176041471" lon="12.290591945246094"><ele>70.0</ele><time>2026-04-26T08:49:39Z</time></trkpt><trkpt lat="45.88698788957012" lon="12.290502165579674"><ele>69.33333333333333</ele><time>2026-04-26T08:49:42Z</time></trkpt><trkpt lat="45.886960790508795" lon="12.290333126757977"><ele>68.66666666666666</ele><time>2026-04-26T08:49:44Z</time></trkpt><trkpt lat="45.88693155420847" lon="12.29024594139975"><ele>68.0</ele><time>2026-04-26T08:49:45Z</time></trkpt><trkpt lat="45.886914807808324" lon="12.290153909176588"><ele>67.33333333333333</ele><time>2026-04-26T08:49:46Z</time></trkpt><trkpt lat="45.886913824661384" lon="12.290053257325372"><ele>66.66666666666667</ele><time>2026-04-26T08:49:47Z</time></trkpt><trkpt lat="45.88688758605789" lon="12.289947232070476"><ele>66.0</ele><time>2026-04-26T08:49:48Z</time></trkpt><trkpt lat="45.886839865446724" lon="12.28984463664006"><ele>66.16666666666667</ele><time>2026-04-26T08:49:49Z</time></trkpt><trkpt lat="45.886827580639434" lon="12.289727742625391"><ele>66.33333333333333</ele><time>2026-04-26T08:49:50Z</time></trkpt><trkpt lat="45.886804680933096" lon="12.289623769989758"><ele>66.5</ele><time>2026-04-26T08:49:51Z</time></trkpt><trkpt lat="45.88677572403729" lon="12.289511759720039"><ele>66.66666666666666</ele><time>2026-04-26T08:49:52Z</time></trkpt><trkpt lat="45.88675137035339" lon="12.289373436367839"><ele>66.83333333333333</ele><time>2026-04-26T08:49:53Z</time></trkpt><trkpt lat="45.8867174309978" lon="12.28922525254654"><ele>67.0</ele><time>2026-04-26T08:49:54Z</time></trkpt><trkpt lat="45.88668776535054" lon="12.28907319045045"><ele>68.83333333333333</ele><time>2026-04-26T08:49:55Z</time></trkpt><trkpt lat="45.88666372185845" lon="12.288948591512131"><ele>70.66666666666666</ele><time>2026-04-26T08:49:56Z</time></trkpt><trkpt lat="45.88664087862742" lon="12.288839653879208"><ele>72.5</ele><time>2026-04-26T08:49:57Z</time></trkpt><trkpt lat="45.886630600834344" lon="12.288722670310591"><ele>74.33333333333333</ele><time>2026-04-26T08:49:58Z</time></trkpt><trkpt lat="45.886609913807426" lon="12.288611451184492"><ele>76.16666666666667</ele><time>2026-04-26T08:49:59Z</time></trkpt><trkpt lat="45.88658759322132" lon="12.288499867483866"><ele>78.0</ele><time>2026-04-26T08:50:00Z</time></trkpt><trkpt lat="45.88656311007442" lon="12.28840333837171"><ele>79.33333333333333</ele><time>2026-04-26T08:50:01Z</time></trkpt><trkpt lat="45.8865386877935" lon="12.288298857839846"><ele>80.66666666666667</ele><time>2026-04-26T08:50:02Z</time></trkpt><trkpt lat="45.88651287570609" lon="12.288191813505668"><ele>82.0</ele><time>2026-04-26T08:50:03Z</time></trkpt><trkpt lat="45.88649425574059" lon="12.288087184979814"><ele>83.33333333333334</ele><time>2026-04-26T08:50:04Z</time></trkpt><trkpt lat="45.88646146939802" lon="12.287943425754042"><ele>84.66666666666667</ele><time>2026-04-26T08:50:06Z</time></trkpt><trkpt lat="45.88645530274594" lon="12.287851833773109"><ele>86.0</ele><time>2026-04-26T08:50:08Z</time></trkpt><trkpt lat="45.886471716374" lon="12.287723709894697"><ele>86.4</ele><time>2026-04-26T08:50:11Z</time></trkpt><trkpt lat="45.886487298238855" lon="12.287603943271746"><ele>86.8</ele><time>2026-04-26T08:50:13Z</time></trkpt><trkpt lat="45.886517058593796" lon="12.287433355402351"><ele>87.2</ele><time>2026-04-26T08:50:15Z</time></trkpt><trkpt lat="45.886532795860255" lon="12.287325938832645"><ele>87.60000000000001</ele><time>2026-04-26T08:50:16Z</time></trkpt><trkpt lat="45.886543662169174" lon="12.287205027151776"><ele>88.0</ele><time>2026-04-26T08:50:17Z</time></trkpt><trkpt lat="45.886561365832144" lon="12.287067331813066"><ele>89.0</ele><time>2026-04-26T08:50:18Z</time></trkpt><trkpt lat="45.88657848366207" lon="12.286918516145327"><ele>90.0</ele><time>2026-04-26T08:50:19Z</time></trkpt><trkpt lat="45.88658866015015" lon="12.2867771343345"><ele>91.0</ele><time>2026-04-26T08:50:20Z</time></trkpt><trkpt lat="45.88659098382288" lon="12.286631810694185"><ele>92.0</ele><time>2026-04-26T08:50:21Z</time></trkpt><trkpt lat="45.886583370045656" lon="12.286490235614425"><ele>93.0</ele><time>2026-04-26T08:50:22Z</time></trkpt><trkpt lat="45.88656891767158" lon="12.286357945472751"><ele>94.60000000000001</ele><time>2026-04-26T08:50:23Z</time></trkpt><trkpt lat="45.88654286809992" lon="12.286230156265878"><ele>96.2</ele><time>2026-04-26T08:50:24Z</time></trkpt><trkpt lat="45.88650034829654" lon="12.286097093026784"><ele>97.8</ele><time>2026-04-26T08:50:25Z</time></trkpt><trkpt lat="45.88644839313665" lon="12.285989716128942"><ele>99.4</ele><time>2026-04-26T08:50:26Z</time></trkpt><trkpt lat="45.88639745206168" lon="12.285889091835907"><ele>101.0</ele><time>2026-04-26T08:50:27Z</time></trkpt><trkpt lat="45.886344758284814" lon="12.285784922790283"><ele>100.99999999999999</ele><time>2026-04-26T08:50:28Z</time></trkpt><trkpt lat="45.886293907071575" lon="12.285674620389866"><ele>101.0</ele><time>2026-04-26T08:50:29Z</time></trkpt><trkpt lat="45.886248999110066" lon="12.285567216714387"><ele>101.0</ele><time>2026-04-26T08:50:30Z</time></trkpt><trkpt lat="45.88621082106424" lon="12.285457415223636"><ele>101.0</ele><time>2026-04-26T08:50:31Z</time></trkpt><trkpt lat="45.88617956003675" lon="12.285335575559104"><ele>100.99999999999999</ele><time>2026-04-26T08:50:32Z</time></trkpt><trkpt lat="45.8861426343989" lon="12.285212798708043"><ele>101.0</ele><time>2026-04-26T08:50:33Z</time></trkpt><trkpt lat="45.88611364294221" lon="12.28508279192811"><ele>103.49999999999999</ele><time>2026-04-26T08:50:34Z</time></trkpt><trkpt lat="45.88610197619095" lon="12.284947845449516"><ele>106.0</ele><time>2026-04-26T08:50:35Z</time></trkpt><trkpt lat="45.886073681676265" lon="12.284831279986548"><ele>108.5</ele><time>2026-04-26T08:50:36Z</time></trkpt><trkpt lat="45.88605740186399" lon="12.284707515997614"><ele>111.0</ele><time>2026-04-26T08:50:37Z</time></trkpt><trkpt lat="45.88604603060191" lon="12.284582549958344"><ele>113.49999999999999</ele><time>2026-04-26T08:50:38Z</time></trkpt><trkpt lat="45.886026401425056" lon="12.284457960522488"><ele>116.0</ele><time>2026-04-26T08:50:39Z</time></trkpt><trkpt lat="45.88600970550351" lon="12.284334469753958"><ele>117.66666666666666</ele><time>2026-04-26T08:50:40Z</time></trkpt><trkpt lat="45.88600031335649" lon="12.28423540754749"><ele>119.33333333333333</ele><time>2026-04-26T08:50:41Z</time></trkpt><trkpt lat="45.88599520215658" lon="12.284068395606027"><ele>121.0</ele><time>2026-04-26T08:50:43Z</time></trkpt><trkpt lat="45.885975261036876" lon="12.283889784433091"><ele>122.66666666666666</ele><time>2026-04-26T08:50:45Z</time></trkpt><trkpt lat="45.885973041143615" lon="12.283797403382843"><ele>124.33333333333333</ele><time>2026-04-26T08:50:46Z</time></trkpt><trkpt lat="45.8859636881977" lon="12.283698832964907"><ele>126.0</ele><time>2026-04-26T08:50:47Z</time></trkpt><trkpt lat="45.885966340530494" lon="12.283593845108587"><ele>127.57142857142857</ele><time>2026-04-26T08:50:48Z</time></trkpt><trkpt lat="45.88595727903259" lon="12.28348901626372"><ele>129.14285714285714</ele><time>2026-04-26T08:50:49Z</time></trkpt><trkpt lat="45.88596158644678" lon="12.28337837612178"><ele>130.71428571428572</ele><time>2026-04-26T08:50:50Z</time></trkpt><trkpt lat="45.88596739608251" lon="12.283271887482588"><ele>132.28571428571428</ele><time>2026-04-26T08:50:51Z</time></trkpt><trkpt lat="45.885980020795074" lon="12.283178287768498"><ele>133.85714285714286</ele><time>2026-04-26T08:50:52Z</time></trkpt><trkpt lat="45.885979645232666" lon="12.283082169175351"><ele>135.42857142857144</ele><time>2026-04-26T08:50:53Z</time></trkpt><trkpt lat="45.885974085801216" lon="12.282987769593877"><ele>137.0</ele><time>2026-04-26T08:50:54Z</time></trkpt><trkpt lat="45.88596856999153" lon="12.282897571841401"><ele>136.79999999999998</ele><time>2026-04-26T08:50:55Z</time></trkpt><trkpt lat="45.88595760799382" lon="12.282808281977642"><ele>136.6</ele><time>2026-04-26T08:50:56Z</time></trkpt><trkpt lat="45.88593659276474" lon="12.282661280107927"><ele>136.39999999999998</ele><time>2026-04-26T08:50:58Z</time></trkpt><trkpt lat="45.885917180843975" lon="12.282526782393992"><ele>136.2</ele><time>2026-04-26T08:51:00Z</time></trkpt><trkpt lat="45.88593960544915" lon="12.282387444478642"><ele>136.0</ele><time>2026-04-26T08:51:02Z</time></trkpt><trkpt lat="45.88598293677257" lon="12.282252915178292"><ele>135.5</ele><time>2026-04-26T08:51:04Z</time></trkpt><trkpt lat="45.88604759406398" lon="12.282112102600177"><ele>135.0</ele><time>2026-04-26T08:51:06Z</time></trkpt><trkpt lat="45.88614264141833" lon="12.281996904618012"><ele>134.5</ele><time>2026-04-26T08:51:08Z</time></trkpt><trkpt lat="45.886240225606855" lon="12.281901878605893"><ele>134.0</ele><time>2026-04-26T08:51:10Z</time></trkpt><trkpt lat="45.88634803320553" lon="12.281843636133965"><ele>134.0</ele><time>2026-04-26T08:51:12Z</time></trkpt><trkpt lat="45.886421007627334" lon="12.281791385674774"><ele>134.0</ele><time>2026-04-26T08:51:13Z</time></trkpt><trkpt lat="45.88651540180803" lon="12.281746236518176"><ele>134.0</ele><time>2026-04-26T08:51:14Z</time></trkpt><trkpt lat="45.88660886733054" lon="12.281667028633144"><ele>134.0</ele><time>2026-04-26T08:51:15Z</time></trkpt><trkpt lat="45.8867321785113" lon="12.281611780911962"><ele>134.0</ele><time>2026-04-26T08:51:16Z</time></trkpt><trkpt lat="45.88684955161758" lon="12.281526956589403"><ele>134.25</ele><time>2026-04-26T08:51:17Z</time></trkpt><trkpt lat="45.88696541741983" lon="12.281443699255604"><ele>134.5</ele><time>2026-04-26T08:51:18Z</time></trkpt><trkpt lat="45.88707832584764" lon="12.281377177906567"><ele>134.75</ele><time>2026-04-26T08:51:19Z</time></trkpt><trkpt lat="45.88718526164254" lon="12.281295490950713"><ele>135.0</ele><time>2026-04-26T08:51:20Z</time></trkpt><trkpt lat="45.88729532271035" lon="12.281227327936287"><ele>135.0</ele><time>2026-04-26T08:51:21Z</time></trkpt><trkpt lat="45.887392360110546" lon="12.281159396576491"><ele>135.0</ele><time>2026-04-26T08:51:22Z</time></trkpt><trkpt lat="45.88748123909687" lon="12.281092639895373"><ele>135.0</ele><time>2026-04-26T08:51:23Z</time></trkpt><trkpt lat="45.88755416684128" lon="12.281031956834726"><ele>135.0</ele><time>2026-04-26T08:51:24Z</time></trkpt><trkpt lat="45.88761564602903" lon="12.280962432220647"><ele>135.0</ele><time>2026-04-26T08:51:25Z</time></trkpt><trkpt lat="45.887669617617384" lon="12.28089319330283"><ele>135.0</ele><time>2026-04-26T08:51:26Z</time></trkpt><trkpt lat="45.887725039745646" lon="12.280833697874948"><ele>135.0</ele><time>2026-04-26T08:51:27Z</time></trkpt><trkpt lat="45.8877754576024" lon="12.280776802276065"><ele>135.0</ele><time>2026-04-26T08:51:28Z</time></trkpt><trkpt lat="45.887832974943706" lon="12.280721515863304"><ele>135.0</ele><time>2026-04-26T08:51:29Z</time></trkpt><trkpt lat="45.88789938970916" lon="12.280658610438945"><ele>135.0</ele><time>2026-04-26T08:51:30Z</time></trkpt><trkpt lat="45.88797893492405" lon="12.280587302771439"><ele>135.0</ele><time>2026-04-26T08:51:31Z</time></trkpt><trkpt lat="45.88807202563024" lon="12.280501341558454"><ele>135.0</ele><time>2026-04-26T08:51:32Z</time></trkpt><trkpt lat="45.88817689311481" lon="12.280407711952357"><ele>134.5</ele><time>2026-04-26T08:51:33Z</time></trkpt><trkpt lat="45.88829270020963" lon="12.280313636801115"><ele>134.0</ele><time>2026-04-26T08:51:34Z</time></trkpt><trkpt lat="45.88842643917953" lon="12.280243115908673"><ele>133.5</ele><time>2026-04-26T08:51:35Z</time></trkpt><trkpt lat="45.888549760389154" lon="12.280179185686185"><ele>133.0</ele><time>2026-04-26T08:51:36Z</time></trkpt><trkpt lat="45.888664642216895" lon="12.280101391569506"><ele>132.20000000000002</ele><time>2026-04-26T08:51:37Z</time></trkpt><trkpt lat="45.88876367270004" lon="12.28003775082473"><ele>131.4</ele><time>2026-04-26T08:51:38Z</time></trkpt><trkpt lat="45.888863183983" lon="12.279998295223672"><ele>130.60000000000002</ele><time>2026-04-26T08:51:39Z</time></trkpt><trkpt lat="45.88894052136372" lon="12.27994648202134"><ele>129.8</ele><time>2026-04-26T08:51:40Z</time></trkpt><trkpt lat="45.88900482506152" lon="12.279905126100124"><ele>129.0</ele><time>2026-04-26T08:51:41Z</time></trkpt><trkpt lat="45.88907797512458" lon="12.279839544714624"><ele>129.0</ele><time>2026-04-26T08:51:43Z</time></trkpt><trkpt lat="45.88914577014017" lon="12.279777023260323"><ele>129.0</ele><time>2026-04-26T08:52:20Z</time></trkpt><trkpt lat="45.88921256746336" lon="12.279683501474596"><ele>129.0</ele><time>2026-04-26T08:52:22Z</time></trkpt><trkpt lat="45.889304689271455" lon="12.279569270630311"><ele>129.0</ele><time>2026-04-26T08:52:24Z</time></trkpt><trkpt lat="45.88935516664917" lon="12.279502961514495"><ele>129.0</ele><time>2026-04-26T08:52:25Z</time></trkpt><trkpt lat="45.88940870427822" lon="12.27943444627301"><ele>129.0</ele><time>2026-04-26T08:52:26Z</time></trkpt><trkpt lat="45.889460240840954" lon="12.279362266179168"><ele>127.5</ele><time>2026-04-26T08:52:27Z</time></trkpt><trkpt lat="45.88951563218687" lon="12.279289103029157"><ele>126.0</ele><time>2026-04-26T08:52:28Z</time></trkpt><trkpt lat="45.88958055811004" lon="12.2792245113516"><ele>124.5</ele><time>2026-04-26T08:52:29Z</time></trkpt><trkpt lat="45.88965158781664" lon="12.27916456520487"><ele>123.0</ele><time>2026-04-26T08:52:30Z</time></trkpt><trkpt lat="45.88972986161504" lon="12.279129132333411"><ele>121.5</ele><time>2026-04-26T08:52:31Z</time></trkpt><trkpt lat="45.8898047370131" lon="12.279104386922217"><ele>120.0</ele><time>2026-04-26T08:52:32Z</time></trkpt><trkpt lat="45.889880897437344" lon="12.279100376695249"><ele>120.0</ele><time>2026-04-26T08:52:33Z</time></trkpt><trkpt lat="45.88995219263749" lon="12.279136331534392"><ele>120.0</ele><time>2026-04-26T08:52:34Z</time></trkpt><trkpt lat="45.89002133462405" lon="12.279151233623676"><ele>120.0</ele><time>2026-04-26T08:52:35Z</time></trkpt><trkpt lat="45.89009479529497" lon="12.279180787749814"><ele>120.0</ele><time>2026-04-26T08:52:36Z</time></trkpt><trkpt lat="45.89016650576394" lon="12.27920322743203"><ele>120.0</ele><time>2026-04-26T08:52:37Z</time></trkpt><trkpt lat="45.890231404910004" lon="12.279216039252555"><ele>120.0</ele><time>2026-04-26T08:52:38Z</time></trkpt><trkpt lat="45.890300493718584" lon="12.27922221229037"><ele>120.0</ele><time>2026-04-26T08:52:39Z</time></trkpt><trkpt lat="45.890370790958606" lon="12.279199002375687"><ele>119.16666666666667</ele><time>2026-04-26T08:52:40Z</time></trkpt><trkpt lat="45.89044221772405" lon="12.27919128525694"><ele>118.33333333333334</ele><time>2026-04-26T08:52:41Z</time></trkpt><trkpt lat="45.89052236690764" lon="12.279194215105035"><ele>117.5</ele><time>2026-04-26T08:52:42Z</time></trkpt><trkpt lat="45.890601215729966" lon="12.279186528645647"><ele>116.66666666666667</ele><time>2026-04-26T08:52:43Z</time></trkpt><trkpt lat="45.89068576930757" lon="12.279179029326096"><ele>115.83333333333334</ele><time>2026-04-26T08:52:44Z</time></trkpt><trkpt lat="45.890770415880255" lon="12.279170623684392"><ele>115.0</ele><time>2026-04-26T08:52:45Z</time></trkpt><trkpt lat="45.89086072923047" lon="12.279174756851315"><ele>114.0</ele><time>2026-04-26T08:52:46Z</time></trkpt><trkpt lat="45.89094943181827" lon="12.279125619780622"><ele>113.0</ele><time>2026-04-26T08:52:47Z</time></trkpt><trkpt lat="45.89104184428382" lon="12.279083769964016"><ele>112.0</ele><time>2026-04-26T08:52:48Z</time></trkpt><trkpt lat="45.89114549179579" lon="12.279046574196405"><ele>111.0</ele><time>2026-04-26T08:52:49Z</time></trkpt><trkpt lat="45.89123591966526" lon="12.278996537947387"><ele>110.0</ele><time>2026-04-26T08:52:50Z</time></trkpt><trkpt lat="45.89132144293405" lon="12.278947497128458"><ele>110.6</ele><time>2026-04-26T08:52:51Z</time></trkpt><trkpt lat="45.89140600112989" lon="12.278898873218381"><ele>111.2</ele><time>2026-04-26T08:52:52Z</time></trkpt><trkpt lat="45.89148892408244" lon="12.278851676020661"><ele>111.80000000000001</ele><time>2026-04-26T08:52:53Z</time></trkpt><trkpt lat="45.89157599521676" lon="12.278800189111688"><ele>112.4</ele><time>2026-04-26T08:52:54Z</time></trkpt><trkpt lat="45.89166881277654" lon="12.278753125687476"><ele>113.0</ele><time>2026-04-26T08:52:55Z</time></trkpt><trkpt lat="45.89175411379075" lon="12.278697242042233"><ele>113.0</ele><time>2026-04-26T08:52:56Z</time></trkpt><trkpt lat="45.89184074680188" lon="12.278630254052832"><ele>113.00000000000001</ele><time>2026-04-26T08:52:57Z</time></trkpt><trkpt lat="45.891940654593846" lon="12.278561079428606"><ele>113.00000000000001</ele><time>2026-04-26T08:52:58Z</time></trkpt><trkpt lat="45.8920397244926" lon="12.278483671932241"><ele>113.0</ele><time>2026-04-26T08:52:59Z</time></trkpt><trkpt lat="45.89213066721326" lon="12.278410606353084"><ele>113.0</ele><time>2026-04-26T08:53:00Z</time></trkpt><trkpt lat="45.892215392614446" lon="12.278343073513721"><ele>113.0</ele><time>2026-04-26T08:53:01Z</time></trkpt><trkpt lat="45.892299564220565" lon="12.278275302666279"><ele>113.00000000000001</ele><time>2026-04-26T08:53:02Z</time></trkpt><trkpt lat="45.89238302824447" lon="12.278201064370332"><ele>113.00000000000001</ele><time>2026-04-26T08:53:03Z</time></trkpt><trkpt lat="45.89247497210511" lon="12.278125574118844"><ele>113.0</ele><time>2026-04-26T08:53:04Z</time></trkpt><trkpt lat="45.892556572385296" lon="12.27804019041837"><ele>113.0</ele><time>2026-04-26T08:53:05Z</time></trkpt><trkpt lat="45.89263698275237" lon="12.27794366497213"><ele>112.60000000000001</ele><time>2026-04-26T08:53:06Z</time></trkpt><trkpt lat="45.892710690826554" lon="12.277831604727881"><ele>112.20000000000002</ele><time>2026-04-26T08:53:07Z</time></trkpt><trkpt lat="45.89278260830853" lon="12.277706625263956"><ele>111.8</ele><time>2026-04-26T08:53:08Z</time></trkpt><trkpt lat="45.89285489257724" lon="12.277576927024933"><ele>111.4</ele><time>2026-04-26T08:53:09Z</time></trkpt><trkpt lat="45.892916784268635" lon="12.277450887380924"><ele>111.0</ele><time>2026-04-26T08:53:10Z</time></trkpt><trkpt lat="45.892976714627274" lon="12.277332273280727"><ele>111.6</ele><time>2026-04-26T08:53:11Z</time></trkpt><trkpt lat="45.89303300615635" lon="12.277212253345965"><ele>112.19999999999999</ele><time>2026-04-26T08:53:12Z</time></trkpt><trkpt lat="45.89308910436602" lon="12.27708916734756"><ele>112.80000000000001</ele><time>2026-04-26T08:53:13Z</time></trkpt><trkpt lat="45.89314468094914" lon="12.276962259476415"><ele>113.4</ele><time>2026-04-26T08:53:14Z</time></trkpt><trkpt lat="45.89320049365654" lon="12.276832984073634"><ele>114.0</ele><time>2026-04-26T08:53:15Z</time></trkpt><trkpt lat="45.89325424622468" lon="12.276710275325492"><ele>114.0</ele><time>2026-04-26T08:53:16Z</time></trkpt><trkpt lat="45.89330999838582" lon="12.276586816615259"><ele>114.0</ele><time>2026-04-26T08:53:17Z</time></trkpt><trkpt lat="45.893365305503465" lon="12.276466635181574"><ele>114.0</ele><time>2026-04-26T08:53:18Z</time></trkpt><trkpt lat="45.893426095803854" lon="12.276353661865206"><ele>114.0</ele><time>2026-04-26T08:53:19Z</time></trkpt><trkpt lat="45.893479630325466" lon="12.276238769907062"><ele>114.0</ele><time>2026-04-26T08:53:20Z</time></trkpt><trkpt lat="45.893535675966135" lon="12.276135166204472"><ele>114.4</ele><time>2026-04-26T08:53:21Z</time></trkpt><trkpt lat="45.89359745484351" lon="12.276047320516264"><ele>114.80000000000001</ele><time>2026-04-26T08:53:22Z</time></trkpt><trkpt lat="45.89366933342254" lon="12.275968989854102"><ele>115.19999999999999</ele><time>2026-04-26T08:53:23Z</time></trkpt><trkpt lat="45.8937519154157" lon="12.275886604084508"><ele>115.6</ele><time>2026-04-26T08:53:24Z</time></trkpt><trkpt lat="45.893842115064835" lon="12.275798165005432"><ele>116.0</ele><time>2026-04-26T08:53:25Z</time></trkpt><trkpt lat="45.893944133685395" lon="12.275714229479355"><ele>116.0</ele><time>2026-04-26T08:53:26Z</time></trkpt><trkpt lat="45.89403412388249" lon="12.27562582281394"><ele>116.0</ele><time>2026-04-26T08:53:27Z</time></trkpt><trkpt lat="45.894115271305346" lon="12.27554444546599"><ele>116.0</ele><time>2026-04-26T08:53:28Z</time></trkpt><trkpt lat="45.89419704179161" lon="12.275478118850202"><ele>116.0</ele><time>2026-04-26T08:53:29Z</time></trkpt><trkpt lat="45.8942802823094" lon="12.275417058041251"><ele>116.0</ele><time>2026-04-26T08:53:30Z</time></trkpt><trkpt lat="45.894364392149846" lon="12.275363308964154"><ele>116.16666666666666</ele><time>2026-04-26T08:53:31Z</time></trkpt><trkpt lat="45.8944521378872" lon="12.275314654259272"><ele>116.33333333333333</ele><time>2026-04-26T08:53:32Z</time></trkpt><trkpt lat="45.89453992032983" lon="12.275271114825433"><ele>116.5</ele><time>2026-04-26T08:53:33Z</time></trkpt><trkpt lat="45.89462282034966" lon="12.275225711895224"><ele>116.66666666666666</ele><time>2026-04-26T08:53:34Z</time></trkpt><trkpt lat="45.894700278264985" lon="12.275177601148355"><ele>116.83333333333333</ele><time>2026-04-26T08:53:35Z</time></trkpt><trkpt lat="45.8947726602657" lon="12.275131237332097"><ele>117.0</ele><time>2026-04-26T08:53:36Z</time></trkpt><trkpt lat="45.89484576680606" lon="12.275100444250596"><ele>117.0</ele><time>2026-04-26T08:53:37Z</time></trkpt><trkpt lat="45.89492098016671" lon="12.275081591323707"><ele>117.0</ele><time>2026-04-26T08:53:38Z</time></trkpt><trkpt lat="45.894994193802496" lon="12.275055629767273"><ele>117.0</ele><time>2026-04-26T08:53:39Z</time></trkpt><trkpt lat="45.89506895599361" lon="12.275036558344217"><ele>117.0</ele><time>2026-04-26T08:53:40Z</time></trkpt><trkpt lat="45.89514961092418" lon="12.275029442275741"><ele>117.0</ele><time>2026-04-26T08:53:41Z</time></trkpt><trkpt lat="45.89522659115426" lon="12.275019568571526"><ele>117.0</ele><time>2026-04-26T08:53:42Z</time></trkpt><trkpt lat="45.89530147278342" lon="12.275039547762292"><ele>116.85714285714286</ele><time>2026-04-26T08:53:43Z</time></trkpt><trkpt lat="45.89537390233784" lon="12.275059530326416"><ele>116.71428571428572</ele><time>2026-04-26T08:53:44Z</time></trkpt><trkpt lat="45.89543799513846" lon="12.275075008324748"><ele>116.57142857142858</ele><time>2026-04-26T08:53:45Z</time></trkpt><trkpt lat="45.89550088120455" lon="12.2750907235508"><ele>116.42857142857144</ele><time>2026-04-26T08:53:46Z</time></trkpt><trkpt lat="45.895567899500584" lon="12.275101260096141"><ele>116.28571428571429</ele><time>2026-04-26T08:53:47Z</time></trkpt><trkpt lat="45.89564046151625" lon="12.275104143376986"><ele>116.14285714285717</ele><time>2026-04-26T08:53:48Z</time></trkpt><trkpt lat="45.89571926710686" lon="12.275093744073066"><ele>116.00000000000001</ele><time>2026-04-26T08:53:49Z</time></trkpt><trkpt lat="45.89580464564754" lon="12.275054031765828"><ele>116.0</ele><time>2026-04-26T08:53:50Z</time></trkpt><trkpt lat="45.89589608085547" lon="12.274989071628125"><ele>116.0</ele><time>2026-04-26T08:53:51Z</time></trkpt><trkpt lat="45.895993587433175" lon="12.274903572048496"><ele>116.0</ele><time>2026-04-26T08:53:52Z</time></trkpt><trkpt lat="45.896097835304715" lon="12.274825803267"><ele>116.0</ele><time>2026-04-26T08:53:53Z</time></trkpt><trkpt lat="45.89621759418748" lon="12.274779172989023"><ele>116.5</ele><time>2026-04-26T08:53:54Z</time></trkpt><trkpt lat="45.89634972671088" lon="12.274814642424468"><ele>117.0</ele><time>2026-04-26T08:53:55Z</time></trkpt><trkpt lat="45.89647061981878" lon="12.274814903137843"><ele>117.5</ele><time>2026-04-26T08:53:56Z</time></trkpt><trkpt lat="45.896587706267916" lon="12.274819929786249"><ele>118.0</ele><time>2026-04-26T08:53:57Z</time></trkpt><trkpt lat="45.89670091257771" lon="12.274813135551849"><ele>118.4</ele><time>2026-04-26T08:53:58Z</time></trkpt><trkpt lat="45.896814925405494" lon="12.27477411894069"><ele>118.80000000000001</ele><time>2026-04-26T08:53:59Z</time></trkpt><trkpt lat="45.89692341322314" lon="12.274733401178658"><ele>119.2</ele><time>2026-04-26T08:54:00Z</time></trkpt><trkpt lat="45.897020996012984" lon="12.274699777094618"><ele>119.6</ele><time>2026-04-26T08:54:01Z</time></trkpt><trkpt lat="45.89711197527432" lon="12.274686028149237"><ele>120.0</ele><time>2026-04-26T08:54:02Z</time></trkpt><trkpt lat="45.89720407187133" lon="12.274706545226985"><ele>120.0</ele><time>2026-04-26T08:54:03Z</time></trkpt><trkpt lat="45.89729845021915" lon="12.274744458640644"><ele>120.0</ele><time>2026-04-26T08:54:04Z</time></trkpt><trkpt lat="45.89739784202385" lon="12.274776713165862"><ele>120.0</ele><time>2026-04-26T08:54:05Z</time></trkpt><trkpt lat="45.89748853955185" lon="12.274825017626624"><ele>120.0</ele><time>2026-04-26T08:54:06Z</time></trkpt><trkpt lat="45.89757056311907" lon="12.274854173252105"><ele>120.0</ele><time>2026-04-26T08:54:07Z</time></trkpt><trkpt lat="45.897646326691195" lon="12.274862606077125"><ele>119.8</ele><time>2026-04-26T08:54:08Z</time></trkpt><trkpt lat="45.89771694189614" lon="12.2748767028454"><ele>119.6</ele><time>2026-04-26T08:54:09Z</time></trkpt><trkpt lat="45.89779800135071" lon="12.274836749469095"><ele>119.4</ele><time>2026-04-26T08:54:10Z</time></trkpt><trkpt lat="45.89787929283012" lon="12.274749607127301"><ele>119.2</ele><time>2026-04-26T08:54:11Z</time></trkpt><trkpt lat="45.897944060857775" lon="12.274638437377389"><ele>119.0</ele><time>2026-04-26T08:54:12Z</time></trkpt><trkpt lat="45.89800335456014" lon="12.274522909366349"><ele>119.0</ele><time>2026-04-26T08:54:13Z</time></trkpt><trkpt lat="45.8980574731878" lon="12.27440881294453"><ele>119.0</ele><time>2026-04-26T08:54:14Z</time></trkpt><trkpt lat="45.898114260308226" lon="12.274297944859873"><ele>119.0</ele><time>2026-04-26T08:54:15Z</time></trkpt><trkpt lat="45.898176180521745" lon="12.274186746525578"><ele>119.0</ele><time>2026-04-26T08:54:16Z</time></trkpt><trkpt lat="45.89824792781169" lon="12.27409084789941"><ele>119.0</ele><time>2026-04-26T08:54:17Z</time></trkpt><trkpt lat="45.89831965233484" lon="12.274004244062366"><ele>119.6</ele><time>2026-04-26T08:54:18Z</time></trkpt><trkpt lat="45.89838935155229" lon="12.273926810185902"><ele>120.2</ele><time>2026-04-26T08:54:19Z</time></trkpt><trkpt lat="45.89845948125757" lon="12.273850043569164"><ele>120.79999999999998</ele><time>2026-04-26T08:54:20Z</time></trkpt><trkpt lat="45.898528095555335" lon="12.273775194910813"><ele>121.39999999999999</ele><time>2026-04-26T08:54:21Z</time></trkpt><trkpt lat="45.89860262219059" lon="12.273695081364732"><ele>122.0</ele><time>2026-04-26T08:54:22Z</time></trkpt><trkpt lat="45.8986808127913" lon="12.27361827923017"><ele>122.39999999999999</ele><time>2026-04-26T08:54:23Z</time></trkpt><trkpt lat="45.89876647537408" lon="12.273541473604652"><ele>122.79999999999998</ele><time>2026-04-26T08:54:24Z</time></trkpt><trkpt lat="45.898851730812254" lon="12.273471237717462"><ele>123.2</ele><time>2026-04-26T08:54:25Z</time></trkpt><trkpt lat="45.89892889640868" lon="12.2733902198308"><ele>123.6</ele><time>2026-04-26T08:54:26Z</time></trkpt><trkpt lat="45.8990092908419" lon="12.273350540543195"><ele>124.0</ele><time>2026-04-26T08:54:27Z</time></trkpt><trkpt lat="45.89908396553912" lon="12.273298290137923"><ele>124.0</ele><time>2026-04-26T08:54:28Z</time></trkpt><trkpt lat="45.89916682666091" lon="12.273254923609034"><ele>124.0</ele><time>2026-04-26T08:54:29Z</time></trkpt><trkpt lat="45.8992605537104" lon="12.273234460542545"><ele>124.0</ele><time>2026-04-26T08:54:30Z</time></trkpt><trkpt lat="45.89935862914502" lon="12.273236003136853"><ele>124.0</ele><time>2026-04-26T08:54:31Z</time></trkpt><trkpt lat="45.89945440875165" lon="12.27323071765369"><ele>124.0</ele><time>2026-04-26T08:54:32Z</time></trkpt><trkpt lat="45.899544348366135" lon="12.273258694120093"><ele>124.66666666666667</ele><time>2026-04-26T08:54:33Z</time></trkpt><trkpt lat="45.89963640274668" lon="12.27327951712557"><ele>125.33333333333334</ele><time>2026-04-26T08:54:34Z</time></trkpt><trkpt lat="45.899725610214475" lon="12.273299507176537"><ele>126.0</ele><time>2026-04-26T08:54:35Z</time></trkpt><trkpt lat="45.89981251980382" lon="12.273318094417757"><ele>126.66666666666666</ele><time>2026-04-26T08:54:36Z</time></trkpt><trkpt lat="45.899899203373806" lon="12.273323497740442"><ele>127.33333333333333</ele><time>2026-04-26T08:54:37Z</time></trkpt><trkpt lat="45.89998651313275" lon="12.273317120813378"><ele>128.0</ele><time>2026-04-26T08:54:38Z</time></trkpt><trkpt lat="45.90007939164224" lon="12.27330453568733"><ele>128.4</ele><time>2026-04-26T08:54:39Z</time></trkpt><trkpt lat="45.90017546868566" lon="12.273308631158878"><ele>128.8</ele><time>2026-04-26T08:54:40Z</time></trkpt><trkpt lat="45.90026894401876" lon="12.273287397429524"><ele>129.2</ele><time>2026-04-26T08:54:41Z</time></trkpt><trkpt lat="45.900363874487454" lon="12.273259608610974"><ele>129.6</ele><time>2026-04-26T08:54:42Z</time></trkpt><trkpt lat="45.90045786786442" lon="12.273224284536505"><ele>130.0</ele><time>2026-04-26T08:54:43Z</time></trkpt><trkpt lat="45.90055418837232" lon="12.27317714561331"><ele>130.0</ele><time>2026-04-26T08:54:44Z</time></trkpt><trkpt lat="45.90064807091757" lon="12.273123121271738"><ele>130.0</ele><time>2026-04-26T08:54:45Z</time></trkpt><trkpt lat="45.900740427097425" lon="12.27306244901089"><ele>130.0</ele><time>2026-04-26T08:54:46Z</time></trkpt><trkpt lat="45.90083123284858" lon="12.272998830237501"><ele>130.0</ele><time>2026-04-26T08:54:47Z</time></trkpt><trkpt lat="45.900922429290816" lon="12.272934196133399"><ele>130.0</ele><time>2026-04-26T08:54:48Z</time></trkpt><trkpt lat="45.90101486115039" lon="12.272867771878243"><ele>131.0</ele><time>2026-04-26T08:54:49Z</time></trkpt><trkpt lat="45.90110162941854" lon="12.272805949196139"><ele>132.0</ele><time>2026-04-26T08:54:50Z</time></trkpt><trkpt lat="45.90118841183457" lon="12.272747070563758"><ele>133.0</ele><time>2026-04-26T08:54:51Z</time></trkpt><trkpt lat="45.90127640136501" lon="12.272693485792026"><ele>134.0</ele><time>2026-04-26T08:54:52Z</time></trkpt><trkpt lat="45.90136692054209" lon="12.272641346450404"><ele>135.0</ele><time>2026-04-26T08:54:53Z</time></trkpt><trkpt lat="45.901455133253855" lon="12.272591397432324"><ele>135.0</ele><time>2026-04-26T08:54:54Z</time></trkpt><trkpt lat="45.90153297723403" lon="12.272527041386546"><ele>135.0</ele><time>2026-04-26T08:54:55Z</time></trkpt><trkpt lat="45.901622022619094" lon="12.272483081924998"><ele>135.0</ele><time>2026-04-26T08:54:56Z</time></trkpt><trkpt lat="45.90171102861231" lon="12.272436368141385"><ele>135.0</ele><time>2026-04-26T08:54:57Z</time></trkpt><trkpt lat="45.901803100523104" lon="12.272371765167419"><ele>135.0</ele><time>2026-04-26T08:54:58Z</time></trkpt><trkpt lat="45.9018861385554" lon="12.272271142062817"><ele>139.0</ele><time>2026-04-26T08:54:59Z</time></trkpt><trkpt lat="45.901961135773846" lon="12.27215015021577"><ele>143.0</ele><time>2026-04-26T08:55:00Z</time></trkpt><trkpt lat="45.90202582962586" lon="12.272004366166469"><ele>147.0</ele><time>2026-04-26T08:55:01Z</time></trkpt><trkpt lat="45.90208169872245" lon="12.271858707187867"><ele>151.0</ele><time>2026-04-26T08:55:02Z</time></trkpt><trkpt lat="45.90212959136605" lon="12.271722220817301"><ele>151.0</ele><time>2026-04-26T08:55:03Z</time></trkpt><trkpt lat="45.902165260854204" lon="12.271578254876268"><ele>151.0</ele><time>2026-04-26T08:55:04Z</time></trkpt><trkpt lat="45.90221462848418" lon="12.271439562375775"><ele>151.0</ele><time>2026-04-26T08:55:05Z</time></trkpt><trkpt lat="45.90225222602315" lon="12.27128190453355"><ele>151.0</ele><time>2026-04-26T08:55:06Z</time></trkpt><trkpt lat="45.90228212171382" lon="12.271116329892713"><ele>150.2</ele><time>2026-04-26T08:55:07Z</time></trkpt><trkpt lat="45.90229101567558" lon="12.270952334360473"><ele>149.39999999999998</ele><time>2026-04-26T08:55:08Z</time></trkpt><trkpt lat="45.90230834390925" lon="12.270800521789806"><ele>148.6</ele><time>2026-04-26T08:55:09Z</time></trkpt><trkpt lat="45.902308343905965" lon="12.270662717713705"><ele>147.79999999999998</ele><time>2026-04-26T08:55:10Z</time></trkpt><trkpt lat="45.90231373205373" lon="12.270544351941005"><ele>147.0</ele><time>2026-04-26T08:55:11Z</time></trkpt><trkpt lat="45.9023308882117" lon="12.270424747058552"><ele>146.0</ele><time>2026-04-26T08:55:12Z</time></trkpt><trkpt lat="45.90235745923441" lon="12.270289357702616"><ele>145.0</ele><time>2026-04-26T08:55:13Z</time></trkpt><trkpt lat="45.90239209826664" lon="12.270138186255075"><ele>144.0</ele><time>2026-04-26T08:55:14Z</time></trkpt><trkpt lat="45.90242695199208" lon="12.26999643609011"><ele>143.0</ele><time>2026-04-26T08:55:15Z</time></trkpt><trkpt lat="45.9024546668038" lon="12.269836921158724"><ele>142.0</ele><time>2026-04-26T08:55:16Z</time></trkpt><trkpt lat="45.902496664114466" lon="12.269682632541624"><ele>141.79999999999998</ele><time>2026-04-26T08:55:17Z</time></trkpt><trkpt lat="45.90254035374468" lon="12.269541234511854"><ele>141.6</ele><time>2026-04-26T08:55:18Z</time></trkpt><trkpt lat="45.9025872482616" lon="12.269392988663725"><ele>141.39999999999998</ele><time>2026-04-26T08:55:19Z</time></trkpt><trkpt lat="45.902632329303124" lon="12.269246382440885"><ele>141.2</ele><time>2026-04-26T08:55:20Z</time></trkpt><trkpt lat="45.902677902687145" lon="12.269101895903047"><ele>141.0</ele><time>2026-04-26T08:55:21Z</time></trkpt><trkpt lat="45.90272334670245" lon="12.268958280583574"><ele>140.2</ele><time>2026-04-26T08:55:22Z</time></trkpt><trkpt lat="45.902767985518345" lon="12.26881785531274"><ele>139.39999999999998</ele><time>2026-04-26T08:55:23Z</time></trkpt><trkpt lat="45.902806971719066" lon="12.26868631176016"><ele>138.6</ele><time>2026-04-26T08:55:24Z</time></trkpt><trkpt lat="45.9028433612785" lon="12.268557879678806"><ele>137.79999999999998</ele><time>2026-04-26T08:55:25Z</time></trkpt><trkpt lat="45.90288891376739" lon="12.268439681395305"><ele>137.0</ele><time>2026-04-26T08:55:26Z</time></trkpt><trkpt lat="45.902925794420455" lon="12.268314995173814"><ele>137.0</ele><time>2026-04-26T08:55:27Z</time></trkpt><trkpt lat="45.90295185084957" lon="12.26818176616473"><ele>137.0</ele><time>2026-04-26T08:55:28Z</time></trkpt><trkpt lat="45.9029516359655" lon="12.268040735938007"><ele>137.0</ele><time>2026-04-26T08:55:29Z</time></trkpt><trkpt lat="45.90293136834237" lon="12.267892975628426"><ele>137.0</ele><time>2026-04-26T08:55:30Z</time></trkpt><trkpt lat="45.90290558392008" lon="12.267740146687828"><ele>137.0</ele><time>2026-04-26T08:55:31Z</time></trkpt><trkpt lat="45.90287900584252" lon="12.267586121668865"><ele>137.79999999999998</ele><time>2026-04-26T08:55:32Z</time></trkpt><trkpt lat="45.90285370016841" lon="12.267433047371783"><ele>138.6</ele><time>2026-04-26T08:55:33Z</time></trkpt><trkpt lat="45.90283588458923" lon="12.26728773154127"><ele>139.39999999999998</ele><time>2026-04-26T08:55:34Z</time></trkpt><trkpt lat="45.90282365639491" lon="12.267145052132477"><ele>140.2</ele><time>2026-04-26T08:55:35Z</time></trkpt><trkpt lat="45.90283633783711" lon="12.266994002484475"><ele>141.0</ele><time>2026-04-26T08:55:36Z</time></trkpt><trkpt lat="45.902825738505456" lon="12.266844219405936"><ele>141.2</ele><time>2026-04-26T08:55:37Z</time></trkpt><trkpt lat="45.902825345305594" lon="12.26668938199293"><ele>141.39999999999998</ele><time>2026-04-26T08:55:38Z</time></trkpt><trkpt lat="45.90283394446738" lon="12.266529229893777"><ele>141.6</ele><time>2026-04-26T08:55:39Z</time></trkpt><trkpt lat="45.90284126329507" lon="12.266369011643013"><ele>141.79999999999998</ele><time>2026-04-26T08:55:40Z</time></trkpt><trkpt lat="45.9028425859896" lon="12.266216332152743"><ele>142.0</ele><time>2026-04-26T08:55:41Z</time></trkpt><trkpt lat="45.90283089576391" lon="12.266063160797968"><ele>142.79999999999998</ele><time>2026-04-26T08:55:42Z</time></trkpt><trkpt lat="45.90280824716818" lon="12.265908922664671"><ele>143.6</ele><time>2026-04-26T08:55:43Z</time></trkpt><trkpt lat="45.9027824978187" lon="12.265754870662155"><ele>144.39999999999998</ele><time>2026-04-26T08:55:44Z</time></trkpt><trkpt lat="45.90274686785221" lon="12.265612518858061"><ele>145.2</ele><time>2026-04-26T08:55:45Z</time></trkpt><trkpt lat="45.9027201766572" lon="12.265467807094085"><ele>146.0</ele><time>2026-04-26T08:55:46Z</time></trkpt><trkpt lat="45.902698905181694" lon="12.265322557830865"><ele>147.2</ele><time>2026-04-26T08:55:47Z</time></trkpt><trkpt lat="45.90268188054913" lon="12.265175795943202"><ele>148.39999999999998</ele><time>2026-04-26T08:55:48Z</time></trkpt><trkpt lat="45.902669116223535" lon="12.265023766475341"><ele>149.6</ele><time>2026-04-26T08:55:49Z</time></trkpt><trkpt lat="45.902669862729965" lon="12.26486275328166"><ele>150.79999999999998</ele><time>2026-04-26T08:55:50Z</time></trkpt><trkpt lat="45.902681487378445" lon="12.264702142221253"><ele>152.0</ele><time>2026-04-26T08:55:51Z</time></trkpt><trkpt lat="45.90270452709051" lon="12.264557293275523"><ele>153.0</ele><time>2026-04-26T08:55:52Z</time></trkpt><trkpt lat="45.90272367891021" lon="12.264414151600368"><ele>154.0</ele><time>2026-04-26T08:55:53Z</time></trkpt><trkpt lat="45.902744137858306" lon="12.264268092155078"><ele>155.0</ele><time>2026-04-26T08:55:54Z</time></trkpt><trkpt lat="45.902764366308595" lon="12.26412137450538"><ele>156.0</ele><time>2026-04-26T08:55:55Z</time></trkpt><trkpt lat="45.90278181230996" lon="12.263970243784076"><ele>157.0</ele><time>2026-04-26T08:55:56Z</time></trkpt><trkpt lat="45.90280747450647" lon="12.263822832457608"><ele>158.39999999999998</ele><time>2026-04-26T08:55:57Z</time></trkpt><trkpt lat="45.902830594591215" lon="12.263674241573659"><ele>159.79999999999998</ele><time>2026-04-26T08:55:58Z</time></trkpt><trkpt lat="45.90285538696776" lon="12.263543212504105"><ele>161.2</ele><time>2026-04-26T08:55:59Z</time></trkpt><trkpt lat="45.90288774913032" lon="12.263417518260137"><ele>162.6</ele><time>2026-04-26T08:56:00Z</time></trkpt><trkpt lat="45.90291247362299" lon="12.263286769666236"><ele>164.0</ele><time>2026-04-26T08:56:01Z</time></trkpt><trkpt lat="45.902940519888794" lon="12.263165100152614"><ele>165.0</ele><time>2026-04-26T08:56:02Z</time></trkpt><trkpt lat="45.90296698890292" lon="12.263058736522062"><ele>166.0</ele><time>2026-04-26T08:56:03Z</time></trkpt><trkpt lat="45.90300119964826" lon="12.262925661392963"><ele>167.0</ele><time>2026-04-26T08:56:05Z</time></trkpt><trkpt lat="45.90302496513697" lon="12.262835414167368"><ele>168.0</ele><time>2026-04-26T08:56:07Z</time></trkpt><trkpt lat="45.90305916859927" lon="12.262726584751457"><ele>169.0</ele><time>2026-04-26T08:56:11Z</time></trkpt><trkpt lat="45.90319456927077" lon="12.262741958187172"><ele>169.0</ele><time>2026-04-26T08:56:14Z</time></trkpt><trkpt lat="45.90331772871777" lon="12.262762923536911"><ele>169.0</ele><time>2026-04-26T08:56:16Z</time></trkpt><trkpt lat="45.903423753890905" lon="12.262772397828565"><ele>169.0</ele><time>2026-04-26T08:56:18Z</time></trkpt><trkpt lat="45.90348989024807" lon="12.262785439656252"><ele>169.0</ele><time>2026-04-26T08:56:20Z</time></trkpt><trkpt lat="45.90359401048321" lon="12.262809813753327"><ele>169.0</ele><time>2026-04-26T08:56:23Z</time></trkpt><trkpt lat="45.903730693377454" lon="12.262825195783334"><ele>169.2</ele><time>2026-04-26T08:56:25Z</time></trkpt><trkpt lat="45.90382006784911" lon="12.262830639397732"><ele>169.39999999999998</ele><time>2026-04-26T08:56:26Z</time></trkpt><trkpt lat="45.903909174052146" lon="12.262844865961066"><ele>169.6</ele><time>2026-04-26T08:56:27Z</time></trkpt><trkpt lat="45.904010949998934" lon="12.262863206986907"><ele>169.8</ele><time>2026-04-26T08:56:28Z</time></trkpt><trkpt lat="45.90411299009373" lon="12.262887188332508"><ele>170.0</ele><time>2026-04-26T08:56:29Z</time></trkpt><trkpt lat="45.90421281413236" lon="12.262903729481557"><ele>171.0</ele><time>2026-04-26T08:56:30Z</time></trkpt><trkpt lat="45.904317645990886" lon="12.262929322269102"><ele>172.0</ele><time>2026-04-26T08:56:31Z</time></trkpt><trkpt lat="45.90442045264033" lon="12.26297271798087"><ele>173.0</ele><time>2026-04-26T08:56:32Z</time></trkpt><trkpt lat="45.90452670072799" lon="12.26303210373521"><ele>174.0</ele><time>2026-04-26T08:56:33Z</time></trkpt><trkpt lat="45.90463703570183" lon="12.263102718831295"><ele>175.0</ele><time>2026-04-26T08:56:34Z</time></trkpt><trkpt lat="45.90474897379123" lon="12.263177657164734"><ele>175.0</ele><time>2026-04-26T08:56:35Z</time></trkpt><trkpt lat="45.90484865898803" lon="12.26324742983377"><ele>175.0</ele><time>2026-04-26T08:56:36Z</time></trkpt><trkpt lat="45.90493871166955" lon="12.26331212726085"><ele>175.0</ele><time>2026-04-26T08:56:37Z</time></trkpt><trkpt lat="45.90502273738328" lon="12.263374640383745"><ele>175.0</ele><time>2026-04-26T08:56:38Z</time></trkpt><trkpt lat="45.90509914590813" lon="12.263429656079312"><ele>175.0</ele><time>2026-04-26T08:56:39Z</time></trkpt><trkpt lat="45.90516955042905" lon="12.263477078771302"><ele>174.16666666666669</ele><time>2026-04-26T08:56:40Z</time></trkpt><trkpt lat="45.90522806543283" lon="12.263514075363998"><ele>173.33333333333334</ele><time>2026-04-26T08:56:41Z</time></trkpt><trkpt lat="45.90532841829045" lon="12.263576765923034"><ele>172.5</ele><time>2026-04-26T08:56:43Z</time></trkpt><trkpt lat="45.90538607067496" lon="12.263617403274456"><ele>171.66666666666666</ele><time>2026-04-26T08:56:45Z</time></trkpt><trkpt lat="45.905450361102375" lon="12.263647481975674"><ele>170.83333333333331</ele><time>2026-04-26T08:56:50Z</time></trkpt><trkpt lat="45.90550663326394" lon="12.263547730157228"><ele>170.0</ele><time>2026-04-26T08:56:52Z</time></trkpt><trkpt lat="45.90552797624015" lon="12.26344160778875"><ele>170.0</ele><time>2026-04-26T08:56:53Z</time></trkpt><trkpt lat="45.90555196477614" lon="12.263327819548737"><ele>170.0</ele><time>2026-04-26T08:56:54Z</time></trkpt><trkpt lat="45.90557486606413" lon="12.263189702501824"><ele>170.0</ele><time>2026-04-26T08:56:55Z</time></trkpt><trkpt lat="45.90559393308765" lon="12.26304545463078"><ele>170.0</ele><time>2026-04-26T08:56:56Z</time></trkpt><trkpt lat="45.90562380951747" lon="12.26291965812771"><ele>170.0</ele><time>2026-04-26T08:56:57Z</time></trkpt><trkpt lat="45.905630728081185" lon="12.26278223417205"><ele>170.5</ele><time>2026-04-26T08:56:58Z</time></trkpt><trkpt lat="45.90561158841457" lon="12.262629259033845"><ele>171.0</ele><time>2026-04-26T08:56:59Z</time></trkpt><trkpt lat="45.90560638945275" lon="12.262474205392987"><ele>171.5</ele><time>2026-04-26T08:57:00Z</time></trkpt><trkpt lat="45.90559463172356" lon="12.26230505497007"><ele>172.0</ele><time>2026-04-26T08:57:01Z</time></trkpt><trkpt lat="45.90560088401623" lon="12.26213449192533"><ele>172.8</ele><time>2026-04-26T08:57:02Z</time></trkpt><trkpt lat="45.905603685550645" lon="12.261978685397295"><ele>173.6</ele><time>2026-04-26T08:57:03Z</time></trkpt><trkpt lat="45.90562264813546" lon="12.261837371749726"><ele>174.4</ele><time>2026-04-26T08:57:04Z</time></trkpt><trkpt lat="45.905656372630546" lon="12.26169899865478"><ele>175.20000000000002</ele><time>2026-04-26T08:57:05Z</time></trkpt><trkpt lat="45.90571518068909" lon="12.261577695873404"><ele>176.0</ele><time>2026-04-26T08:57:06Z</time></trkpt><trkpt lat="45.90579068632395" lon="12.261454602995979"><ele>175.25</ele><time>2026-04-26T08:57:07Z</time></trkpt><trkpt lat="45.905875255956644" lon="12.261322903464123"><ele>174.5</ele><time>2026-04-26T08:57:08Z</time></trkpt><trkpt lat="45.90596451838352" lon="12.26118454056859"><ele>173.75</ele><time>2026-04-26T08:57:09Z</time></trkpt><trkpt lat="45.90604586867129" lon="12.26105745131518"><ele>173.0</ele><time>2026-04-26T08:57:10Z</time></trkpt><trkpt lat="45.90611232974039" lon="12.260919527260064"><ele>173.0</ele><time>2026-04-26T08:57:11Z</time></trkpt><trkpt lat="45.90619240991494" lon="12.260786899822545"><ele>173.0</ele><time>2026-04-26T08:57:12Z</time></trkpt><trkpt lat="45.906283813566745" lon="12.260658217623108"><ele>173.0</ele><time>2026-04-26T08:57:13Z</time></trkpt><trkpt lat="45.90635951570003" lon="12.26050756886496"><ele>173.0</ele><time>2026-04-26T08:57:14Z</time></trkpt><trkpt lat="45.906436056084516" lon="12.260356362641904"><ele>174.0</ele><time>2026-04-26T08:57:15Z</time></trkpt><trkpt lat="45.906508732737436" lon="12.260222277833796"><ele>175.0</ele><time>2026-04-26T08:57:16Z</time></trkpt><trkpt lat="45.90658681747036" lon="12.260106680765254"><ele>176.0</ele><time>2026-04-26T08:57:17Z</time></trkpt><trkpt lat="45.906680731068214" lon="12.259997571697683"><ele>177.0</ele><time>2026-04-26T08:57:18Z</time></trkpt><trkpt lat="45.906782044608704" lon="12.259893930686918"><ele>177.0</ele><time>2026-04-26T08:57:19Z</time></trkpt><trkpt lat="45.906892647691826" lon="12.259795651081836"><ele>177.0</ele><time>2026-04-26T08:57:20Z</time></trkpt><trkpt lat="45.907006320226" lon="12.259698061356193"><ele>177.0</ele><time>2026-04-26T08:57:21Z</time></trkpt><trkpt lat="45.9071150182222" lon="12.259604742335839"><ele>177.0</ele><time>2026-04-26T08:57:22Z</time></trkpt><trkpt lat="45.90722756570199" lon="12.259507720935236"><ele>178.75</ele><time>2026-04-26T08:57:23Z</time></trkpt><trkpt lat="45.90733341330391" lon="12.259386545721119"><ele>180.5</ele><time>2026-04-26T08:57:24Z</time></trkpt><trkpt lat="45.90745979725189" lon="12.259309772070665"><ele>182.25</ele><time>2026-04-26T08:57:25Z</time></trkpt><trkpt lat="45.90757619499927" lon="12.259217323043265"><ele>184.0</ele><time>2026-04-26T08:57:26Z</time></trkpt><trkpt lat="45.90768973769453" lon="12.2591280415123"><ele>184.75</ele><time>2026-04-26T08:57:27Z</time></trkpt><trkpt lat="45.90780713425478" lon="12.259036059861653"><ele>185.5</ele><time>2026-04-26T08:57:28Z</time></trkpt><trkpt lat="45.907921067767305" lon="12.258922873437639"><ele>186.25</ele><time>2026-04-26T08:57:29Z</time></trkpt><trkpt lat="45.908045838089215" lon="12.258824254409994"><ele>187.0</ele><time>2026-04-26T08:57:30Z</time></trkpt><trkpt lat="45.90816949194236" lon="12.258721064634225"><ele>187.0</ele><time>2026-04-26T08:57:31Z</time></trkpt><trkpt lat="45.90829836402291" lon="12.258618811818357"><ele>187.0</ele><time>2026-04-26T08:57:32Z</time></trkpt><trkpt lat="45.90842635014213" lon="12.258523583667946"><ele>187.0</ele><time>2026-04-26T08:57:33Z</time></trkpt><trkpt lat="45.90855635812648" lon="12.258457312384389"><ele>187.0</ele><time>2026-04-26T08:57:34Z</time></trkpt><trkpt lat="45.9086684281182" lon="12.25836282623374"><ele>189.0</ele><time>2026-04-26T08:57:35Z</time></trkpt><trkpt lat="45.90877648691947" lon="12.258261932422586"><ele>191.0</ele><time>2026-04-26T08:57:36Z</time></trkpt><trkpt lat="45.90888789024491" lon="12.258146293892914"><ele>193.0</ele><time>2026-04-26T08:57:37Z</time></trkpt><trkpt lat="45.908995948805654" lon="12.258031536635906"><ele>195.0</ele><time>2026-04-26T08:57:38Z</time></trkpt><trkpt lat="45.90909357160431" lon="12.257925724952093"><ele>195.0</ele><time>2026-04-26T08:57:39Z</time></trkpt><trkpt lat="45.909170533741275" lon="12.257814339611086"><ele>195.0</ele><time>2026-04-26T08:57:40Z</time></trkpt><trkpt lat="45.909256374745304" lon="12.25774120304371"><ele>195.0</ele><time>2026-04-26T08:57:41Z</time></trkpt><trkpt lat="45.90932313673881" lon="12.257637401247088"><ele>195.0</ele><time>2026-04-26T08:57:42Z</time></trkpt><trkpt lat="45.909375628236944" lon="12.257512212736643"><ele>195.0</ele><time>2026-04-26T08:57:43Z</time></trkpt><trkpt lat="45.90940040806028" lon="12.257369066560136"><ele>197.8</ele><time>2026-04-26T08:57:44Z</time></trkpt><trkpt lat="45.909424411132456" lon="12.257225151628546"><ele>200.6</ele><time>2026-04-26T08:57:45Z</time></trkpt><trkpt lat="45.90942225486669" lon="12.257072941545584"><ele>203.39999999999998</ele><time>2026-04-26T08:57:46Z</time></trkpt><trkpt lat="45.90940029223431" lon="12.256915151991558"><ele>206.2</ele><time>2026-04-26T08:57:47Z</time></trkpt><trkpt lat="45.90938762105133" lon="12.25676058815855"><ele>209.0</ele><time>2026-04-26T08:57:48Z</time></trkpt><trkpt lat="45.90935452535023" lon="12.256631571789278"><ele>209.0</ele><time>2026-04-26T08:57:49Z</time></trkpt><trkpt lat="45.9093559208979" lon="12.256505510806189"><ele>209.0</ele><time>2026-04-26T08:57:50Z</time></trkpt><trkpt lat="45.90933995693801" lon="12.256387316849317"><ele>209.0</ele><time>2026-04-26T08:57:51Z</time></trkpt><trkpt lat="45.90935545995137" lon="12.256261880459531"><ele>209.0</ele><time>2026-04-26T08:57:52Z</time></trkpt><trkpt lat="45.909410326157804" lon="12.256147141422316"><ele>209.0</ele><time>2026-04-26T08:57:53Z</time></trkpt><trkpt lat="45.909464248379415" lon="12.256031712965838"><ele>208.2</ele><time>2026-04-26T08:57:54Z</time></trkpt><trkpt lat="45.90952645115929" lon="12.25593419119361"><ele>207.39999999999998</ele><time>2026-04-26T08:57:55Z</time></trkpt><trkpt lat="45.90959797941261" lon="12.255854173714354"><ele>206.6</ele><time>2026-04-26T08:57:56Z</time></trkpt><trkpt lat="45.909690664236486" lon="12.255789211135735"><ele>205.8</ele><time>2026-04-26T08:57:57Z</time></trkpt><trkpt lat="45.909802408183445" lon="12.255739612531535"><ele>205.0</ele><time>2026-04-26T08:57:58Z</time></trkpt><trkpt lat="45.9099252769941" lon="12.255685946672253"><ele>205.0</ele><time>2026-04-26T08:57:59Z</time></trkpt><trkpt lat="45.91005909439035" lon="12.255624164926637"><ele>205.0</ele><time>2026-04-26T08:58:00Z</time></trkpt><trkpt lat="45.91018890011985" lon="12.255564775381744"><ele>205.0</ele><time>2026-04-26T08:58:01Z</time></trkpt><trkpt lat="45.910308390412105" lon="12.255510105385351"><ele>205.0</ele><time>2026-04-26T08:58:02Z</time></trkpt><trkpt lat="45.91042337847246" lon="12.255456295149362"><ele>204.25</ele><time>2026-04-26T08:58:03Z</time></trkpt><trkpt lat="45.910537617306716" lon="12.25539661354125"><ele>203.5</ele><time>2026-04-26T08:58:04Z</time></trkpt><trkpt lat="45.91063786245259" lon="12.255317554526394"><ele>202.75</ele><time>2026-04-26T08:58:05Z</time></trkpt><trkpt lat="45.91075018103112" lon="12.255271727269456"><ele>202.0</ele><time>2026-04-26T08:58:06Z</time></trkpt><trkpt lat="45.91084775899748" lon="12.25519839610548"><ele>203.6</ele><time>2026-04-26T08:58:07Z</time></trkpt><trkpt lat="45.910936940690846" lon="12.255121737891375"><ele>205.2</ele><time>2026-04-26T08:58:08Z</time></trkpt><trkpt lat="45.911019882030466" lon="12.255041067266227"><ele>206.8</ele><time>2026-04-26T08:58:09Z</time></trkpt><trkpt lat="45.911100551095" lon="12.254954374068397"><ele>208.4</ele><time>2026-04-26T08:58:10Z</time></trkpt><trkpt lat="45.91117395537502" lon="12.254842694501002"><ele>210.0</ele><time>2026-04-26T08:58:11Z</time></trkpt><trkpt lat="45.9112593581521" lon="12.254740779214083"><ele>210.0</ele><time>2026-04-26T08:58:12Z</time></trkpt><trkpt lat="45.91133808321902" lon="12.25462790104754"><ele>210.0</ele><time>2026-04-26T08:58:13Z</time></trkpt><trkpt lat="45.91141243880358" lon="12.254516088997546"><ele>210.0</ele><time>2026-04-26T08:58:14Z</time></trkpt><trkpt lat="45.91148708977367" lon="12.254402851963134"><ele>210.0</ele><time>2026-04-26T08:58:15Z</time></trkpt><trkpt lat="45.91156312970567" lon="12.25428902337246"><ele>210.0</ele><time>2026-04-26T08:58:16Z</time></trkpt><trkpt lat="45.911637264680856" lon="12.254172531962858"><ele>210.0</ele><time>2026-04-26T08:58:17Z</time></trkpt><trkpt lat="45.911722421474465" lon="12.254057156170395"><ele>210.0</ele><time>2026-04-26T08:58:18Z</time></trkpt><trkpt lat="45.91180666291588" lon="12.253936364408483"><ele>210.0</ele><time>2026-04-26T08:58:19Z</time></trkpt><trkpt lat="45.91189837706518" lon="12.253817102442296"><ele>210.0</ele><time>2026-04-26T08:58:20Z</time></trkpt><trkpt lat="45.91199957054402" lon="12.25370249368864"><ele>212.25</ele><time>2026-04-26T08:58:21Z</time></trkpt><trkpt lat="45.91211110104763" lon="12.253597938764852"><ele>214.5</ele><time>2026-04-26T08:58:22Z</time></trkpt><trkpt lat="45.912219114165026" lon="12.253487158883983"><ele>216.75</ele><time>2026-04-26T08:58:23Z</time></trkpt><trkpt lat="45.91231813266189" lon="12.253386955616902"><ele>219.0</ele><time>2026-04-26T08:58:24Z</time></trkpt><trkpt lat="45.91241991755496" lon="12.253293688496756"><ele>219.0</ele><time>2026-04-26T08:58:25Z</time></trkpt><trkpt lat="45.91252265428502" lon="12.253194396684625"><ele>219.0</ele><time>2026-04-26T08:58:26Z</time></trkpt><trkpt lat="45.912624865734664" lon="12.253090862163772"><ele>219.0</ele><time>2026-04-26T08:58:27Z</time></trkpt><trkpt lat="45.91271413320118" lon="12.252983198369236"><ele>219.0</ele><time>2026-04-26T08:58:28Z</time></trkpt><trkpt lat="45.91279074728249" lon="12.252861713406531"><ele>219.25</ele><time>2026-04-26T08:58:29Z</time></trkpt><trkpt lat="45.912853821059194" lon="12.252724965412513"><ele>219.5</ele><time>2026-04-26T08:58:30Z</time></trkpt><trkpt lat="45.91289511735253" lon="12.25256157043815"><ele>219.75</ele><time>2026-04-26T08:58:31Z</time></trkpt><trkpt lat="45.91293154274334" lon="12.252390007774858"><ele>220.0</ele><time>2026-04-26T08:58:32Z</time></trkpt><trkpt lat="45.912973170595656" lon="12.252235210065807"><ele>220.6</ele><time>2026-04-26T08:58:33Z</time></trkpt><trkpt lat="45.91301720591276" lon="12.25208974362538"><ele>221.2</ele><time>2026-04-26T08:58:34Z</time></trkpt><trkpt lat="45.91308031733968" lon="12.25196696099755"><ele>221.8</ele><time>2026-04-26T08:58:35Z</time></trkpt><trkpt lat="45.91313444761414" lon="12.25183884435448"><ele>222.4</ele><time>2026-04-26T08:58:36Z</time></trkpt><trkpt lat="45.91317461768847" lon="12.251704979093512"><ele>223.0</ele><time>2026-04-26T08:58:37Z</time></trkpt><trkpt lat="45.91325469543192" lon="12.251616855023267"><ele>223.0</ele><time>2026-04-26T08:58:38Z</time></trkpt><trkpt lat="45.913336239121655" lon="12.25154701894816"><ele>223.0</ele><time>2026-04-26T08:58:39Z</time></trkpt><trkpt lat="45.913425014688286" lon="12.25147848982481"><ele>223.0</ele><time>2026-04-26T08:58:40Z</time></trkpt><trkpt lat="45.913515183805124" lon="12.251398154391937"><ele>223.0</ele><time>2026-04-26T08:58:41Z</time></trkpt><trkpt lat="45.91360266076192" lon="12.251332139829929"><ele>223.0</ele><time>2026-04-26T08:58:42Z</time></trkpt><trkpt lat="45.9136859523965" lon="12.251263472162469"><ele>222.2</ele><time>2026-04-26T08:58:43Z</time></trkpt><trkpt lat="45.913770070892696" lon="12.251196815659695"><ele>221.4</ele><time>2026-04-26T08:58:44Z</time></trkpt><trkpt lat="45.91385717499416" lon="12.251129477073997"><ele>220.59999999999997</ele><time>2026-04-26T08:58:45Z</time></trkpt><trkpt lat="45.91393944597338" lon="12.251059751524016"><ele>219.79999999999998</ele><time>2026-04-26T08:58:46Z</time></trkpt><trkpt lat="45.914034034603375" lon="12.251008084868948"><ele>219.0</ele><time>2026-04-26T08:58:47Z</time></trkpt><trkpt lat="45.91411248688096" lon="12.250929182825065"><ele>219.0</ele><time>2026-04-26T08:58:48Z</time></trkpt><trkpt lat="45.91419761247801" lon="12.250860472550425"><ele>218.99999999999997</ele><time>2026-04-26T08:58:49Z</time></trkpt><trkpt lat="45.914283148997384" lon="12.2507917668108"><ele>218.99999999999997</ele><time>2026-04-26T08:58:50Z</time></trkpt><trkpt lat="45.91437142977728" lon="12.250722596325385"><ele>219.0</ele><time>2026-04-26T08:58:51Z</time></trkpt><trkpt lat="45.91445545066477" lon="12.250654409535075"><ele>219.0</ele><time>2026-04-26T08:58:52Z</time></trkpt><trkpt lat="45.9145366496533" lon="12.250590973701279"><ele>218.83333333333334</ele><time>2026-04-26T08:58:53Z</time></trkpt><trkpt lat="45.914615833595775" lon="12.250543104105875"><ele>218.66666666666669</ele><time>2026-04-26T08:58:54Z</time></trkpt><trkpt lat="45.91467454186" lon="12.250491323417105"><ele>218.5</ele><time>2026-04-26T08:58:55Z</time></trkpt><trkpt lat="45.91473059598219" lon="12.250448323392732"><ele>218.33333333333334</ele><time>2026-04-26T08:58:56Z</time></trkpt><trkpt lat="45.9148308640892" lon="12.250416992937891"><ele>218.16666666666669</ele><time>2026-04-26T08:58:58Z</time></trkpt><trkpt lat="45.91494283713927" lon="12.250394117418745"><ele>218.0</ele><time>2026-04-26T08:59:00Z</time></trkpt><trkpt lat="45.91499278682312" lon="12.250275976885746"><ele>218.00000000000003</ele><time>2026-04-26T08:59:01Z</time></trkpt><trkpt lat="45.91505121668622" lon="12.250186340908064"><ele>218.0</ele><time>2026-04-26T08:59:02Z</time></trkpt><trkpt lat="45.91511602957229" lon="12.250115549155115"><ele>218.0</ele><time>2026-04-26T08:59:03Z</time></trkpt><trkpt lat="45.91517025766567" lon="12.250039649530352"><ele>218.0</ele><time>2026-04-26T08:59:04Z</time></trkpt><trkpt lat="45.91519404639443" lon="12.249923987074851"><ele>218.00000000000003</ele><time>2026-04-26T08:59:05Z</time></trkpt><trkpt lat="45.915239188795134" lon="12.249802818421148"><ele>218.0</ele><time>2026-04-26T08:59:06Z</time></trkpt><trkpt lat="45.91529542202139" lon="12.249667592840753"><ele>219.25</ele><time>2026-04-26T08:59:07Z</time></trkpt><trkpt lat="45.91534455643413" lon="12.24951179721032"><ele>220.5</ele><time>2026-04-26T08:59:08Z</time></trkpt><trkpt lat="45.91541254604176" lon="12.249368310106576"><ele>221.75</ele><time>2026-04-26T08:59:09Z</time></trkpt><trkpt lat="45.91547293000755" lon="12.24923372683255"><ele>223.0</ele><time>2026-04-26T08:59:10Z</time></trkpt><trkpt lat="45.91553179994792" lon="12.249088864812524"><ele>223.0</ele><time>2026-04-26T08:59:11Z</time></trkpt><trkpt lat="45.91558220801921" lon="12.248962595843635"><ele>223.0</ele><time>2026-04-26T08:59:12Z</time></trkpt><trkpt lat="45.91563425498321" lon="12.248841178627007"><ele>223.0</ele><time>2026-04-26T08:59:13Z</time></trkpt><trkpt lat="45.9156970253232" lon="12.248729262649139"><ele>223.0</ele><time>2026-04-26T08:59:14Z</time></trkpt><trkpt lat="45.9157690408046" lon="12.248624348023737"><ele>223.0</ele><time>2026-04-26T08:59:15Z</time></trkpt><trkpt lat="45.91585534937329" lon="12.248533530819794"><ele>222.60000000000002</ele><time>2026-04-26T08:59:16Z</time></trkpt><trkpt lat="45.91594130857592" lon="12.248457707094298"><ele>222.20000000000002</ele><time>2026-04-26T08:59:17Z</time></trkpt><trkpt lat="45.91602491024416" lon="12.248376710837498"><ele>221.8</ele><time>2026-04-26T08:59:18Z</time></trkpt><trkpt lat="45.91611381079713" lon="12.248303254307288"><ele>221.4</ele><time>2026-04-26T08:59:19Z</time></trkpt><trkpt lat="45.916204898467896" lon="12.248245670636361"><ele>221.0</ele><time>2026-04-26T08:59:20Z</time></trkpt><trkpt lat="45.91630226553995" lon="12.248209201032202"><ele>221.0</ele><time>2026-04-26T08:59:21Z</time></trkpt><trkpt lat="45.916398398557554" lon="12.248199216982309"><ele>221.00000000000003</ele><time>2026-04-26T08:59:22Z</time></trkpt><trkpt lat="45.916495228440645" lon="12.248196796008216"><ele>221.00000000000003</ele><time>2026-04-26T08:59:23Z</time></trkpt><trkpt lat="45.91658909958596" lon="12.24818761178281"><ele>221.0</ele><time>2026-04-26T08:59:24Z</time></trkpt><trkpt lat="45.916685398401064" lon="12.248176469251055"><ele>221.0</ele><time>2026-04-26T08:59:25Z</time></trkpt><trkpt lat="45.916779523889524" lon="12.248151143137363"><ele>219.8</ele><time>2026-04-26T08:59:26Z</time></trkpt><trkpt lat="45.91687431664726" lon="12.24810633663386"><ele>218.60000000000002</ele><time>2026-04-26T08:59:27Z</time></trkpt><trkpt lat="45.91696921497853" lon="12.24803590048574"><ele>217.4</ele><time>2026-04-26T08:59:28Z</time></trkpt><trkpt lat="45.91706623754318" lon="12.247945406374575"><ele>216.2</ele><time>2026-04-26T08:59:29Z</time></trkpt><trkpt lat="45.91716522689391" lon="12.247861580331298"><ele>215.0</ele><time>2026-04-26T08:59:30Z</time></trkpt><trkpt lat="45.917257450206236" lon="12.247770400381444"><ele>215.0</ele><time>2026-04-26T08:59:31Z</time></trkpt><trkpt lat="45.917348280794876" lon="12.247675688171377"><ele>215.0</ele><time>2026-04-26T08:59:32Z</time></trkpt><trkpt lat="45.91744079220422" lon="12.247587680021985"><ele>215.0</ele><time>2026-04-26T08:59:33Z</time></trkpt><trkpt lat="45.917544886677305" lon="12.247506771847009"><ele>215.0</ele><time>2026-04-26T08:59:34Z</time></trkpt><trkpt lat="45.91764350559143" lon="12.247410955377317"><ele>215.0</ele><time>2026-04-26T08:59:35Z</time></trkpt><trkpt lat="45.91773828437307" lon="12.247304541247347"><ele>215.0</ele><time>2026-04-26T08:59:36Z</time></trkpt><trkpt lat="45.91782436896315" lon="12.24717593660507"><ele>215.0</ele><time>2026-04-26T08:59:37Z</time></trkpt><trkpt lat="45.917893353394824" lon="12.247031484803664"><ele>215.0</ele><time>2026-04-26T08:59:38Z</time></trkpt><trkpt lat="45.91794791890794" lon="12.246873910384611"><ele>215.5</ele><time>2026-04-26T08:59:39Z</time></trkpt><trkpt lat="45.91799304680513" lon="12.246709033878082"><ele>216.0</ele><time>2026-04-26T08:59:40Z</time></trkpt><trkpt lat="45.918039750642976" lon="12.24653864353663"><ele>216.5</ele><time>2026-04-26T08:59:41Z</time></trkpt><trkpt lat="45.91805372445559" lon="12.246354141175654"><ele>217.0</ele><time>2026-04-26T08:59:42Z</time></trkpt><trkpt lat="45.91805040958952" lon="12.246167159234682"><ele>218.0</ele><time>2026-04-26T08:59:43Z</time></trkpt><trkpt lat="45.918025961134646" lon="12.24598072421939"><ele>219.0</ele><time>2026-04-26T08:59:44Z</time></trkpt><trkpt lat="45.917978802601446" lon="12.245785876833358"><ele>220.0</ele><time>2026-04-26T08:59:45Z</time></trkpt><trkpt lat="45.9179262662634" lon="12.245596100316446"><ele>221.0</ele><time>2026-04-26T08:59:46Z</time></trkpt><trkpt lat="45.91787189410269" lon="12.245403125346003"><ele>222.0</ele><time>2026-04-26T08:59:47Z</time></trkpt><trkpt lat="45.91780371433707" lon="12.245216079799542"><ele>223.0</ele><time>2026-04-26T08:59:48Z</time></trkpt><trkpt lat="45.91776803020315" lon="12.245025548039257"><ele>224.0</ele><time>2026-04-26T08:59:49Z</time></trkpt><trkpt lat="45.91772185418965" lon="12.244846352905784"><ele>225.0</ele><time>2026-04-26T08:59:50Z</time></trkpt><trkpt lat="45.91768372362413" lon="12.2446675512412"><ele>226.0</ele><time>2026-04-26T08:59:51Z</time></trkpt><trkpt lat="45.91765325400714" lon="12.2444938547965"><ele>227.0</ele><time>2026-04-26T08:59:52Z</time></trkpt><trkpt lat="45.91762119837845" lon="12.244321318870275"><ele>228.0</ele><time>2026-04-26T08:59:53Z</time></trkpt><trkpt lat="45.91759741685884" lon="12.244143349829509"><ele>229.0</ele><time>2026-04-26T08:59:54Z</time></trkpt><trkpt lat="45.917577995404066" lon="12.243958891905855"><ele>228.5</ele><time>2026-04-26T08:59:55Z</time></trkpt><trkpt lat="45.91756317374844" lon="12.243776444504112"><ele>228.0</ele><time>2026-04-26T08:59:56Z</time></trkpt><trkpt lat="45.91754505363237" lon="12.243602840982271"><ele>227.5</ele><time>2026-04-26T08:59:57Z</time></trkpt><trkpt lat="45.91751810643954" lon="12.243431374123528"><ele>227.0</ele><time>2026-04-26T08:59:58Z</time></trkpt><trkpt lat="45.917480297655" lon="12.243257636223458"><ele>226.25</ele><time>2026-04-26T08:59:59Z</time></trkpt><trkpt lat="45.91743182358042" lon="12.243071094140857"><ele>225.5</ele><time>2026-04-26T09:00:00Z</time></trkpt><trkpt lat="45.917371914138414" lon="12.242890537608007"><ele>224.75</ele><time>2026-04-26T09:00:01Z</time></trkpt><trkpt lat="45.91731207612838" lon="12.24270417505915"><ele>224.0</ele><time>2026-04-26T09:00:02Z</time></trkpt><trkpt lat="45.91726050635885" lon="12.242509584509486"><ele>224.0</ele><time>2026-04-26T09:00:03Z</time></trkpt><trkpt lat="45.91720946387078" lon="12.24230864763148"><ele>224.0</ele><time>2026-04-26T09:00:04Z</time></trkpt><trkpt lat="45.917182399558065" lon="12.24209221234419"><ele>224.0</ele><time>2026-04-26T09:00:05Z</time></trkpt><trkpt lat="45.917136426011474" lon="12.241878721368733"><ele>224.33333333333334</ele><time>2026-04-26T09:00:06Z</time></trkpt><trkpt lat="45.91711530921377" lon="12.241648786729984"><ele>224.66666666666669</ele><time>2026-04-26T09:00:07Z</time></trkpt><trkpt lat="45.917095397366886" lon="12.241414598013108"><ele>225.0</ele><time>2026-04-26T09:00:08Z</time></trkpt><trkpt lat="45.91706904235333" lon="12.24117578168356"><ele>225.33333333333331</ele><time>2026-04-26T09:00:09Z</time></trkpt><trkpt lat="45.9170503477068" lon="12.240947374355141"><ele>225.66666666666666</ele><time>2026-04-26T09:00:10Z</time></trkpt><trkpt lat="45.91703052029299" lon="12.240731664656485"><ele>226.0</ele><time>2026-04-26T09:00:11Z</time></trkpt><trkpt lat="45.91701182561199" lon="12.240515545220667"><ele>226.0</ele><time>2026-04-26T09:00:12Z</time></trkpt><trkpt lat="45.916989413943675" lon="12.240304911502914"><ele>226.0</ele><time>2026-04-26T09:00:13Z</time></trkpt><trkpt lat="45.916968490211886" lon="12.24009938310989"><ele>226.0</ele><time>2026-04-26T09:00:14Z</time></trkpt><trkpt lat="45.91694584891258" lon="12.239892133509125"><ele>226.0</ele><time>2026-04-26T09:00:15Z</time></trkpt><trkpt lat="45.91691908533647" lon="12.239693118345672"><ele>225.66666666666666</ele><time>2026-04-26T09:00:16Z</time></trkpt><trkpt lat="45.91689420547727" lon="12.239482621228401"><ele>225.33333333333331</ele><time>2026-04-26T09:00:17Z</time></trkpt><trkpt lat="45.91687224148636" lon="12.239268230936831"><ele>225.0</ele><time>2026-04-26T09:00:18Z</time></trkpt><trkpt lat="45.916848607406635" lon="12.239052933494222"><ele>225.75</ele><time>2026-04-26T09:00:19Z</time></trkpt><trkpt lat="45.916828495901" lon="12.238841311206924"><ele>226.5</ele><time>2026-04-26T09:00:20Z</time></trkpt><trkpt lat="45.91681118127793" lon="12.238648994656375"><ele>227.25</ele><time>2026-04-26T09:00:21Z</time></trkpt><trkpt lat="45.91679262973107" lon="12.238462003098139"><ele>228.0</ele><time>2026-04-26T09:00:22Z</time></trkpt><trkpt lat="45.91677402598114" lon="12.23827108207341"><ele>228.25</ele><time>2026-04-26T09:00:23Z</time></trkpt><trkpt lat="45.91675422404215" lon="12.238083817904224"><ele>228.5</ele><time>2026-04-26T09:00:24Z</time></trkpt><trkpt lat="45.91673572121591" lon="12.237917171124742"><ele>228.75</ele><time>2026-04-26T09:00:25Z</time></trkpt><trkpt lat="45.91671757623518" lon="12.237763943217704"><ele>229.0</ele><time>2026-04-26T09:00:26Z</time></trkpt><trkpt lat="45.91670351246403" lon="12.237622211745393"><ele>228.99999999999997</ele><time>2026-04-26T09:00:27Z</time></trkpt><trkpt lat="45.91669260168289" lon="12.2374889501936"><ele>229.0</ele><time>2026-04-26T09:00:28Z</time></trkpt><trkpt lat="45.91667966189582" lon="12.237375417967685"><ele>229.0</ele><time>2026-04-26T09:00:29Z</time></trkpt><trkpt lat="45.916671094568926" lon="12.237282865664204"><ele>229.0</ele><time>2026-04-26T09:00:30Z</time></trkpt><trkpt lat="45.916675258187944" lon="12.237122638185914"><ele>228.99999999999997</ele><time>2026-04-26T09:00:32Z</time></trkpt><trkpt lat="45.91670670352969" lon="12.237034698278128"><ele>229.0</ele><time>2026-04-26T09:00:34Z</time></trkpt><trkpt lat="45.916824080444286" lon="12.237013222768383"><ele>228.79999999999998</ele><time>2026-04-26T09:00:37Z</time></trkpt><trkpt lat="45.91689210235717" lon="12.237021020533696"><ele>228.59999999999997</ele><time>2026-04-26T09:00:38Z</time></trkpt><trkpt lat="45.916978672873476" lon="12.23703094463709"><ele>228.4</ele><time>2026-04-26T09:00:39Z</time></trkpt><trkpt lat="45.917082735151155" lon="12.237021402267139"><ele>228.2</ele><time>2026-04-26T09:00:40Z</time></trkpt><trkpt lat="45.91719898191432" lon="12.23706148262851"><ele>228.0</ele><time>2026-04-26T09:00:41Z</time></trkpt><trkpt lat="45.91732528607487" lon="12.237080394661946"><ele>228.0</ele><time>2026-04-26T09:00:42Z</time></trkpt><trkpt lat="45.91746248765429" lon="12.237101201644569"><ele>228.0</ele><time>2026-04-26T09:00:43Z</time></trkpt><trkpt lat="45.917613279613484" lon="12.237124817917826"><ele>228.0</ele><time>2026-04-26T09:00:44Z</time></trkpt><trkpt lat="45.917770637221146" lon="12.237149462466565"><ele>228.0</ele><time>2026-04-26T09:00:45Z</time></trkpt><trkpt lat="45.91793672468335" lon="12.237152288723557"><ele>228.33333333333331</ele><time>2026-04-26T09:00:46Z</time></trkpt><trkpt lat="45.918101854394486" lon="12.237185467904995"><ele>228.66666666666666</ele><time>2026-04-26T09:00:47Z</time></trkpt><trkpt lat="45.918270510357715" lon="12.2372171339848"><ele>229.0</ele><time>2026-04-26T09:00:48Z</time></trkpt><trkpt lat="45.91844463717522" lon="12.23724063677627"><ele>231.33333333333331</ele><time>2026-04-26T09:00:49Z</time></trkpt><trkpt lat="45.91862035190602" lon="12.237266658137104"><ele>233.66666666666669</ele><time>2026-04-26T09:00:50Z</time></trkpt><trkpt lat="45.91880184943476" lon="12.237290314143076"><ele>236.0</ele><time>2026-04-26T09:00:51Z</time></trkpt><trkpt lat="45.918987652074016" lon="12.2373194654969"><ele>236.0</ele><time>2026-04-26T09:00:52Z</time></trkpt><trkpt lat="45.919174910013375" lon="12.23734548779505"><ele>236.0</ele><time>2026-04-26T09:00:53Z</time></trkpt><trkpt lat="45.91936489391747" lon="12.237373264514822"><ele>236.0</ele><time>2026-04-26T09:00:54Z</time></trkpt><trkpt lat="45.91955696560119" lon="12.237405285542687"><ele>236.33333333333334</ele><time>2026-04-26T09:00:55Z</time></trkpt><trkpt lat="45.919745139826894" lon="12.237437229473908"><ele>236.66666666666669</ele><time>2026-04-26T09:00:56Z</time></trkpt><trkpt lat="45.91991578288633" lon="12.237476247018188"><ele>237.0</ele><time>2026-04-26T09:00:57Z</time></trkpt><trkpt lat="45.92007974214" lon="12.237522175368255"><ele>236.0</ele><time>2026-04-26T09:00:58Z</time></trkpt><trkpt lat="45.920241339195016" lon="12.237594811983328"><ele>235.0</ele><time>2026-04-26T09:00:59Z</time></trkpt><trkpt lat="45.920396484331405" lon="12.237698933501985"><ele>234.0</ele><time>2026-04-26T09:01:00Z</time></trkpt><trkpt lat="45.92054497147699" lon="12.237830365456224"><ele>234.0</ele><time>2026-04-26T09:01:01Z</time></trkpt><trkpt lat="45.92068540596292" lon="12.237980249372342"><ele>234.0</ele><time>2026-04-26T09:01:02Z</time></trkpt><trkpt lat="45.92082473625231" lon="12.238133061278969"><ele>234.0</ele><time>2026-04-26T09:01:03Z</time></trkpt><trkpt lat="45.920962886292905" lon="12.238293680233113"><ele>234.33333333333331</ele><time>2026-04-26T09:01:04Z</time></trkpt><trkpt lat="45.92110219854806" lon="12.238459371845682"><ele>234.66666666666666</ele><time>2026-04-26T09:01:05Z</time></trkpt><trkpt lat="45.921245024780355" lon="12.238621380537328"><ele>235.0</ele><time>2026-04-26T09:01:06Z</time></trkpt><trkpt lat="45.92139145189966" lon="12.238786680327788"><ele>236.0</ele><time>2026-04-26T09:01:07Z</time></trkpt><trkpt lat="45.92153228745809" lon="12.238968758489111"><ele>237.0</ele><time>2026-04-26T09:01:08Z</time></trkpt><trkpt lat="45.921670592474655" lon="12.239146354751734"><ele>238.0</ele><time>2026-04-26T09:01:09Z</time></trkpt><trkpt lat="45.921797953055375" lon="12.239304968604161"><ele>238.0</ele><time>2026-04-26T09:01:10Z</time></trkpt><trkpt lat="45.921920541860636" lon="12.239447423568329"><ele>238.0</ele><time>2026-04-26T09:01:11Z</time></trkpt><trkpt lat="45.92203260788208" lon="12.239584232513165"><ele>238.0</ele><time>2026-04-26T09:01:12Z</time></trkpt><trkpt lat="45.922148681593235" lon="12.239706010273935"><ele>238.0</ele><time>2026-04-26T09:01:13Z</time></trkpt><trkpt lat="45.922278956095134" lon="12.239808849752722"><ele>239.33333333333331</ele><time>2026-04-26T09:01:14Z</time></trkpt><trkpt lat="45.922419363747345" lon="12.239887782569294"><ele>240.66666666666669</ele><time>2026-04-26T09:01:15Z</time></trkpt><trkpt lat="45.92256632929958" lon="12.239938124957291"><ele>242.0</ele><time>2026-04-26T09:01:16Z</time></trkpt><trkpt lat="45.92272106439995" lon="12.239954017313723"><ele>243.0</ele><time>2026-04-26T09:01:17Z</time></trkpt><trkpt lat="45.92287851449466" lon="12.239942639112668"><ele>244.0</ele><time>2026-04-26T09:01:18Z</time></trkpt><trkpt lat="45.92303772076546" lon="12.239916252295862"><ele>245.0</ele><time>2026-04-26T09:01:19Z</time></trkpt><trkpt lat="45.92319971734533" lon="12.239891184432597"><ele>245.0</ele><time>2026-04-26T09:01:20Z</time></trkpt><trkpt lat="45.92336216267598" lon="12.239868013368714"><ele>245.0</ele><time>2026-04-26T09:01:21Z</time></trkpt><trkpt lat="45.92353021319622" lon="12.239861261479424"><ele>245.0</ele><time>2026-04-26T09:01:22Z</time></trkpt><trkpt lat="45.92369985470179" lon="12.239808886363106"><ele>242.66666666666669</ele><time>2026-04-26T09:01:23Z</time></trkpt><trkpt lat="45.92387381757398" lon="12.23978429291139"><ele>240.33333333333331</ele><time>2026-04-26T09:01:24Z</time></trkpt><trkpt lat="45.92405239070039" lon="12.239764548987173"><ele>238.0</ele><time>2026-04-26T09:01:25Z</time></trkpt><trkpt lat="45.92423232811669" lon="12.239752493053675"><ele>238.0</ele><time>2026-04-26T09:01:26Z</time></trkpt><trkpt lat="45.92441755503495" lon="12.239757305640493"><ele>238.0</ele><time>2026-04-26T09:01:27Z</time></trkpt><trkpt lat="45.92459952416077" lon="12.239777534137318"><ele>238.0</ele><time>2026-04-26T09:01:28Z</time></trkpt><trkpt lat="45.92478446375759" lon="12.239803896356866"><ele>241.0</ele><time>2026-04-26T09:01:29Z</time></trkpt><trkpt lat="45.92497061487031" lon="12.239856210702314"><ele>244.0</ele><time>2026-04-26T09:01:30Z</time></trkpt><trkpt lat="45.92516273312816" lon="12.239871920307204"><ele>247.0</ele><time>2026-04-26T09:01:31Z</time></trkpt><trkpt lat="45.925349037768214" lon="12.239909894087402"><ele>247.0</ele><time>2026-04-26T09:01:32Z</time></trkpt><trkpt lat="45.92553844561988" lon="12.239946117799645"><ele>247.0</ele><time>2026-04-26T09:01:33Z</time></trkpt><trkpt lat="45.92573242604874" lon="12.23996393324515"><ele>247.0</ele><time>2026-04-26T09:01:34Z</time></trkpt><trkpt lat="45.925926520133245" lon="12.239958035440393"><ele>248.33333333333331</ele><time>2026-04-26T09:01:35Z</time></trkpt><trkpt lat="45.92612214306771" lon="12.239934108177238"><ele>249.66666666666669</ele><time>2026-04-26T09:01:36Z</time></trkpt><trkpt lat="45.926312814772125" lon="12.239883210247514"><ele>251.0</ele><time>2026-04-26T09:01:37Z</time></trkpt><trkpt lat="45.92649972609832" lon="12.239807779494095"><ele>252.0</ele><time>2026-04-26T09:01:38Z</time></trkpt><trkpt lat="45.926682106339804" lon="12.239709057650147"><ele>253.0</ele><time>2026-04-26T09:01:39Z</time></trkpt><trkpt lat="45.92687114413205" lon="12.239630947343473"><ele>254.0</ele><time>2026-04-26T09:01:40Z</time></trkpt><trkpt lat="45.9270483890943" lon="12.239531389229224"><ele>254.0</ele><time>2026-04-26T09:01:41Z</time></trkpt><trkpt lat="45.92720914379953" lon="12.239437396091509"><ele>254.0</ele><time>2026-04-26T09:01:42Z</time></trkpt><trkpt lat="45.92735660013686" lon="12.239339349703434"><ele>254.0</ele><time>2026-04-26T09:01:43Z</time></trkpt><trkpt lat="45.92749689105761" lon="12.239262303701777"><ele>255.25</ele><time>2026-04-26T09:01:44Z</time></trkpt><trkpt lat="45.927627127797244" lon="12.239186835513843"><ele>256.5</ele><time>2026-04-26T09:01:45Z</time></trkpt><trkpt lat="45.92775072923532" lon="12.239118264550486"><ele>257.75</ele><time>2026-04-26T09:01:46Z</time></trkpt><trkpt lat="45.92787254168719" lon="12.239050963009259"><ele>259.0</ele><time>2026-04-26T09:01:47Z</time></trkpt><trkpt lat="45.92799160926364" lon="12.238987290315055"><ele>258.5</ele><time>2026-04-26T09:01:48Z</time></trkpt><trkpt lat="45.928109386655535" lon="12.238922426402821"><ele>258.0</ele><time>2026-04-26T09:01:49Z</time></trkpt><trkpt lat="45.928220018831155" lon="12.238861351892961"><ele>257.5</ele><time>2026-04-26T09:01:50Z</time></trkpt><trkpt lat="45.92833548820533" lon="12.238807490788455"><ele>257.0</ele><time>2026-04-26T09:01:51Z</time></trkpt><trkpt lat="45.92844939274977" lon="12.238764195254939"><ele>257.0</ele><time>2026-04-26T09:01:52Z</time></trkpt><trkpt lat="45.928555227458105" lon="12.238721893203454"><ele>257.0</ele><time>2026-04-26T09:01:53Z</time></trkpt><trkpt lat="45.928655811351256" lon="12.238689043306268"><ele>257.0</ele><time>2026-04-26T09:01:54Z</time></trkpt><trkpt lat="45.928751734875064" lon="12.238665554266463"><ele>257.0</ele><time>2026-04-26T09:01:55Z</time></trkpt><trkpt lat="45.92884244438201" lon="12.238645239613541"><ele>257.0</ele><time>2026-04-26T09:01:56Z</time></trkpt><trkpt lat="45.92892786816615" lon="12.23862306664859"><ele>257.0</ele><time>2026-04-26T09:01:57Z</time></trkpt><trkpt lat="45.92901212377431" lon="12.238591904834333"><ele>257.0</ele><time>2026-04-26T09:01:58Z</time></trkpt><trkpt lat="45.9290956473933" lon="12.23855801751107"><ele>257.0</ele><time>2026-04-26T09:01:59Z</time></trkpt><trkpt lat="45.929168625100324" lon="12.238516734822893"><ele>257.0</ele><time>2026-04-26T09:02:00Z</time></trkpt><trkpt lat="45.92922821116807" lon="12.238471375722476"><ele>257.0</ele><time>2026-04-26T09:02:01Z</time></trkpt><trkpt lat="45.929324233179926" lon="12.238375796200616"><ele>257.0</ele><time>2026-04-26T09:02:03Z</time></trkpt><trkpt lat="45.92942545836184" lon="12.238272198168039"><ele>257.4</ele><time>2026-04-26T09:02:05Z</time></trkpt><trkpt lat="45.929495107838406" lon="12.238234577682539"><ele>257.79999999999995</ele><time>2026-04-26T09:02:06Z</time></trkpt><trkpt lat="45.929552831465266" lon="12.238111621755776"><ele>258.2</ele><time>2026-04-26T09:02:07Z</time></trkpt><trkpt lat="45.929615255866416" lon="12.238005659520615"><ele>258.59999999999997</ele><time>2026-04-26T09:02:08Z</time></trkpt><trkpt lat="45.92968526865244" lon="12.237886816386213"><ele>259.0</ele><time>2026-04-26T09:02:09Z</time></trkpt><trkpt lat="45.929761817508876" lon="12.237757938307794"><ele>259.2</ele><time>2026-04-26T09:02:10Z</time></trkpt><trkpt lat="45.92983941943737" lon="12.23762805519968"><ele>259.4</ele><time>2026-04-26T09:02:11Z</time></trkpt><trkpt lat="45.92990841735909" lon="12.237512572822787"><ele>259.6</ele><time>2026-04-26T09:02:12Z</time></trkpt><trkpt lat="45.929972956442185" lon="12.237404553808616"><ele>259.8</ele><time>2026-04-26T09:02:13Z</time></trkpt><trkpt lat="45.93003282007699" lon="12.237301559253902"><ele>260.0</ele><time>2026-04-26T09:02:14Z</time></trkpt><trkpt lat="45.93008221636157" lon="12.237191452214434"><ele>260.0</ele><time>2026-04-26T09:02:15Z</time></trkpt><trkpt lat="45.930143927730846" lon="12.237100471637024"><ele>260.0</ele><time>2026-04-26T09:02:16Z</time></trkpt><trkpt lat="45.93020544004343" lon="12.237010397285568"><ele>260.0</ele><time>2026-04-26T09:02:17Z</time></trkpt><trkpt lat="45.93026569602454" lon="12.236923259509293"><ele>260.0</ele><time>2026-04-26T09:02:18Z</time></trkpt><trkpt lat="45.930336911807075" lon="12.236852695934394"><ele>260.0</ele><time>2026-04-26T09:02:19Z</time></trkpt><trkpt lat="45.93041655314405" lon="12.236789743327867"><ele>260.0</ele><time>2026-04-26T09:02:20Z</time></trkpt><trkpt lat="45.930491716261365" lon="12.236729103475412"><ele>260.0</ele><time>2026-04-26T09:02:21Z</time></trkpt><trkpt lat="45.930568840222506" lon="12.236672031873088"><ele>260.0</ele><time>2026-04-26T09:02:22Z</time></trkpt><trkpt lat="45.93064312039496" lon="12.236616227576919"><ele>260.0</ele><time>2026-04-26T09:02:23Z</time></trkpt><trkpt lat="45.930718535506415" lon="12.23655397159373"><ele>260.0</ele><time>2026-04-26T09:02:24Z</time></trkpt><trkpt lat="45.930799381352884" lon="12.236485610526062"><ele>260.0</ele><time>2026-04-26T09:02:25Z</time></trkpt><trkpt lat="45.930888210748435" lon="12.236424409574624"><ele>259.0</ele><time>2026-04-26T09:02:26Z</time></trkpt><trkpt lat="45.93097981473944" lon="12.236352854608395"><ele>258.0</ele><time>2026-04-26T09:02:27Z</time></trkpt><trkpt lat="45.931071729310744" lon="12.236281903624402"><ele>257.0</ele><time>2026-04-26T09:02:28Z</time></trkpt><trkpt lat="45.93116081451625" lon="12.236214470067702"><ele>256.0</ele><time>2026-04-26T09:02:29Z</time></trkpt><trkpt lat="45.93125551560221" lon="12.236151813033109"><ele>255.0</ele><time>2026-04-26T09:02:30Z</time></trkpt><trkpt lat="45.9313462828151" lon="12.23608464382083"><ele>255.0</ele><time>2026-04-26T09:02:31Z</time></trkpt><trkpt lat="45.931441495765554" lon="12.236027499613469"><ele>255.0</ele><time>2026-04-26T09:02:32Z</time></trkpt><trkpt lat="45.93154383688265" lon="12.235986569582574"><ele>255.0</ele><time>2026-04-26T09:02:33Z</time></trkpt><trkpt lat="45.931650007740366" lon="12.23596135423219"><ele>255.0</ele><time>2026-04-26T09:02:34Z</time></trkpt><trkpt lat="45.931757029923446" lon="12.235946512477623"><ele>255.0</ele><time>2026-04-26T09:02:35Z</time></trkpt><trkpt lat="45.931865788427054" lon="12.235940338130202"><ele>254.4</ele><time>2026-04-26T09:02:36Z</time></trkpt><trkpt lat="45.931977157738274" lon="12.235941347394805"><ele>253.8</ele><time>2026-04-26T09:02:37Z</time></trkpt><trkpt lat="45.932086463168226" lon="12.235941121387555"><ele>253.2</ele><time>2026-04-26T09:02:38Z</time></trkpt><trkpt lat="45.93219669948734" lon="12.235939152590703"><ele>252.6</ele><time>2026-04-26T09:02:39Z</time></trkpt><trkpt lat="45.93230009663406" lon="12.235929138503067"><ele>252.0</ele><time>2026-04-26T09:02:40Z</time></trkpt><trkpt lat="45.9324065403184" lon="12.235929813110788"><ele>252.0</ele><time>2026-04-26T09:02:41Z</time></trkpt><trkpt lat="45.9325085758155" lon="12.235911356958042"><ele>252.0</ele><time>2026-04-26T09:02:42Z</time></trkpt><trkpt lat="45.93261469932609" lon="12.235904792819953"><ele>252.0</ele><time>2026-04-26T09:02:43Z</time></trkpt><trkpt lat="45.93272147500114" lon="12.235861785984845"><ele>252.0</ele><time>2026-04-26T09:02:44Z</time></trkpt><trkpt lat="45.9328252503861" lon="12.235788996603887"><ele>252.0</ele><time>2026-04-26T09:02:45Z</time></trkpt><trkpt lat="45.9329181815112" lon="12.23569096597086"><ele>248.25</ele><time>2026-04-26T09:02:46Z</time></trkpt><trkpt lat="45.93300397161945" lon="12.235568249567745"><ele>244.5</ele><time>2026-04-26T09:02:47Z</time></trkpt><trkpt lat="45.9330754879629" lon="12.235425842134713"><ele>240.75</ele><time>2026-04-26T09:02:48Z</time></trkpt><trkpt lat="45.93313096433513" lon="12.235259318567703"><ele>237.0</ele><time>2026-04-26T09:02:49Z</time></trkpt><trkpt lat="45.93317312441941" lon="12.23507405582773"><ele>237.0</ele><time>2026-04-26T09:02:50Z</time></trkpt><trkpt lat="45.93319185537236" lon="12.234856059477963"><ele>237.0</ele><time>2026-04-26T09:02:51Z</time></trkpt><trkpt lat="45.933199040286944" lon="12.234631999544234"><ele>237.0</ele><time>2026-04-26T09:02:52Z</time></trkpt><trkpt lat="45.933207037843964" lon="12.23439694833259"><ele>234.66666666666669</ele><time>2026-04-26T09:02:53Z</time></trkpt><trkpt lat="45.933216089700814" lon="12.234168301066147"><ele>232.33333333333334</ele><time>2026-04-26T09:02:54Z</time></trkpt><trkpt lat="45.933224576481535" lon="12.233944684082488"><ele>230.0</ele><time>2026-04-26T09:02:55Z</time></trkpt><trkpt lat="45.93323392052921" lon="12.23371843396347"><ele>228.66666666666669</ele><time>2026-04-26T09:02:56Z</time></trkpt><trkpt lat="45.933243097947305" lon="12.23349265658709"><ele>227.33333333333331</ele><time>2026-04-26T09:02:57Z</time></trkpt><trkpt lat="45.93325257489299" lon="12.233269479543951"><ele>226.0</ele><time>2026-04-26T09:02:58Z</time></trkpt><trkpt lat="45.933261511035695" lon="12.233048806827043"><ele>225.0</ele><time>2026-04-26T09:02:59Z</time></trkpt><trkpt lat="45.93327152718763" lon="12.232829075943664"><ele>224.0</ele><time>2026-04-26T09:03:00Z</time></trkpt><trkpt lat="45.9332826642134" lon="12.232611271810148"><ele>223.0</ele><time>2026-04-26T09:03:01Z</time></trkpt><trkpt lat="45.9332939807895" lon="12.232393551007728"><ele>222.0</ele><time>2026-04-26T09:03:02Z</time></trkpt><trkpt lat="45.93330480230663" lon="12.232175441979088"><ele>221.0</ele><time>2026-04-26T09:03:03Z</time></trkpt><trkpt lat="45.93331458673299" lon="12.231956279657688"><ele>220.0</ele><time>2026-04-26T09:03:04Z</time></trkpt><trkpt lat="45.93332722949972" lon="12.231737166257465"><ele>220.0</ele><time>2026-04-26T09:03:05Z</time></trkpt><trkpt lat="45.93333508384671" lon="12.231519565591912"><ele>220.0</ele><time>2026-04-26T09:03:06Z</time></trkpt><trkpt lat="45.9333441852922" lon="12.231306969979816"><ele>220.0</ele><time>2026-04-26T09:03:07Z</time></trkpt><trkpt lat="45.93335359271451" lon="12.231099373157507"><ele>220.0</ele><time>2026-04-26T09:03:08Z</time></trkpt><trkpt lat="45.93336319265237" lon="12.230899814914624"><ele>219.5</ele><time>2026-04-26T09:03:09Z</time></trkpt><trkpt lat="45.93337081270031" lon="12.23070157539926"><ele>219.0</ele><time>2026-04-26T09:03:10Z</time></trkpt><trkpt lat="45.93337939143399" lon="12.230504435385992"><ele>218.5</ele><time>2026-04-26T09:03:11Z</time></trkpt><trkpt lat="45.93338556143327" lon="12.230307381860744"><ele>218.0</ele><time>2026-04-26T09:03:12Z</time></trkpt><trkpt lat="45.93339215157578" lon="12.230121019219697"><ele>216.60000000000002</ele><time>2026-04-26T09:03:13Z</time></trkpt><trkpt lat="45.93339858909598" lon="12.229947256348423"><ele>215.20000000000002</ele><time>2026-04-26T09:03:14Z</time></trkpt><trkpt lat="45.93340981724981" lon="12.229795512079619"><ele>213.8</ele><time>2026-04-26T09:03:15Z</time></trkpt><trkpt lat="45.93341571291021" lon="12.229655041158038"><ele>212.4</ele><time>2026-04-26T09:03:16Z</time></trkpt><trkpt lat="45.93341989180511" lon="12.229537823809128"><ele>211.0</ele><time>2026-04-26T09:03:17Z</time></trkpt><trkpt lat="45.933424096034436" lon="12.229436066579655"><ele>210.83333333333331</ele><time>2026-04-26T09:03:18Z</time></trkpt><trkpt lat="45.9334270095626" lon="12.229344555870094"><ele>210.66666666666666</ele><time>2026-04-26T09:03:19Z</time></trkpt><trkpt lat="45.9334424317796" lon="12.229204268842556"><ele>210.5</ele><time>2026-04-26T09:03:21Z</time></trkpt><trkpt lat="45.93348276490855" lon="12.229103105209902"><ele>210.33333333333331</ele><time>2026-04-26T09:03:23Z</time></trkpt><trkpt lat="45.93353287189003" lon="12.229045461321103"><ele>210.16666666666666</ele><time>2026-04-26T09:03:25Z</time></trkpt><trkpt lat="45.93360672718514" lon="12.228977363298844"><ele>210.0</ele><time>2026-04-26T09:03:38Z</time></trkpt><trkpt lat="45.93363901772867" lon="12.228886873111602"><ele>210.5</ele><time>2026-04-26T09:03:41Z</time></trkpt><trkpt lat="45.93358388316715" lon="12.22881295534992"><ele>211.0</ele><time>2026-04-26T09:03:43Z</time></trkpt><trkpt lat="45.93353090197317" lon="12.228756321627968"><ele>211.5</ele><time>2026-04-26T09:03:55Z</time></trkpt><trkpt lat="45.93346476523428" lon="12.228654813915528"><ele>212.0</ele><time>2026-04-26T09:03:58Z</time></trkpt><trkpt lat="45.9334566587638" lon="12.228533307478376"><ele>212.5</ele><time>2026-04-26T09:04:00Z</time></trkpt><trkpt lat="45.93348312761147" lon="12.228379081608958"><ele>213.0</ele><time>2026-04-26T09:04:02Z</time></trkpt><trkpt lat="45.933487278872434" lon="12.228280825889906"><ele>213.0</ele><time>2026-04-26T09:04:03Z</time></trkpt><trkpt lat="45.9334787934663" lon="12.22816887954534"><ele>213.0</ele><time>2026-04-26T09:04:04Z</time></trkpt><trkpt lat="45.93348888619962" lon="12.22805126986514"><ele>213.0</ele><time>2026-04-26T09:04:05Z</time></trkpt><trkpt lat="45.93350026193281" lon="12.22792738013984"><ele>213.0</ele><time>2026-04-26T09:04:06Z</time></trkpt><trkpt lat="45.933517823587316" lon="12.22779193218395"><ele>213.0</ele><time>2026-04-26T09:04:07Z</time></trkpt><trkpt lat="45.93353973458242" lon="12.227646212561835"><ele>213.0</ele><time>2026-04-26T09:04:08Z</time></trkpt><trkpt lat="45.93356391741503" lon="12.227496899615844"><ele>213.75</ele><time>2026-04-26T09:04:09Z</time></trkpt><trkpt lat="45.93359244128565" lon="12.227338596255803"><ele>214.5</ele><time>2026-04-26T09:04:10Z</time></trkpt><trkpt lat="45.93362297777644" lon="12.22716983931876"><ele>215.25</ele><time>2026-04-26T09:04:11Z</time></trkpt><trkpt lat="45.93365444440583" lon="12.226993403208818"><ele>216.0</ele><time>2026-04-26T09:04:12Z</time></trkpt><trkpt lat="45.933687291313944" lon="12.226809705744868"><ele>216.0</ele><time>2026-04-26T09:04:13Z</time></trkpt><trkpt lat="45.9337166730202" lon="12.226616382201179"><ele>216.0</ele><time>2026-04-26T09:04:14Z</time></trkpt><trkpt lat="45.93376176995624" lon="12.226421152558466"><ele>216.0</ele><time>2026-04-26T09:04:15Z</time></trkpt><trkpt lat="45.933795077959466" lon="12.226220788958722"><ele>216.0</ele><time>2026-04-26T09:04:16Z</time></trkpt><trkpt lat="45.93382739195576" lon="12.226020321083745"><ele>216.0</ele><time>2026-04-26T09:04:17Z</time></trkpt><trkpt lat="45.93383599446014" lon="12.225815343326598"><ele>216.0</ele><time>2026-04-26T09:04:18Z</time></trkpt><trkpt lat="45.93384409365507" lon="12.22562406769406"><ele>216.0</ele><time>2026-04-26T09:04:19Z</time></trkpt><trkpt lat="45.93383255767565" lon="12.225433644676631"><ele>216.0</ele><time>2026-04-26T09:04:20Z</time></trkpt><trkpt lat="45.93379673877138" lon="12.22524345138363"><ele>216.0</ele><time>2026-04-26T09:04:21Z</time></trkpt><trkpt lat="45.93374507709059" lon="12.225060489534902"><ele>216.0</ele><time>2026-04-26T09:04:22Z</time></trkpt><trkpt lat="45.93367607334582" lon="12.224883650426086"><ele>216.0</ele><time>2026-04-26T09:04:23Z</time></trkpt><trkpt lat="45.93359288015969" lon="12.224718454026336"><ele>216.0</ele><time>2026-04-26T09:04:24Z</time></trkpt><trkpt lat="45.93349338986112" lon="12.224578556461092"><ele>219.5</ele><time>2026-04-26T09:04:25Z</time></trkpt><trkpt lat="45.9333837621119" lon="12.224458285149758"><ele>223.0</ele><time>2026-04-26T09:04:26Z</time></trkpt><trkpt lat="45.93326436426364" lon="12.224358122331205"><ele>226.5</ele><time>2026-04-26T09:04:27Z</time></trkpt><trkpt lat="45.93313874688074" lon="12.224276204548259"><ele>230.0</ele><time>2026-04-26T09:04:28Z</time></trkpt><trkpt lat="45.93301169821952" lon="12.224206415977442"><ele>230.0</ele><time>2026-04-26T09:04:29Z</time></trkpt><trkpt lat="45.93288371511799" lon="12.224140707311276"><ele>230.0</ele><time>2026-04-26T09:04:30Z</time></trkpt><trkpt lat="45.93276082522325" lon="12.22407135882095"><ele>230.0</ele><time>2026-04-26T09:04:31Z</time></trkpt><trkpt lat="45.93264917666956" lon="12.224012833532719"><ele>230.0</ele><time>2026-04-26T09:04:32Z</time></trkpt><trkpt lat="45.93254977363444" lon="12.223960790515829"><ele>234.5</ele><time>2026-04-26T09:04:33Z</time></trkpt><trkpt lat="45.93244490907963" lon="12.223922566099645"><ele>239.0</ele><time>2026-04-26T09:04:34Z</time></trkpt><trkpt lat="45.93233026982394" lon="12.223903537070663"><ele>243.5</ele><time>2026-04-26T09:04:35Z</time></trkpt><trkpt lat="45.93220779328491" lon="12.223900689076729"><ele>248.0</ele><time>2026-04-26T09:04:36Z</time></trkpt><trkpt lat="45.93209152860818" lon="12.223885715782957"><ele>248.0</ele><time>2026-04-26T09:04:37Z</time></trkpt><trkpt lat="45.93198338579771" lon="12.223854069905391"><ele>248.0</ele><time>2026-04-26T09:04:38Z</time></trkpt><trkpt lat="45.9318757384721" lon="12.22380124028295"><ele>248.0</ele><time>2026-04-26T09:04:39Z</time></trkpt><trkpt lat="45.93176759702872" lon="12.223736005928638"><ele>248.0</ele><time>2026-04-26T09:04:40Z</time></trkpt><trkpt lat="45.931670488121085" lon="12.22367171151784"><ele>248.0</ele><time>2026-04-26T09:04:41Z</time></trkpt><trkpt lat="45.931578644513465" lon="12.223611176838725"><ele>247.4</ele><time>2026-04-26T09:04:42Z</time></trkpt><trkpt lat="45.93148891629924" lon="12.22353918488568"><ele>246.8</ele><time>2026-04-26T09:04:43Z</time></trkpt><trkpt lat="45.93140971056384" lon="12.223444236893645"><ele>246.2</ele><time>2026-04-26T09:04:44Z</time></trkpt><trkpt lat="45.93135935731176" lon="12.223308509209154"><ele>245.6</ele><time>2026-04-26T09:04:45Z</time></trkpt><trkpt lat="45.93129747947555" lon="12.223176354488986"><ele>245.0</ele><time>2026-04-26T09:04:46Z</time></trkpt><trkpt lat="45.93124835570645" lon="12.223015995678468"><ele>248.0</ele><time>2026-04-26T09:04:47Z</time></trkpt><trkpt lat="45.931182065256166" lon="12.222861382776347"><ele>251.0</ele><time>2026-04-26T09:04:48Z</time></trkpt><trkpt lat="45.93109989431336" lon="12.222706102533529"><ele>254.0</ele><time>2026-04-26T09:04:49Z</time></trkpt><trkpt lat="45.93100603033117" lon="12.222544538883735"><ele>257.0</ele><time>2026-04-26T09:04:50Z</time></trkpt><trkpt lat="45.93091465765839" lon="12.222379753495874"><ele>256.33333333333337</ele><time>2026-04-26T09:04:51Z</time></trkpt><trkpt lat="45.930822442540624" lon="12.22221066674805"><ele>255.66666666666669</ele><time>2026-04-26T09:04:52Z</time></trkpt><trkpt lat="45.93072588793097" lon="12.222035620268967"><ele>255.0</ele><time>2026-04-26T09:04:53Z</time></trkpt><trkpt lat="45.93062894333972" lon="12.221858656612262"><ele>255.0</ele><time>2026-04-26T09:04:54Z</time></trkpt><trkpt lat="45.93053074277958" lon="12.221675974336952"><ele>255.0</ele><time>2026-04-26T09:04:55Z</time></trkpt><trkpt lat="45.93042768445284" lon="12.221493847763213"><ele>255.0</ele><time>2026-04-26T09:04:56Z</time></trkpt><trkpt lat="45.9303218881669" lon="12.22131007005363"><ele>251.33333333333331</ele><time>2026-04-26T09:04:57Z</time></trkpt><trkpt lat="45.93022050986425" lon="12.221128261011744"><ele>247.66666666666666</ele><time>2026-04-26T09:04:58Z</time></trkpt><trkpt lat="45.9301211856159" lon="12.220954149266252"><ele>244.0</ele><time>2026-04-26T09:04:59Z</time></trkpt><trkpt lat="45.930021261079695" lon="12.220781164859686"><ele>247.25</ele><time>2026-04-26T09:05:00Z</time></trkpt><trkpt lat="45.929923327562705" lon="12.220607587935605"><ele>250.5</ele><time>2026-04-26T09:05:01Z</time></trkpt><trkpt lat="45.92983062559902" lon="12.220441739016744"><ele>253.75</ele><time>2026-04-26T09:05:02Z</time></trkpt><trkpt lat="45.92974293774025" lon="12.220286914180626"><ele>257.0</ele><time>2026-04-26T09:05:03Z</time></trkpt><trkpt lat="45.929659354758826" lon="12.220138628371407"><ele>257.0</ele><time>2026-04-26T09:05:04Z</time></trkpt><trkpt lat="45.929580092751564" lon="12.220001803390351"><ele>257.0</ele><time>2026-04-26T09:05:05Z</time></trkpt><trkpt lat="45.92951444480404" lon="12.21986627384399"><ele>257.0</ele><time>2026-04-26T09:05:06Z</time></trkpt><trkpt lat="45.929458984974254" lon="12.219729157487144"><ele>257.0</ele><time>2026-04-26T09:05:07Z</time></trkpt><trkpt lat="45.92942468895397" lon="12.219582001220282"><ele>257.8</ele><time>2026-04-26T09:05:08Z</time></trkpt><trkpt lat="45.929408162262646" lon="12.219423781936175"><ele>258.6</ele><time>2026-04-26T09:05:09Z</time></trkpt><trkpt lat="45.92941567786577" lon="12.21928109596146"><ele>259.40000000000003</ele><time>2026-04-26T09:05:10Z</time></trkpt><trkpt lat="45.929435107006036" lon="12.219150657599172"><ele>260.2</ele><time>2026-04-26T09:05:11Z</time></trkpt><trkpt lat="45.929456485343266" lon="12.219030356242824"><ele>261.0</ele><time>2026-04-26T09:05:12Z</time></trkpt><trkpt lat="45.92948051446225" lon="12.218922088051997"><ele>261.0</ele><time>2026-04-26T09:05:13Z</time></trkpt><trkpt lat="45.9295074788589" lon="12.218812859344053"><ele>261.0</ele><time>2026-04-26T09:05:14Z</time></trkpt><trkpt lat="45.9295345008379" lon="12.218694154089826"><ele>261.0</ele><time>2026-04-26T09:05:15Z</time></trkpt><trkpt lat="45.92958292055197" lon="12.218582016269163"><ele>261.0</ele><time>2026-04-26T09:05:16Z</time></trkpt><trkpt lat="45.929603091058794" lon="12.218449396490396"><ele>261.0</ele><time>2026-04-26T09:05:17Z</time></trkpt><trkpt lat="45.929638919386434" lon="12.218322909591661"><ele>261.0</ele><time>2026-04-26T09:05:18Z</time></trkpt><trkpt lat="45.929676918950015" lon="12.218192977871762"><ele>260.2</ele><time>2026-04-26T09:05:19Z</time></trkpt><trkpt lat="45.92971423878936" lon="12.218062078163609"><ele>259.40000000000003</ele><time>2026-04-26T09:05:20Z</time></trkpt><trkpt lat="45.92973756529386" lon="12.217924183593965"><ele>258.6</ele><time>2026-04-26T09:05:21Z</time></trkpt><trkpt lat="45.92974753549527" lon="12.2177857137672"><ele>257.8</ele><time>2026-04-26T09:05:22Z</time></trkpt><trkpt lat="45.92974700048595" lon="12.21765197247177"><ele>257.0</ele><time>2026-04-26T09:05:23Z</time></trkpt><trkpt lat="45.92973438891397" lon="12.217522085466243"><ele>257.0</ele><time>2026-04-26T09:05:24Z</time></trkpt><trkpt lat="45.9297131551139" lon="12.217395144922317"><ele>257.0</ele><time>2026-04-26T09:05:25Z</time></trkpt><trkpt lat="45.92967889974546" lon="12.217264336440415"><ele>257.0</ele><time>2026-04-26T09:05:26Z</time></trkpt><trkpt lat="45.92962792760519" lon="12.217138137375633"><ele>257.0</ele><time>2026-04-26T09:05:27Z</time></trkpt><trkpt lat="45.92957178373808" lon="12.21702002296802"><ele>257.0</ele><time>2026-04-26T09:05:28Z</time></trkpt><trkpt lat="45.92951338318196" lon="12.216902818589551"><ele>257.2</ele><time>2026-04-26T09:05:29Z</time></trkpt><trkpt lat="45.92945423112973" lon="12.216785931996213"><ele>257.4</ele><time>2026-04-26T09:05:30Z</time></trkpt><trkpt lat="45.92939274849348" lon="12.21667213384146"><ele>257.6</ele><time>2026-04-26T09:05:31Z</time></trkpt><trkpt lat="45.92932712512031" lon="12.216565136457447"><ele>257.8</ele><time>2026-04-26T09:05:32Z</time></trkpt><trkpt lat="45.92925819231944" lon="12.216464336619453"><ele>258.0</ele><time>2026-04-26T09:05:33Z</time></trkpt><trkpt lat="45.92917416672219" lon="12.216384903110443"><ele>257.4</ele><time>2026-04-26T09:05:34Z</time></trkpt><trkpt lat="45.92908103654074" lon="12.216318161855263"><ele>256.8</ele><time>2026-04-26T09:05:35Z</time></trkpt><trkpt lat="45.92898544129182" lon="12.21625040224079"><ele>256.2</ele><time>2026-04-26T09:05:36Z</time></trkpt><trkpt lat="45.928892979008445" lon="12.216168856179086"><ele>255.6</ele><time>2026-04-26T09:05:37Z</time></trkpt><trkpt lat="45.928808256899146" lon="12.216070360091951"><ele>255.0</ele><time>2026-04-26T09:05:38Z</time></trkpt><trkpt lat="45.92873049621501" lon="12.215957407889602"><ele>255.0</ele><time>2026-04-26T09:05:39Z</time></trkpt><trkpt lat="45.928657673672994" lon="12.215839795248849"><ele>255.0</ele><time>2026-04-26T09:05:40Z</time></trkpt><trkpt lat="45.92858258714441" lon="12.215725248833081"><ele>255.0</ele><time>2026-04-26T09:05:41Z</time></trkpt><trkpt lat="45.9285032260956" lon="12.215619311632357"><ele>255.0</ele><time>2026-04-26T09:05:42Z</time></trkpt><trkpt lat="45.92843144970544" lon="12.215513196210061"><ele>255.0</ele><time>2026-04-26T09:05:43Z</time></trkpt><trkpt lat="45.92835792179775" lon="12.2154047771922"><ele>252.4</ele><time>2026-04-26T09:05:44Z</time></trkpt><trkpt lat="45.928288512114385" lon="12.215294236620945"><ele>249.8</ele><time>2026-04-26T09:05:45Z</time></trkpt><trkpt lat="45.92822096031679" lon="12.215184241796171"><ele>247.2</ele><time>2026-04-26T09:05:46Z</time></trkpt><trkpt lat="45.928169012159465" lon="12.215060784922903"><ele>244.6</ele><time>2026-04-26T09:05:47Z</time></trkpt><trkpt lat="45.92811787789477" lon="12.214937214327133"><ele>242.0</ele><time>2026-04-26T09:05:48Z</time></trkpt><trkpt lat="45.92807150393917" lon="12.214808388252669"><ele>241.8</ele><time>2026-04-26T09:05:49Z</time></trkpt><trkpt lat="45.92803388979715" lon="12.214674983331493"><ele>241.6</ele><time>2026-04-26T09:05:50Z</time></trkpt><trkpt lat="45.92800189975784" lon="12.214535538006627"><ele>241.40000000000003</ele><time>2026-04-26T09:05:51Z</time></trkpt><trkpt lat="45.927973692896295" lon="12.214396047587634"><ele>241.20000000000002</ele><time>2026-04-26T09:05:52Z</time></trkpt><trkpt lat="45.927945921445996" lon="12.21425897952846"><ele>241.0</ele><time>2026-04-26T09:05:53Z</time></trkpt><trkpt lat="45.927920889473704" lon="12.214120184986754"><ele>240.4</ele><time>2026-04-26T09:05:54Z</time></trkpt><trkpt lat="45.92789827885884" lon="12.213985066600882"><ele>239.8</ele><time>2026-04-26T09:05:55Z</time></trkpt><trkpt lat="45.92787500684909" lon="12.213851923320567"><ele>239.20000000000002</ele><time>2026-04-26T09:05:56Z</time></trkpt><trkpt lat="45.9278510025375" lon="12.213722099975739"><ele>238.60000000000002</ele><time>2026-04-26T09:05:57Z</time></trkpt><trkpt lat="45.927826070965246" lon="12.213593027709258"><ele>238.0</ele><time>2026-04-26T09:05:58Z</time></trkpt><trkpt lat="45.927797305539414" lon="12.213460839304217"><ele>238.0</ele><time>2026-04-26T09:05:59Z</time></trkpt><trkpt lat="45.92776097136345" lon="12.213332818773106"><ele>238.0</ele><time>2026-04-26T09:06:00Z</time></trkpt><trkpt lat="45.927716295895976" lon="12.21321612886411"><ele>238.0</ele><time>2026-04-26T09:06:01Z</time></trkpt><trkpt lat="45.92766903078721" lon="12.213102761194836"><ele>238.0</ele><time>2026-04-26T09:06:02Z</time></trkpt><trkpt lat="45.92761935887876" lon="12.21299818380159"><ele>238.0</ele><time>2026-04-26T09:06:03Z</time></trkpt><trkpt lat="45.92756838104987" lon="12.212901198349606"><ele>237.49999999999997</ele><time>2026-04-26T09:06:04Z</time></trkpt><trkpt lat="45.92751624274989" lon="12.212805990278842"><ele>237.0</ele><time>2026-04-26T09:06:05Z</time></trkpt><trkpt lat="45.92746479190292" lon="12.212712015754082"><ele>236.5</ele><time>2026-04-26T09:06:06Z</time></trkpt><trkpt lat="45.9274177842243" lon="12.212616763951926"><ele>236.0</ele><time>2026-04-26T09:06:07Z</time></trkpt><trkpt lat="45.92737219291559" lon="12.212520853438503"><ele>235.49999999999997</ele><time>2026-04-26T09:06:08Z</time></trkpt><trkpt lat="45.92732434771977" lon="12.212420999238134"><ele>235.0</ele><time>2026-04-26T09:06:09Z</time></trkpt><trkpt lat="45.9272720018087" lon="12.212314406420193"><ele>234.66666666666666</ele><time>2026-04-26T09:06:10Z</time></trkpt><trkpt lat="45.927224451018525" lon="12.21221256639292"><ele>234.33333333333331</ele><time>2026-04-26T09:06:11Z</time></trkpt><trkpt lat="45.92718227172362" lon="12.212108570444412"><ele>234.0</ele><time>2026-04-26T09:06:12Z</time></trkpt><trkpt lat="45.92712844391976" lon="12.212022807287347"><ele>233.66666666666669</ele><time>2026-04-26T09:06:13Z</time></trkpt><trkpt lat="45.92708013268226" lon="12.211923599459524"><ele>233.33333333333334</ele><time>2026-04-26T09:06:14Z</time></trkpt><trkpt lat="45.927034588412916" lon="12.211821550283815"><ele>233.0</ele><time>2026-04-26T09:06:15Z</time></trkpt><trkpt lat="45.926996953752145" lon="12.21171507208428"><ele>233.00000000000003</ele><time>2026-04-26T09:06:16Z</time></trkpt><trkpt lat="45.92697439140997" lon="12.211600119394259"><ele>233.0</ele><time>2026-04-26T09:06:17Z</time></trkpt><trkpt lat="45.926971064813976" lon="12.211481762299046"><ele>233.0</ele><time>2026-04-26T09:06:18Z</time></trkpt><trkpt lat="45.926976488879916" lon="12.21137166065665"><ele>233.0</ele><time>2026-04-26T09:06:19Z</time></trkpt><trkpt lat="45.92698751556532" lon="12.211257531406133"><ele>233.00000000000003</ele><time>2026-04-26T09:06:20Z</time></trkpt><trkpt lat="45.926995708015056" lon="12.211123389424381"><ele>233.0</ele><time>2026-04-26T09:06:21Z</time></trkpt><trkpt lat="45.92701882603294" lon="12.210994480301887"><ele>232.60000000000002</ele><time>2026-04-26T09:06:22Z</time></trkpt><trkpt lat="45.92707143775743" lon="12.210876456667517"><ele>232.20000000000002</ele><time>2026-04-26T09:06:23Z</time></trkpt><trkpt lat="45.92710093531829" lon="12.21074207351601"><ele>231.8</ele><time>2026-04-26T09:06:24Z</time></trkpt><trkpt lat="45.927130629002775" lon="12.210615782444327"><ele>231.4</ele><time>2026-04-26T09:06:25Z</time></trkpt><trkpt lat="45.927159804809115" lon="12.210491693972514"><ele>231.0</ele><time>2026-04-26T09:06:26Z</time></trkpt><trkpt lat="45.927186729457425" lon="12.210377180140721"><ele>230.83333333333334</ele><time>2026-04-26T09:06:27Z</time></trkpt><trkpt lat="45.92721460011621" lon="12.21025562547011"><ele>230.66666666666669</ele><time>2026-04-26T09:06:28Z</time></trkpt><trkpt lat="45.92724087236194" lon="12.210138353826238"><ele>230.5</ele><time>2026-04-26T09:06:29Z</time></trkpt><trkpt lat="45.927260729292485" lon="12.210017516006182"><ele>230.33333333333334</ele><time>2026-04-26T09:06:30Z</time></trkpt><trkpt lat="45.927261943576326" lon="12.209885438176727"><ele>230.16666666666669</ele><time>2026-04-26T09:06:31Z</time></trkpt><trkpt lat="45.92723089984283" lon="12.209762612327935"><ele>230.0</ele><time>2026-04-26T09:06:32Z</time></trkpt><trkpt lat="45.92720522768787" lon="12.209637671861822"><ele>229.0</ele><time>2026-04-26T09:06:33Z</time></trkpt><trkpt lat="45.92716298816857" lon="12.20951704961723"><ele>228.0</ele><time>2026-04-26T09:06:34Z</time></trkpt><trkpt lat="45.927104994736894" lon="12.209413380594132"><ele>227.0</ele><time>2026-04-26T09:06:35Z</time></trkpt><trkpt lat="45.92702764721561" lon="12.209333927901833"><ele>226.0</ele><time>2026-04-26T09:06:36Z</time></trkpt><trkpt lat="45.926941988620456" lon="12.209279931167783"><ele>225.0</ele><time>2026-04-26T09:06:37Z</time></trkpt><trkpt lat="45.92685072157382" lon="12.209245263369201"><ele>225.0</ele><time>2026-04-26T09:06:38Z</time></trkpt><trkpt lat="45.92675631257222" lon="12.209221575626556"><ele>225.0</ele><time>2026-04-26T09:06:39Z</time></trkpt><trkpt lat="45.92665987195305" lon="12.209206736226163"><ele>225.0</ele><time>2026-04-26T09:06:40Z</time></trkpt><trkpt lat="45.92656441213348" lon="12.209193789783496"><ele>225.0</ele><time>2026-04-26T09:06:41Z</time></trkpt><trkpt lat="45.92646760057251" lon="12.209184876587242"><ele>225.0</ele><time>2026-04-26T09:06:42Z</time></trkpt><trkpt lat="45.926367256459116" lon="12.209178926847198"><ele>224.8</ele><time>2026-04-26T09:06:43Z</time></trkpt><trkpt lat="45.926268120136996" lon="12.209175663667649"><ele>224.6</ele><time>2026-04-26T09:06:44Z</time></trkpt><trkpt lat="45.926172185305106" lon="12.20918006538649"><ele>224.39999999999998</ele><time>2026-04-26T09:06:45Z</time></trkpt><trkpt lat="45.92607518137636" lon="12.209192405499522"><ele>224.2</ele><time>2026-04-26T09:06:46Z</time></trkpt><trkpt lat="45.925982866880744" lon="12.209219062319342"><ele>224.0</ele><time>2026-04-26T09:06:47Z</time></trkpt><trkpt lat="45.925884881142885" lon="12.209246624222018"><ele>222.39999999999998</ele><time>2026-04-26T09:06:48Z</time></trkpt><trkpt lat="45.925790655509196" lon="12.20927919258955"><ele>220.79999999999998</ele><time>2026-04-26T09:06:49Z</time></trkpt><trkpt lat="45.92569437747548" lon="12.209317641785367"><ele>219.20000000000002</ele><time>2026-04-26T09:06:50Z</time></trkpt><trkpt lat="45.92560131934032" lon="12.209349982353185"><ele>217.60000000000002</ele><time>2026-04-26T09:06:51Z</time></trkpt><trkpt lat="45.92550483750233" lon="12.209369888282891"><ele>216.0</ele><time>2026-04-26T09:06:52Z</time></trkpt><trkpt lat="45.92540841957572" lon="12.209389664609422"><ele>216.0</ele><time>2026-04-26T09:06:53Z</time></trkpt><trkpt lat="45.92531060968149" lon="12.209393637220117"><ele>216.00000000000003</ele><time>2026-04-26T09:06:54Z</time></trkpt><trkpt lat="45.925213461000055" lon="12.209380201344175"><ele>216.00000000000003</ele><time>2026-04-26T09:06:55Z</time></trkpt><trkpt lat="45.9251218519672" lon="12.209340231609657"><ele>216.0</ele><time>2026-04-26T09:06:56Z</time></trkpt><trkpt lat="45.92503856852398" lon="12.209272563628485"><ele>216.0</ele><time>2026-04-26T09:06:57Z</time></trkpt><trkpt lat="45.92495606035164" lon="12.209186685347404"><ele>214.8</ele><time>2026-04-26T09:06:58Z</time></trkpt><trkpt lat="45.92488331933364" lon="12.209086693378827"><ele>213.60000000000002</ele><time>2026-04-26T09:06:59Z</time></trkpt><trkpt lat="45.924818174986434" lon="12.20897670306866"><ele>212.4</ele><time>2026-04-26T09:07:00Z</time></trkpt><trkpt lat="45.924758575129424" lon="12.208861943784498"><ele>211.2</ele><time>2026-04-26T09:07:01Z</time></trkpt><trkpt lat="45.92470877911357" lon="12.208760599222302"><ele>210.0</ele><time>2026-04-26T09:07:02Z</time></trkpt><trkpt lat="45.92464907697788" lon="12.208628674530303"><ele>209.0</ele><time>2026-04-26T09:07:04Z</time></trkpt><trkpt lat="45.9246061043749" lon="12.208528572724173"><ele>208.0</ele><time>2026-04-26T09:07:06Z</time></trkpt><trkpt lat="45.92455539815428" lon="12.208415197654302"><ele>207.0</ele><time>2026-04-26T09:07:09Z</time></trkpt><trkpt lat="45.92452050804295" lon="12.208335857697444"><ele>206.0</ele><time>2026-04-26T09:07:11Z</time></trkpt><trkpt lat="45.92446963652897" lon="12.208223568123872"><ele>205.0</ele><time>2026-04-26T09:07:13Z</time></trkpt><trkpt lat="45.9243871331479" lon="12.2080784991617"><ele>204.8</ele><time>2026-04-26T09:07:15Z</time></trkpt><trkpt lat="45.92432361523658" lon="12.207989119814528"><ele>204.6</ele><time>2026-04-26T09:07:16Z</time></trkpt><trkpt lat="45.92425161957665" lon="12.20788817019206"><ele>204.39999999999998</ele><time>2026-04-26T09:07:17Z</time></trkpt><trkpt lat="45.92418035244467" lon="12.207787358868364"><ele>204.2</ele><time>2026-04-26T09:07:18Z</time></trkpt><trkpt lat="45.924103330473585" lon="12.20768827910472"><ele>204.0</ele><time>2026-04-26T09:07:19Z</time></trkpt><trkpt lat="45.92403342127439" lon="12.20759525838988"><ele>203.39999999999998</ele><time>2026-04-26T09:07:20Z</time></trkpt><trkpt lat="45.92395903713239" lon="12.2075150741614"><ele>202.8</ele><time>2026-04-26T09:07:21Z</time></trkpt><trkpt lat="45.923888141821934" lon="12.20743398002224"><ele>202.2</ele><time>2026-04-26T09:07:22Z</time></trkpt><trkpt lat="45.923813528258044" lon="12.20736542270671"><ele>201.60000000000002</ele><time>2026-04-26T09:07:23Z</time></trkpt><trkpt lat="45.92373140989506" lon="12.207308041221342"><ele>201.0</ele><time>2026-04-26T09:07:24Z</time></trkpt><trkpt lat="45.92364285901154" lon="12.20726788294396"><ele>199.83333333333334</ele><time>2026-04-26T09:07:25Z</time></trkpt><trkpt lat="45.923555450510236" lon="12.207245440167181"><ele>198.66666666666669</ele><time>2026-04-26T09:07:26Z</time></trkpt><trkpt lat="45.92346686614349" lon="12.207217371239787"><ele>197.5</ele><time>2026-04-26T09:07:27Z</time></trkpt><trkpt lat="45.92338005483928" lon="12.207197172170245"><ele>196.33333333333334</ele><time>2026-04-26T09:07:28Z</time></trkpt><trkpt lat="45.92329457142336" lon="12.20717511684983"><ele>195.16666666666669</ele><time>2026-04-26T09:07:29Z</time></trkpt><trkpt lat="45.92320784314321" lon="12.207148416320415"><ele>194.0</ele><time>2026-04-26T09:07:30Z</time></trkpt><trkpt lat="45.92311693569373" lon="12.207127209680992"><ele>194.0</ele><time>2026-04-26T09:07:31Z</time></trkpt><trkpt lat="45.923026571136305" lon="12.207105475840264"><ele>194.0</ele><time>2026-04-26T09:07:32Z</time></trkpt><trkpt lat="45.922937024478834" lon="12.207084538579066"><ele>194.0</ele><time>2026-04-26T09:07:33Z</time></trkpt><trkpt lat="45.922850291759225" lon="12.207063320566482"><ele>194.0</ele><time>2026-04-26T09:07:34Z</time></trkpt><trkpt lat="45.92276312680391" lon="12.207033974603938"><ele>194.0</ele><time>2026-04-26T09:07:35Z</time></trkpt><trkpt lat="45.92267101230204" lon="12.207009168939658"><ele>194.0</ele><time>2026-04-26T09:07:36Z</time></trkpt><trkpt lat="45.92257188992336" lon="12.207005024849414"><ele>194.0</ele><time>2026-04-26T09:07:37Z</time></trkpt><trkpt lat="45.92247177578823" lon="12.206985827560285"><ele>194.0</ele><time>2026-04-26T09:07:38Z</time></trkpt><trkpt lat="45.922373464940904" lon="12.206980112370411"><ele>194.0</ele><time>2026-04-26T09:07:39Z</time></trkpt><trkpt lat="45.922270823453474" lon="12.206976872056266"><ele>194.0</ele><time>2026-04-26T09:07:40Z</time></trkpt><trkpt lat="45.92216592611384" lon="12.206976627417454"><ele>193.79999999999998</ele><time>2026-04-26T09:07:41Z</time></trkpt><trkpt lat="45.92206188647741" lon="12.20699309950511"><ele>193.6</ele><time>2026-04-26T09:07:42Z</time></trkpt><trkpt lat="45.92195727365185" lon="12.20700915629627"><ele>193.4</ele><time>2026-04-26T09:07:43Z</time></trkpt><trkpt lat="45.92185437577037" lon="12.20703016343925"><ele>193.2</ele><time>2026-04-26T09:07:44Z</time></trkpt><trkpt lat="45.92175324481538" lon="12.20705221429403"><ele>193.0</ele><time>2026-04-26T09:07:45Z</time></trkpt><trkpt lat="45.921651737782284" lon="12.207071339391566"><ele>192.8</ele><time>2026-04-26T09:07:46Z</time></trkpt><trkpt lat="45.921554108869" lon="12.207097593578302"><ele>192.60000000000002</ele><time>2026-04-26T09:07:47Z</time></trkpt><trkpt lat="45.92145680953039" lon="12.207126085317304"><ele>192.39999999999998</ele><time>2026-04-26T09:07:48Z</time></trkpt><trkpt lat="45.92135970568824" lon="12.207160431003413"><ele>192.2</ele><time>2026-04-26T09:07:49Z</time></trkpt><trkpt lat="45.921262214088436" lon="12.20720263109187"><ele>192.0</ele><time>2026-04-26T09:07:50Z</time></trkpt><trkpt lat="45.92116349928423" lon="12.207248872322705"><ele>192.0</ele><time>2026-04-26T09:07:51Z</time></trkpt><trkpt lat="45.92106212012733" lon="12.2072864095148"><ele>192.0</ele><time>2026-04-26T09:07:52Z</time></trkpt><trkpt lat="45.92095890601518" lon="12.20732150487071"><ele>192.0</ele><time>2026-04-26T09:07:53Z</time></trkpt><trkpt lat="45.9208595690165" lon="12.207367364008446"><ele>192.0</ele><time>2026-04-26T09:07:54Z</time></trkpt><trkpt lat="45.92076195386611" lon="12.207409668860326"><ele>192.0</ele><time>2026-04-26T09:07:55Z</time></trkpt><trkpt lat="45.92066633970289" lon="12.207452894291066"><ele>191.8</ele><time>2026-04-26T09:07:56Z</time></trkpt><trkpt lat="45.920574463458834" lon="12.207499922235318"><ele>191.6</ele><time>2026-04-26T09:07:57Z</time></trkpt><trkpt lat="45.920484024983416" lon="12.207542312905712"><ele>191.4</ele><time>2026-04-26T09:07:58Z</time></trkpt><trkpt lat="45.920394792592376" lon="12.20757768289901"><ele>191.20000000000002</ele><time>2026-04-26T09:07:59Z</time></trkpt><trkpt lat="45.92030666541091" lon="12.207612153650539"><ele>191.0</ele><time>2026-04-26T09:08:00Z</time></trkpt><trkpt lat="45.9202215993812" lon="12.207634509608484"><ele>191.0</ele><time>2026-04-26T09:08:01Z</time></trkpt><trkpt lat="45.920135592341495" lon="12.207642019805997"><ele>191.0</ele><time>2026-04-26T09:08:02Z</time></trkpt><trkpt lat="45.92005126370203" lon="12.20763419472937"><ele>191.0</ele><time>2026-04-26T09:08:03Z</time></trkpt><trkpt lat="45.91997590330503" lon="12.207604787984767"><ele>191.0</ele><time>2026-04-26T09:08:04Z</time></trkpt><trkpt lat="45.919923697984494" lon="12.207528432979453"><ele>191.0</ele><time>2026-04-26T09:08:05Z</time></trkpt><trkpt lat="45.91987465464557" lon="12.207447167884899"><ele>191.0</ele><time>2026-04-26T09:08:06Z</time></trkpt><trkpt lat="45.919828020971266" lon="12.207352107217378"><ele>189.83333333333331</ele><time>2026-04-26T09:08:07Z</time></trkpt><trkpt lat="45.91984083461375" lon="12.207228223337898"><ele>188.66666666666666</ele><time>2026-04-26T09:08:08Z</time></trkpt><trkpt lat="45.919859589416724" lon="12.207117702738666"><ele>187.5</ele><time>2026-04-26T09:08:09Z</time></trkpt><trkpt lat="45.9198831520202" lon="12.206998017921299"><ele>186.33333333333334</ele><time>2026-04-26T09:08:10Z</time></trkpt><trkpt lat="45.919951692110104" lon="12.20690572123874"><ele>185.16666666666669</ele><time>2026-04-26T09:08:11Z</time></trkpt><trkpt lat="45.920032595057755" lon="12.206832903817565"><ele>184.0</ele><time>2026-04-26T09:08:12Z</time></trkpt><trkpt lat="45.920120365380015" lon="12.206765746510353"><ele>184.0</ele><time>2026-04-26T09:08:13Z</time></trkpt><trkpt lat="45.92021595207152" lon="12.20669087928465"><ele>184.0</ele><time>2026-04-26T09:08:14Z</time></trkpt><trkpt lat="45.920320160151924" lon="12.20660951281404"><ele>184.0</ele><time>2026-04-26T09:08:15Z</time></trkpt><trkpt lat="45.92042647971476" lon="12.206524568554649"><ele>184.0</ele><time>2026-04-26T09:08:16Z</time></trkpt><trkpt lat="45.92053292688182" lon="12.206442927043584"><ele>183.0</ele><time>2026-04-26T09:08:17Z</time></trkpt><trkpt lat="45.92063640897214" lon="12.206360278998895"><ele>182.0</ele><time>2026-04-26T09:08:18Z</time></trkpt><trkpt lat="45.92073493265476" lon="12.206268976962688"><ele>181.0</ele><time>2026-04-26T09:08:19Z</time></trkpt><trkpt lat="45.920830322635844" lon="12.206176051375685"><ele>180.0</ele><time>2026-04-26T09:08:20Z</time></trkpt><trkpt lat="45.92091975527291" lon="12.206078838207205"><ele>180.0</ele><time>2026-04-26T09:08:21Z</time></trkpt><trkpt lat="45.92099675690277" lon="12.205965257088518"><ele>180.0</ele><time>2026-04-26T09:08:22Z</time></trkpt><trkpt lat="45.92105700817885" lon="12.205835144262954"><ele>180.0</ele><time>2026-04-26T09:08:23Z</time></trkpt><trkpt lat="45.92110276690066" lon="12.20569154732507"><ele>180.0</ele><time>2026-04-26T09:08:24Z</time></trkpt><trkpt lat="45.92113070027348" lon="12.205537282524025"><ele>180.0</ele><time>2026-04-26T09:08:25Z</time></trkpt><trkpt lat="45.92113454133233" lon="12.205370608569512"><ele>178.0</ele><time>2026-04-26T09:08:26Z</time></trkpt><trkpt lat="45.9211152064282" lon="12.205196747850785"><ele>176.0</ele><time>2026-04-26T09:08:27Z</time></trkpt><trkpt lat="45.92106976511851" lon="12.205016113478617"><ele>174.0</ele><time>2026-04-26T09:08:28Z</time></trkpt><trkpt lat="45.9210012716028" lon="12.204843286897146"><ele>172.0</ele><time>2026-04-26T09:08:29Z</time></trkpt><trkpt lat="45.920915005391606" lon="12.204674626268334"><ele>171.25</ele><time>2026-04-26T09:08:30Z</time></trkpt><trkpt lat="45.92082322343661" lon="12.204499077816104"><ele>170.5</ele><time>2026-04-26T09:08:31Z</time></trkpt><trkpt lat="45.92073441520147" lon="12.204328407650328"><ele>169.75</ele><time>2026-04-26T09:08:32Z</time></trkpt><trkpt lat="45.92064649805788" lon="12.204169937753774"><ele>169.0</ele><time>2026-04-26T09:08:33Z</time></trkpt><trkpt lat="45.920563591501406" lon="12.204016602332377"><ele>168.5</ele><time>2026-04-26T09:08:34Z</time></trkpt><trkpt lat="45.920481063276284" lon="12.203866000200572"><ele>168.0</ele><time>2026-04-26T09:08:35Z</time></trkpt><trkpt lat="45.92038882711462" lon="12.203719539986748"><ele>167.5</ele><time>2026-04-26T09:08:36Z</time></trkpt><trkpt lat="45.92028952638119" lon="12.20358012260192"><ele>167.0</ele><time>2026-04-26T09:08:37Z</time></trkpt><trkpt lat="45.92018260874367" lon="12.203444431449816"><ele>167.0</ele><time>2026-04-26T09:08:38Z</time></trkpt><trkpt lat="45.92007001563576" lon="12.203312565523934"><ele>167.0</ele><time>2026-04-26T09:08:39Z</time></trkpt><trkpt lat="45.919949102621274" lon="12.20319545196172"><ele>167.0</ele><time>2026-04-26T09:08:40Z</time></trkpt><trkpt lat="45.91982784845562" lon="12.203072691348309"><ele>167.0</ele><time>2026-04-26T09:08:41Z</time></trkpt><trkpt lat="45.919698815612065" lon="12.20296283487699"><ele>167.66666666666666</ele><time>2026-04-26T09:08:42Z</time></trkpt><trkpt lat="45.91956563725213" lon="12.202862695589626"><ele>168.33333333333334</ele><time>2026-04-26T09:08:43Z</time></trkpt><trkpt lat="45.919426796317026" lon="12.202773536348651"><ele>169.0</ele><time>2026-04-26T09:08:44Z</time></trkpt><trkpt lat="45.91928153103634" lon="12.20270404477525"><ele>169.33333333333334</ele><time>2026-04-26T09:08:45Z</time></trkpt><trkpt lat="45.91913359065028" lon="12.202646012875801"><ele>169.66666666666666</ele><time>2026-04-26T09:08:46Z</time></trkpt><trkpt lat="45.91898049628719" lon="12.202595692960433"><ele>170.0</ele><time>2026-04-26T09:08:47Z</time></trkpt><trkpt lat="45.918826512431586" lon="12.20255446988691"><ele>170.0</ele><time>2026-04-26T09:08:48Z</time></trkpt><trkpt lat="45.91866578198772" lon="12.202517568327577"><ele>170.0</ele><time>2026-04-26T09:08:49Z</time></trkpt><trkpt lat="45.91849925265169" lon="12.20248104453906"><ele>170.0</ele><time>2026-04-26T09:08:50Z</time></trkpt><trkpt lat="45.918327661021934" lon="12.202448980957007"><ele>170.66666666666666</ele><time>2026-04-26T09:08:51Z</time></trkpt><trkpt lat="45.91815584802341" lon="12.202408782417882"><ele>171.33333333333334</ele><time>2026-04-26T09:08:52Z</time></trkpt><trkpt lat="45.91798002969186" lon="12.202369292497945"><ele>172.0</ele><time>2026-04-26T09:08:53Z</time></trkpt><trkpt lat="45.91780581005192" lon="12.202325731546614"><ele>171.0</ele><time>2026-04-26T09:08:54Z</time></trkpt><trkpt lat="45.91763459010424" lon="12.202270542872784"><ele>170.0</ele><time>2026-04-26T09:08:55Z</time></trkpt><trkpt lat="45.917464030755" lon="12.202205529017396"><ele>169.0</ele><time>2026-04-26T09:08:56Z</time></trkpt><trkpt lat="45.91731086101972" lon="12.202119109987736"><ele>169.0</ele><time>2026-04-26T09:08:57Z</time></trkpt><trkpt lat="45.91716335293159" lon="12.202016833155668"><ele>169.0</ele><time>2026-04-26T09:08:58Z</time></trkpt><trkpt lat="45.91701873585285" lon="12.201896684544856"><ele>169.0</ele><time>2026-04-26T09:08:59Z</time></trkpt><trkpt lat="45.91687541340666" lon="12.201771187531868"><ele>169.0</ele><time>2026-04-26T09:09:00Z</time></trkpt><trkpt lat="45.91673081519223" lon="12.201635433822235"><ele>169.0</ele><time>2026-04-26T09:09:01Z</time></trkpt><trkpt lat="45.916580425813954" lon="12.201503961463123"><ele>169.0</ele><time>2026-04-26T09:09:02Z</time></trkpt><trkpt lat="45.916430809754594" lon="12.201373273654253"><ele>166.33333333333334</ele><time>2026-04-26T09:09:03Z</time></trkpt><trkpt lat="45.916276540566" lon="12.201247769853298"><ele>163.66666666666666</ele><time>2026-04-26T09:09:04Z</time></trkpt><trkpt lat="45.91612199399802" lon="12.201135438238982"><ele>161.0</ele><time>2026-04-26T09:09:05Z</time></trkpt><trkpt lat="45.91596632453539" lon="12.20103078601113"><ele>163.0</ele><time>2026-04-26T09:09:06Z</time></trkpt><trkpt lat="45.915806732642146" lon="12.200945764319883"><ele>165.0</ele><time>2026-04-26T09:09:07Z</time></trkpt><trkpt lat="45.915648704540004" lon="12.200868777266287"><ele>167.0</ele><time>2026-04-26T09:09:08Z</time></trkpt><trkpt lat="45.91549279936963" lon="12.200808169834803"><ele>167.0</ele><time>2026-04-26T09:09:09Z</time></trkpt><trkpt lat="45.9153400227895" lon="12.200775555298605"><ele>167.0</ele><time>2026-04-26T09:09:10Z</time></trkpt><trkpt lat="45.91519534373455" lon="12.200753494329295"><ele>167.0</ele><time>2026-04-26T09:09:11Z</time></trkpt><trkpt lat="45.91504856124242" lon="12.200731213917349"><ele>167.0</ele><time>2026-04-26T09:09:12Z</time></trkpt><trkpt lat="45.91490405336702" lon="12.200716052790629"><ele>167.0</ele><time>2026-04-26T09:09:13Z</time></trkpt><trkpt lat="45.91476113713714" lon="12.20071488642294"><ele>167.0</ele><time>2026-04-26T09:09:14Z</time></trkpt><trkpt lat="45.914622568683946" lon="12.200706735559619"><ele>167.0</ele><time>2026-04-26T09:09:15Z</time></trkpt><trkpt lat="45.914483710642045" lon="12.200689782520508"><ele>167.0</ele><time>2026-04-26T09:09:16Z</time></trkpt><trkpt lat="45.91434767964618" lon="12.20066429307908"><ele>166.0</ele><time>2026-04-26T09:09:17Z</time></trkpt><trkpt lat="45.91421257399263" lon="12.200627331288523"><ele>165.0</ele><time>2026-04-26T09:09:18Z</time></trkpt><trkpt lat="45.91408243196822" lon="12.200573932838298"><ele>164.0</ele><time>2026-04-26T09:09:19Z</time></trkpt><trkpt lat="45.91396084797902" lon="12.20050541527057"><ele>163.0</ele><time>2026-04-26T09:09:20Z</time></trkpt><trkpt lat="45.91384262610283" lon="12.20042921822983"><ele>163.0</ele><time>2026-04-26T09:09:21Z</time></trkpt><trkpt lat="45.9137280800159" lon="12.200333129604118"><ele>163.0</ele><time>2026-04-26T09:09:22Z</time></trkpt><trkpt lat="45.913622333043385" lon="12.200226663694831"><ele>163.0</ele><time>2026-04-26T09:09:23Z</time></trkpt><trkpt lat="45.91352682121181" lon="12.200113971789467"><ele>163.0</ele><time>2026-04-26T09:09:24Z</time></trkpt><trkpt lat="45.91343605258226" lon="12.19998387787925"><ele>163.0</ele><time>2026-04-26T09:09:25Z</time></trkpt><trkpt lat="45.91335432019827" lon="12.199839791458555"><ele>163.0</ele><time>2026-04-26T09:09:26Z</time></trkpt><trkpt lat="45.913276690549644" lon="12.19968261026736"><ele>163.0</ele><time>2026-04-26T09:09:27Z</time></trkpt><trkpt lat="45.913201850490104" lon="12.199516160848429"><ele>163.0</ele><time>2026-04-26T09:09:28Z</time></trkpt><trkpt lat="45.91315984010772" lon="12.199330463677455"><ele>161.5</ele><time>2026-04-26T09:09:29Z</time></trkpt><trkpt lat="45.913104517346646" lon="12.199159795116447"><ele>160.0</ele><time>2026-04-26T09:09:30Z</time></trkpt><trkpt lat="45.913073661866584" lon="12.1989682290599"><ele>158.5</ele><time>2026-04-26T09:09:31Z</time></trkpt><trkpt lat="45.91307017961749" lon="12.198778402439343"><ele>157.0</ele><time>2026-04-26T09:09:32Z</time></trkpt><trkpt lat="45.91304914093198" lon="12.198591978162167"><ele>155.0</ele><time>2026-04-26T09:09:33Z</time></trkpt><trkpt lat="45.913038030795974" lon="12.198400901339507"><ele>153.0</ele><time>2026-04-26T09:09:34Z</time></trkpt><trkpt lat="45.91302333790982" lon="12.198206723143283"><ele>151.0</ele><time>2026-04-26T09:09:35Z</time></trkpt><trkpt lat="45.912987922114944" lon="12.198005832282336"><ele>149.0</ele><time>2026-04-26T09:09:36Z</time></trkpt><trkpt lat="45.91293395604261" lon="12.197807376800348"><ele>148.33333333333331</ele><time>2026-04-26T09:09:37Z</time></trkpt><trkpt lat="45.912863651289804" lon="12.197609008783987"><ele>147.66666666666666</ele><time>2026-04-26T09:09:38Z</time></trkpt><trkpt lat="45.91277739319426" lon="12.197414807232791"><ele>147.0</ele><time>2026-04-26T09:09:39Z</time></trkpt><trkpt lat="45.912678154377" lon="12.1972330021084"><ele>146.0</ele><time>2026-04-26T09:09:40Z</time></trkpt><trkpt lat="45.91256432141154" lon="12.197068149159238"><ele>145.0</ele><time>2026-04-26T09:09:41Z</time></trkpt><trkpt lat="45.91243947094193" lon="12.19692210414421"><ele>144.0</ele><time>2026-04-26T09:09:42Z</time></trkpt><trkpt lat="45.91230956495008" lon="12.196788255685053"><ele>144.0</ele><time>2026-04-26T09:09:43Z</time></trkpt><trkpt lat="45.912180033853396" lon="12.196663823014061"><ele>144.0</ele><time>2026-04-26T09:09:44Z</time></trkpt><trkpt lat="45.912050388629275" lon="12.196536875432459"><ele>144.0</ele><time>2026-04-26T09:09:45Z</time></trkpt><trkpt lat="45.91192631624004" lon="12.196412723342979"><ele>144.0</ele><time>2026-04-26T09:09:46Z</time></trkpt><trkpt lat="45.91180131280559" lon="12.196282774472188"><ele>144.0</ele><time>2026-04-26T09:09:47Z</time></trkpt><trkpt lat="45.91167512254643" lon="12.196155998118655"><ele>144.0</ele><time>2026-04-26T09:09:48Z</time></trkpt><trkpt lat="45.91154790079407" lon="12.196036257048627"><ele>143.5</ele><time>2026-04-26T09:09:49Z</time></trkpt><trkpt lat="45.91142314074296" lon="12.195935319705198"><ele>143.0</ele><time>2026-04-26T09:09:50Z</time></trkpt><trkpt lat="45.91129771488096" lon="12.195840300152627"><ele>142.5</ele><time>2026-04-26T09:09:51Z</time></trkpt><trkpt lat="45.91117560878152" lon="12.195751067430882"><ele>142.0</ele><time>2026-04-26T09:09:52Z</time></trkpt><trkpt lat="45.911053962639706" lon="12.195668354369294"><ele>141.75</ele><time>2026-04-26T09:09:53Z</time></trkpt><trkpt lat="45.91092918693677" lon="12.19559326911155"><ele>141.5</ele><time>2026-04-26T09:09:54Z</time></trkpt><trkpt lat="45.91081029383627" lon="12.195515623153469"><ele>141.25</ele><time>2026-04-26T09:09:55Z</time></trkpt><trkpt lat="45.910689476290386" lon="12.19544076696005"><ele>141.0</ele><time>2026-04-26T09:09:56Z</time></trkpt><trkpt lat="45.910568479914176" lon="12.195367223693749"><ele>141.0</ele><time>2026-04-26T09:09:57Z</time></trkpt><trkpt lat="45.910455948439946" lon="12.195297800790108"><ele>141.0</ele><time>2026-04-26T09:09:58Z</time></trkpt><trkpt lat="45.910347772456376" lon="12.19523009506245"><ele>141.0</ele><time>2026-04-26T09:09:59Z</time></trkpt><trkpt lat="45.91024641715082" lon="12.19516617544574"><ele>141.0</ele><time>2026-04-26T09:10:00Z</time></trkpt><trkpt lat="45.91014622338713" lon="12.195106546959265"><ele>141.8</ele><time>2026-04-26T09:10:01Z</time></trkpt><trkpt lat="45.91005598717755" lon="12.195049756790405"><ele>142.6</ele><time>2026-04-26T09:10:02Z</time></trkpt><trkpt lat="45.909972349735554" lon="12.194977855524415"><ele>143.4</ele><time>2026-04-26T09:10:03Z</time></trkpt><trkpt lat="45.90988808394916" lon="12.194897739102105"><ele>144.2</ele><time>2026-04-26T09:10:04Z</time></trkpt><trkpt lat="45.90980873651418" lon="12.194804165597493"><ele>145.0</ele><time>2026-04-26T09:10:05Z</time></trkpt><trkpt lat="45.90972841504555" lon="12.19470186079765"><ele>145.6</ele><time>2026-04-26T09:10:06Z</time></trkpt><trkpt lat="45.909656986529065" lon="12.194593508478501"><ele>146.2</ele><time>2026-04-26T09:10:07Z</time></trkpt><trkpt lat="45.909597798332015" lon="12.194483651381226"><ele>146.8</ele><time>2026-04-26T09:10:08Z</time></trkpt><trkpt lat="45.90954596316531" lon="12.19436284860109"><ele>147.4</ele><time>2026-04-26T09:10:09Z</time></trkpt><trkpt lat="45.90949925344478" lon="12.194231205490345"><ele>148.0</ele><time>2026-04-26T09:10:10Z</time></trkpt><trkpt lat="45.909477356857245" lon="12.194083858070044"><ele>148.75</ele><time>2026-04-26T09:10:11Z</time></trkpt><trkpt lat="45.90945072759289" lon="12.193933464461615"><ele>149.5</ele><time>2026-04-26T09:10:12Z</time></trkpt><trkpt lat="45.90941782833536" lon="12.1937846038364"><ele>150.25</ele><time>2026-04-26T09:10:13Z</time></trkpt><trkpt lat="45.90940339385246" lon="12.193620860644561"><ele>151.0</ele><time>2026-04-26T09:10:14Z</time></trkpt><trkpt lat="45.90938226135714" lon="12.193451120797393"><ele>151.0</ele><time>2026-04-26T09:10:15Z</time></trkpt><trkpt lat="45.90936346507585" lon="12.1932745928558"><ele>151.0</ele><time>2026-04-26T09:10:16Z</time></trkpt><trkpt lat="45.90934590402468" lon="12.193097165995102"><ele>151.0</ele><time>2026-04-26T09:10:17Z</time></trkpt><trkpt lat="45.90932661483026" lon="12.192910409319394"><ele>151.0</ele><time>2026-04-26T09:10:18Z</time></trkpt><trkpt lat="45.90931056468208" lon="12.192733613563437"><ele>151.25</ele><time>2026-04-26T09:10:19Z</time></trkpt><trkpt lat="45.909290833226514" lon="12.192553275681869"><ele>151.5</ele><time>2026-04-26T09:10:20Z</time></trkpt><trkpt lat="45.909272971520764" lon="12.192370728949612"><ele>151.75</ele><time>2026-04-26T09:10:21Z</time></trkpt><trkpt lat="45.90922930294243" lon="12.1921881681736"><ele>152.0</ele><time>2026-04-26T09:10:22Z</time></trkpt><trkpt lat="45.909180770181166" lon="12.19201459622772"><ele>151.0</ele><time>2026-04-26T09:10:23Z</time></trkpt><trkpt lat="45.90912759607774" lon="12.191857791835616"><ele>150.0</ele><time>2026-04-26T09:10:24Z</time></trkpt><trkpt lat="45.90907429218814" lon="12.191704828212584"><ele>149.0</ele><time>2026-04-26T09:10:25Z</time></trkpt><trkpt lat="45.909018652611316" lon="12.191560650371482"><ele>148.0</ele><time>2026-04-26T09:10:26Z</time></trkpt><trkpt lat="45.908963530175924" lon="12.191416340488152"><ele>148.0</ele><time>2026-04-26T09:10:27Z</time></trkpt><trkpt lat="45.908908569092354" lon="12.191269429639435"><ele>148.0</ele><time>2026-04-26T09:10:28Z</time></trkpt><trkpt lat="45.908853651059424" lon="12.191120945697719"><ele>148.0</ele><time>2026-04-26T09:10:29Z</time></trkpt><trkpt lat="45.90878636540749" lon="12.190967656773577"><ele>148.0</ele><time>2026-04-26T09:10:30Z</time></trkpt><trkpt lat="45.908721929114705" lon="12.190808351884217"><ele>148.0</ele><time>2026-04-26T09:10:31Z</time></trkpt><trkpt lat="45.90866045383088" lon="12.190642844846735"><ele>148.0</ele><time>2026-04-26T09:10:32Z</time></trkpt><trkpt lat="45.90859615898077" lon="12.190478938515858"><ele>148.0</ele><time>2026-04-26T09:10:33Z</time></trkpt><trkpt lat="45.908532846557854" lon="12.190319953781694"><ele>148.0</ele><time>2026-04-26T09:10:34Z</time></trkpt><trkpt lat="45.90847138221457" lon="12.190163205000383"><ele>148.0</ele><time>2026-04-26T09:10:35Z</time></trkpt><trkpt lat="45.90841110452837" lon="12.190003511549529"><ele>148.0</ele><time>2026-04-26T09:10:36Z</time></trkpt><trkpt lat="45.908352973606135" lon="12.189848482011243"><ele>148.0</ele><time>2026-04-26T09:10:37Z</time></trkpt><trkpt lat="45.908293546729624" lon="12.189694191132913"><ele>148.0</ele><time>2026-04-26T09:10:38Z</time></trkpt><trkpt lat="45.90823558113108" lon="12.189542897435464"><ele>147.25</ele><time>2026-04-26T09:10:39Z</time></trkpt><trkpt lat="45.90817986974044" lon="12.18939314727635"><ele>146.5</ele><time>2026-04-26T09:10:40Z</time></trkpt><trkpt lat="45.90812684738036" lon="12.189241348945881"><ele>145.75</ele><time>2026-04-26T09:10:41Z</time></trkpt><trkpt lat="45.90807688931032" lon="12.1890838291622"><ele>145.0</ele><time>2026-04-26T09:10:42Z</time></trkpt><trkpt lat="45.908036408337146" lon="12.188916019101185"><ele>144.75</ele><time>2026-04-26T09:10:43Z</time></trkpt><trkpt lat="45.90799507097486" lon="12.188740009211218"><ele>144.5</ele><time>2026-04-26T09:10:44Z</time></trkpt><trkpt lat="45.9079574085991" lon="12.188561772147835"><ele>144.25</ele><time>2026-04-26T09:10:45Z</time></trkpt><trkpt lat="45.90791998264513" lon="12.18838093026199"><ele>144.0</ele><time>2026-04-26T09:10:46Z</time></trkpt><trkpt lat="45.907885943689536" lon="12.188199911315293"><ele>143.75</ele><time>2026-04-26T09:10:47Z</time></trkpt><trkpt lat="45.90785264600927" lon="12.188027191403199"><ele>143.5</ele><time>2026-04-26T09:10:48Z</time></trkpt><trkpt lat="45.9078245478057" lon="12.187856791801938"><ele>143.25</ele><time>2026-04-26T09:10:49Z</time></trkpt><trkpt lat="45.907795132491984" lon="12.187690717688332"><ele>143.0</ele><time>2026-04-26T09:10:50Z</time></trkpt><trkpt lat="45.9077649617283" lon="12.187530837484326"><ele>143.0</ele><time>2026-04-26T09:10:51Z</time></trkpt><trkpt lat="45.90773564249653" lon="12.187376189411317"><ele>143.0</ele><time>2026-04-26T09:10:52Z</time></trkpt><trkpt lat="45.907708949404665" lon="12.187226979446322"><ele>143.0</ele><time>2026-04-26T09:10:53Z</time></trkpt><trkpt lat="45.90768153913947" lon="12.187078948995199"><ele>143.0</ele><time>2026-04-26T09:10:54Z</time></trkpt><trkpt lat="45.9076588129696" lon="12.18692849797514"><ele>143.0</ele><time>2026-04-26T09:10:55Z</time></trkpt><trkpt lat="45.90762919543106" lon="12.186774969262798"><ele>143.0</ele><time>2026-04-26T09:10:56Z</time></trkpt><trkpt lat="45.907601962024586" lon="12.186620058041257"><ele>143.0</ele><time>2026-04-26T09:10:57Z</time></trkpt><trkpt lat="45.90757419139723" lon="12.186463427130992"><ele>143.0</ele><time>2026-04-26T09:10:58Z</time></trkpt><trkpt lat="45.90754287418201" lon="12.186307058995348"><ele>143.0</ele><time>2026-04-26T09:10:59Z</time></trkpt><trkpt lat="45.90751477625498" lon="12.186148806012776"><ele>143.25</ele><time>2026-04-26T09:11:00Z</time></trkpt><trkpt lat="45.90748568741233" lon="12.18598863627577"><ele>143.5</ele><time>2026-04-26T09:11:01Z</time></trkpt><trkpt lat="45.90745536273325" lon="12.185826006931812"><ele>143.75</ele><time>2026-04-26T09:11:02Z</time></trkpt><trkpt lat="45.9074257391797" lon="12.185661398173334"><ele>144.0</ele><time>2026-04-26T09:11:03Z</time></trkpt><trkpt lat="45.90739766449579" lon="12.185495632079459"><ele>144.0</ele><time>2026-04-26T09:11:04Z</time></trkpt><trkpt lat="45.9073657132405" lon="12.18532792887493"><ele>144.0</ele><time>2026-04-26T09:11:05Z</time></trkpt><trkpt lat="45.907331895877846" lon="12.185155117178857"><ele>144.0</ele><time>2026-04-26T09:11:06Z</time></trkpt><trkpt lat="45.907297477396135" lon="12.184980666772127"><ele>144.0</ele><time>2026-04-26T09:11:07Z</time></trkpt><trkpt lat="45.90726297653399" lon="12.184805463487578"><ele>143.75</ele><time>2026-04-26T09:11:08Z</time></trkpt><trkpt lat="45.907229867720446" lon="12.184626787440076"><ele>143.5</ele><time>2026-04-26T09:11:09Z</time></trkpt><trkpt lat="45.907204095471414" lon="12.184452252468455"><ele>143.25</ele><time>2026-04-26T09:11:10Z</time></trkpt><trkpt lat="45.90717263157439" lon="12.18428108270298"><ele>143.0</ele><time>2026-04-26T09:11:11Z</time></trkpt><trkpt lat="45.907143185222225" lon="12.184115515385807"><ele>142.75</ele><time>2026-04-26T09:11:12Z</time></trkpt><trkpt lat="45.90711039596035" lon="12.183949699973114"><ele>142.5</ele><time>2026-04-26T09:11:13Z</time></trkpt><trkpt lat="45.907081115287504" lon="12.183786014791188"><ele>142.25</ele><time>2026-04-26T09:11:14Z</time></trkpt><trkpt lat="45.907052760300914" lon="12.183628968385669"><ele>142.0</ele><time>2026-04-26T09:11:15Z</time></trkpt><trkpt lat="45.90702451830782" lon="12.183478133952164"><ele>142.0</ele><time>2026-04-26T09:11:16Z</time></trkpt><trkpt lat="45.90700181512104" lon="12.183342559980133"><ele>142.0</ele><time>2026-04-26T09:11:17Z</time></trkpt><trkpt lat="45.90698252535806" lon="12.183221952549086"><ele>142.0</ele><time>2026-04-26T09:11:18Z</time></trkpt><trkpt lat="45.90696064107113" lon="12.183106266531263"><ele>142.0</ele><time>2026-04-26T09:11:19Z</time></trkpt><trkpt lat="45.90693746713476" lon="12.182993211275559"><ele>142.0</ele><time>2026-04-26T09:11:20Z</time></trkpt><trkpt lat="45.90691529394119" lon="12.182877001849592"><ele>142.0</ele><time>2026-04-26T09:11:21Z</time></trkpt><trkpt lat="45.90689238638638" lon="12.182757714534425"><ele>142.16666666666669</ele><time>2026-04-26T09:11:22Z</time></trkpt><trkpt lat="45.9068731284207" lon="12.182640534844374"><ele>142.33333333333334</ele><time>2026-04-26T09:11:23Z</time></trkpt><trkpt lat="45.9068604525099" lon="12.182530671515499"><ele>142.5</ele><time>2026-04-26T09:11:24Z</time></trkpt><trkpt lat="45.906849805899164" lon="12.182423335205293"><ele>142.66666666666666</ele><time>2026-04-26T09:11:25Z</time></trkpt><trkpt lat="45.90683915694988" lon="12.182308293994371"><ele>142.83333333333331</ele><time>2026-04-26T09:11:26Z</time></trkpt><trkpt lat="45.906829623737025" lon="12.182189546532314"><ele>143.0</ele><time>2026-04-26T09:11:27Z</time></trkpt><trkpt lat="45.90682625203634" lon="12.18207155811376"><ele>143.33333333333331</ele><time>2026-04-26T09:11:28Z</time></trkpt><trkpt lat="45.90682529086224" lon="12.181950330348673"><ele>143.66666666666666</ele><time>2026-04-26T09:11:29Z</time></trkpt><trkpt lat="45.90682984861886" lon="12.18182449653185"><ele>144.0</ele><time>2026-04-26T09:11:30Z</time></trkpt><trkpt lat="45.906841707806336" lon="12.181692137747714"><ele>144.33333333333334</ele><time>2026-04-26T09:11:31Z</time></trkpt><trkpt lat="45.906842027773344" lon="12.181561938358566"><ele>144.66666666666669</ele><time>2026-04-26T09:11:32Z</time></trkpt><trkpt lat="45.90684587240131" lon="12.181440734210302"><ele>145.0</ele><time>2026-04-26T09:11:33Z</time></trkpt><trkpt lat="45.90685349983374" lon="12.181323289211171"><ele>145.0</ele><time>2026-04-26T09:11:34Z</time></trkpt><trkpt lat="45.90685939221016" lon="12.181212443993848"><ele>145.0</ele><time>2026-04-26T09:11:35Z</time></trkpt><trkpt lat="45.906866653053314" lon="12.181104134896865"><ele>145.0</ele><time>2026-04-26T09:11:36Z</time></trkpt><trkpt lat="45.906864933225975" lon="12.180992510266185"><ele>145.0</ele><time>2026-04-26T09:11:37Z</time></trkpt><trkpt lat="45.90686416431589" lon="12.180881797987954"><ele>145.0</ele><time>2026-04-26T09:11:38Z</time></trkpt><trkpt lat="45.90685717859727" lon="12.180763515232275"><ele>145.0</ele><time>2026-04-26T09:11:39Z</time></trkpt><trkpt lat="45.90684692946285" lon="12.18064559566805"><ele>144.83333333333334</ele><time>2026-04-26T09:11:40Z</time></trkpt><trkpt lat="45.906837901549196" lon="12.180527393843773"><ele>144.66666666666669</ele><time>2026-04-26T09:11:41Z</time></trkpt><trkpt lat="45.90681899032361" lon="12.180409930594083"><ele>144.5</ele><time>2026-04-26T09:11:42Z</time></trkpt><trkpt lat="45.90680107319265" lon="12.1802915697746"><ele>144.33333333333334</ele><time>2026-04-26T09:11:43Z</time></trkpt><trkpt lat="45.90677965201589" lon="12.180168864812627"><ele>144.16666666666666</ele><time>2026-04-26T09:11:44Z</time></trkpt><trkpt lat="45.906756702468456" lon="12.180049984111552"><ele>144.0</ele><time>2026-04-26T09:11:45Z</time></trkpt><trkpt lat="45.90673469336723" lon="12.179939071766075"><ele>144.16666666666666</ele><time>2026-04-26T09:11:46Z</time></trkpt><trkpt lat="45.90673277987756" lon="12.179828575747777"><ele>144.33333333333334</ele><time>2026-04-26T09:11:47Z</time></trkpt><trkpt lat="45.906717168844686" lon="12.179732816519799"><ele>144.5</ele><time>2026-04-26T09:11:48Z</time></trkpt><trkpt lat="45.906690662780285" lon="12.17956917452217"><ele>144.66666666666669</ele><time>2026-04-26T09:11:50Z</time></trkpt><trkpt lat="45.906658514549115" lon="12.179459451118307"><ele>144.83333333333334</ele><time>2026-04-26T09:11:52Z</time></trkpt><trkpt lat="45.90664755843209" lon="12.179365167423931"><ele>145.0</ele><time>2026-04-26T09:11:55Z</time></trkpt><trkpt lat="45.90663784194975" lon="12.179254813405484"><ele>145.0</ele><time>2026-04-26T09:12:02Z</time></trkpt><trkpt lat="45.906646427739446" lon="12.179156503654893"><ele>145.0</ele><time>2026-04-26T09:12:07Z</time></trkpt><trkpt lat="45.90666149219888" lon="12.179024686418382"><ele>145.0</ele><time>2026-04-26T09:12:09Z</time></trkpt><trkpt lat="45.90661624227924" lon="12.178867731970266"><ele>145.0</ele><time>2026-04-26T09:12:11Z</time></trkpt><trkpt lat="45.906541526334095" lon="12.178730811037738"><ele>145.0</ele><time>2026-04-26T09:12:13Z</time></trkpt><trkpt lat="45.90648851294782" lon="12.178562523447797"><ele>144.4</ele><time>2026-04-26T09:12:15Z</time></trkpt><trkpt lat="45.90645983744593" lon="12.178458192409035"><ele>143.8</ele><time>2026-04-26T09:12:16Z</time></trkpt><trkpt lat="45.906424750326885" lon="12.178335689574102"><ele>143.2</ele><time>2026-04-26T09:12:17Z</time></trkpt><trkpt lat="45.90638679531238" lon="12.178216416010569"><ele>142.6</ele><time>2026-04-26T09:12:18Z</time></trkpt><trkpt lat="45.90634575952421" lon="12.178086447077025"><ele>142.0</ele><time>2026-04-26T09:12:19Z</time></trkpt><trkpt lat="45.906308103084086" lon="12.17796371274231"><ele>141.83333333333334</ele><time>2026-04-26T09:12:20Z</time></trkpt><trkpt lat="45.90627191848981" lon="12.177838862275847"><ele>141.66666666666669</ele><time>2026-04-26T09:12:21Z</time></trkpt><trkpt lat="45.90623672274896" lon="12.177719784974105"><ele>141.5</ele><time>2026-04-26T09:12:22Z</time></trkpt><trkpt lat="45.90620099751824" lon="12.177607046620595"><ele>141.33333333333334</ele><time>2026-04-26T09:12:23Z</time></trkpt><trkpt lat="45.90616307387514" lon="12.177499725525019"><ele>141.16666666666666</ele><time>2026-04-26T09:12:24Z</time></trkpt><trkpt lat="45.9061173935849" lon="12.177394911237664"><ele>141.0</ele><time>2026-04-26T09:12:25Z</time></trkpt><trkpt lat="45.90607218301202" lon="12.177285925522183"><ele>141.0</ele><time>2026-04-26T09:12:26Z</time></trkpt><trkpt lat="45.90602307941998" lon="12.177176420301782"><ele>141.0</ele><time>2026-04-26T09:12:27Z</time></trkpt><trkpt lat="45.905969013405745" lon="12.1770757958221"><ele>141.0</ele><time>2026-04-26T09:12:28Z</time></trkpt><trkpt lat="45.90591201505092" lon="12.176981501783738"><ele>141.0</ele><time>2026-04-26T09:12:29Z</time></trkpt><trkpt lat="45.90585184666172" lon="12.176886538734015"><ele>141.0</ele><time>2026-04-26T09:12:30Z</time></trkpt><trkpt lat="45.905791953338664" lon="12.176787603975157"><ele>141.0</ele><time>2026-04-26T09:12:31Z</time></trkpt><trkpt lat="45.90573104782417" lon="12.176685795343177"><ele>141.0</ele><time>2026-04-26T09:12:32Z</time></trkpt><trkpt lat="45.905670283957384" lon="12.176580818629441"><ele>141.0</ele><time>2026-04-26T09:12:33Z</time></trkpt><trkpt lat="45.90561588753262" lon="12.176474432956075"><ele>141.0</ele><time>2026-04-26T09:12:34Z</time></trkpt><trkpt lat="45.90556845118362" lon="12.17636392874304"><ele>141.0</ele><time>2026-04-26T09:12:35Z</time></trkpt><trkpt lat="45.905524371481775" lon="12.176254036704426"><ele>141.0</ele><time>2026-04-26T09:12:36Z</time></trkpt><trkpt lat="45.90548761448169" lon="12.176141468973048"><ele>140.33333333333334</ele><time>2026-04-26T09:12:37Z</time></trkpt><trkpt lat="45.905455627396776" lon="12.176040635946247"><ele>139.66666666666666</ele><time>2026-04-26T09:12:38Z</time></trkpt><trkpt lat="45.90542964249986" lon="12.17595263634272"><ele>139.0</ele><time>2026-04-26T09:12:39Z</time></trkpt><trkpt lat="45.90539382228001" lon="12.175811158035486"><ele>138.33333333333331</ele><time>2026-04-26T09:12:41Z</time></trkpt><trkpt lat="45.90537420942928" lon="12.175714897328925"><ele>137.66666666666666</ele><time>2026-04-26T09:12:43Z</time></trkpt><trkpt lat="45.905356493012405" lon="12.175617689745936"><ele>137.0</ele><time>2026-04-26T09:12:46Z</time></trkpt><trkpt lat="45.90533787625771" lon="12.175528876339996"><ele>136.83333333333331</ele><time>2026-04-26T09:12:57Z</time></trkpt><trkpt lat="45.90530541746535" lon="12.175411686761363"><ele>136.66666666666666</ele><time>2026-04-26T09:12:59Z</time></trkpt><trkpt lat="45.90527815146023" lon="12.175306379567159"><ele>136.5</ele><time>2026-04-26T09:13:01Z</time></trkpt><trkpt lat="45.905249520212735" lon="12.175205192812134"><ele>136.33333333333334</ele><time>2026-04-26T09:13:03Z</time></trkpt><trkpt lat="45.90522106670408" lon="12.175089205793086"><ele>136.16666666666669</ele><time>2026-04-26T09:13:05Z</time></trkpt><trkpt lat="45.90520101925382" lon="12.1749230998145"><ele>136.0</ele><time>2026-04-26T09:13:07Z</time></trkpt><trkpt lat="45.90517901905242" lon="12.174825464183527"><ele>135.83333333333334</ele><time>2026-04-26T09:13:08Z</time></trkpt><trkpt lat="45.90515296158512" lon="12.174725936778575"><ele>135.66666666666669</ele><time>2026-04-26T09:13:09Z</time></trkpt><trkpt lat="45.905124849700904" lon="12.174614041352083"><ele>135.5</ele><time>2026-04-26T09:13:10Z</time></trkpt><trkpt lat="45.9050915254089" lon="12.174490108461287"><ele>135.33333333333334</ele><time>2026-04-26T09:13:11Z</time></trkpt><trkpt lat="45.905056408517545" lon="12.174356606694406"><ele>135.16666666666666</ele><time>2026-04-26T09:13:12Z</time></trkpt><trkpt lat="45.90502100119152" lon="12.174221025047899"><ele>135.0</ele><time>2026-04-26T09:13:13Z</time></trkpt><trkpt lat="45.90498622167609" lon="12.174088753103149"><ele>134.0</ele><time>2026-04-26T09:13:14Z</time></trkpt><trkpt lat="45.90495518981987" lon="12.173952844327118"><ele>133.0</ele><time>2026-04-26T09:13:15Z</time></trkpt><trkpt lat="45.90492385994762" lon="12.173819222287218"><ele>132.0</ele><time>2026-04-26T09:13:16Z</time></trkpt><trkpt lat="45.90489318912476" lon="12.173689119306804"><ele>131.0</ele><time>2026-04-26T09:13:17Z</time></trkpt><trkpt lat="45.90486253865658" lon="12.173562497224362"><ele>130.0</ele><time>2026-04-26T09:13:18Z</time></trkpt><trkpt lat="45.90483250201972" lon="12.17343658355492"><ele>130.0</ele><time>2026-04-26T09:13:19Z</time></trkpt><trkpt lat="45.904804784429956" lon="12.173315957414381"><ele>130.0</ele><time>2026-04-26T09:13:20Z</time></trkpt><trkpt lat="45.9047767884856" lon="12.173202846565578"><ele>130.0</ele><time>2026-04-26T09:13:21Z</time></trkpt><trkpt lat="45.90474988387923" lon="12.173104833699515"><ele>130.0</ele><time>2026-04-26T09:13:22Z</time></trkpt><trkpt lat="45.90471039658435" lon="12.172982951425102"><ele>130.0</ele><time>2026-04-26T09:13:24Z</time></trkpt><trkpt lat="45.90468410893335" lon="12.17290042125404"><ele>130.0</ele><time>2026-04-26T09:13:27Z</time></trkpt><trkpt lat="45.904644514831446" lon="12.172788380909498"><ele>129.8</ele><time>2026-04-26T09:13:30Z</time></trkpt><trkpt lat="45.90460496641328" lon="12.172654591541443"><ele>129.6</ele><time>2026-04-26T09:13:32Z</time></trkpt><trkpt lat="45.90454228525817" lon="12.172495686766743"><ele>129.4</ele><time>2026-04-26T09:13:34Z</time></trkpt><trkpt lat="45.90450367892622" lon="12.172406816182004"><ele>129.2</ele><time>2026-04-26T09:13:35Z</time></trkpt><trkpt lat="45.90446297070257" lon="12.17231302683458"><ele>129.0</ele><time>2026-04-26T09:13:36Z</time></trkpt><trkpt lat="45.90442377828781" lon="12.172218173301202"><ele>129.33333333333334</ele><time>2026-04-26T09:13:37Z</time></trkpt><trkpt lat="45.90439313095927" lon="12.17213384637472"><ele>129.66666666666666</ele><time>2026-04-26T09:13:38Z</time></trkpt><trkpt lat="45.90436056444133" lon="12.172050640572861"><ele>130.0</ele><time>2026-04-26T09:13:39Z</time></trkpt><trkpt lat="45.90430941206403" lon="12.171903039942952"><ele>130.33333333333331</ele><time>2026-04-26T09:13:41Z</time></trkpt><trkpt lat="45.904313387918386" lon="12.171791315043924"><ele>130.66666666666666</ele><time>2026-04-26T09:13:43Z</time></trkpt><trkpt lat="45.90440083100476" lon="12.171747809523506"><ele>131.0</ele><time>2026-04-26T09:13:44Z</time></trkpt><trkpt lat="45.904464943320995" lon="12.171665380448896"><ele>131.0</ele><time>2026-04-26T09:13:45Z</time></trkpt><trkpt lat="45.90454036206258" lon="12.171585714344218"><ele>131.0</ele><time>2026-04-26T09:13:46Z</time></trkpt><trkpt lat="45.904612821318" lon="12.171527202753378"><ele>131.0</ele><time>2026-04-26T09:13:47Z</time></trkpt><trkpt lat="45.90468557165314" lon="12.171481144658806"><ele>131.0</ele><time>2026-04-26T09:13:48Z</time></trkpt><trkpt lat="45.90474638969597" lon="12.171433740348682"><ele>131.0</ele><time>2026-04-26T09:13:49Z</time></trkpt><trkpt lat="45.90480339303732" lon="12.171372940050047"><ele>131.0</ele><time>2026-04-26T09:13:50Z</time></trkpt><trkpt lat="45.90485951160309" lon="12.171294865706242"><ele>131.33333333333331</ele><time>2026-04-26T09:13:51Z</time></trkpt><trkpt lat="45.90490379447628" lon="12.17120868707896"><ele>131.66666666666666</ele><time>2026-04-26T09:13:52Z</time></trkpt><trkpt lat="45.904922336847434" lon="12.171101990750321"><ele>132.0</ele><time>2026-04-26T09:13:53Z</time></trkpt><trkpt lat="45.90494061048615" lon="12.170977265950567"><ele>132.33333333333334</ele><time>2026-04-26T09:13:54Z</time></trkpt><trkpt lat="45.90494279329622" lon="12.170855196814733"><ele>132.66666666666669</ele><time>2026-04-26T09:13:55Z</time></trkpt><trkpt lat="45.90494479826031" lon="12.170743072967506"><ele>133.0</ele><time>2026-04-26T09:13:56Z</time></trkpt><trkpt lat="45.90494823751699" lon="12.170637524556941"><ele>133.28571428571428</ele><time>2026-04-26T09:13:57Z</time></trkpt><trkpt lat="45.90495436827269" lon="12.170545607105478"><ele>133.57142857142856</ele><time>2026-04-26T09:13:58Z</time></trkpt><trkpt lat="45.90502617276941" lon="12.170521608461032"><ele>133.85714285714286</ele><time>2026-04-26T09:13:59Z</time></trkpt><trkpt lat="45.90510056274006" lon="12.170486103687832"><ele>134.14285714285714</ele><time>2026-04-26T09:14:00Z</time></trkpt><trkpt lat="45.90516564191682" lon="12.17043671937402"><ele>134.42857142857142</ele><time>2026-04-26T09:14:01Z</time></trkpt><trkpt lat="45.905215261329026" lon="12.1703623900375"><ele>134.71428571428572</ele><time>2026-04-26T09:14:02Z</time></trkpt><trkpt lat="45.90528065010865" lon="12.170339168693808"><ele>135.0</ele><time>2026-04-26T09:14:03Z</time></trkpt><trkpt lat="45.90531425560016" lon="12.170421018691467"><ele>134.33333333333334</ele><time>2026-04-26T09:14:04Z</time></trkpt><trkpt lat="45.90536917332012" lon="12.170479690505918"><ele>133.66666666666666</ele><time>2026-04-26T09:14:05Z</time></trkpt><trkpt lat="45.90542295671285" lon="12.170535109063923"><ele>133.0</ele><time>2026-04-26T09:14:06Z</time></trkpt><trkpt lat="45.905476254913026" lon="12.170583973133738"><ele>132.33333333333331</ele><time>2026-04-26T09:14:07Z</time></trkpt><trkpt lat="45.90553358849783" lon="12.170626415650096"><ele>131.66666666666666</ele><time>2026-04-26T09:14:08Z</time></trkpt><trkpt lat="45.90560419748459" lon="12.170688980987283"><ele>131.0</ele><time>2026-04-26T09:14:10Z</time></trkpt><trkpt lat="45.90552435856861" lon="12.170977223404432"><ele>131.0</ele><time>2026-04-26T09:14:14Z</time></trkpt><trkpt lat="45.90554496785203" lon="12.171083208808074"><ele>131.0</ele><time>2026-04-26T09:14:17Z</time></trkpt><trkpt lat="45.90549407270822" lon="12.171153481455592"><ele>131.0</ele><time>2026-04-26T09:14:45Z</time></trkpt><trkpt lat="45.90543263521767" lon="12.17110414080443"><ele>131.0</ele><time>2026-04-26T09:14:48Z</time></trkpt></trkseg></trk></gpx>